﻿<?xml version="1.0" encoding="UTF-8" standalone="no" ?>
<gpx xmlns="http://www.topografix.com/GPX/1/1" creator="CompeGPS" version="1.1" xmlns:xsi="http://www.w3.org/2001/XMLSchema-instance" xsi:schemaLocation="http://www.topografix.com/GPX/1/1 http://www.topografix.com/GPX/1/1/gpx.xsd http://www.garmin.com/xmlschemas/GpxExtensions/v3 http://www.garmin.com/xmlschemas/GpxExtensionsv3.xsd http://www.garmin.com/xmlschemas/TrackPointExtension/v1 http://www.garmin.com/xmlschemas/TrackPointExtensionv1.xsd" xmlns:gpxtpx="http://www.garmin.com/xmlschemas/TrackPointExtension/v1">
  <metadata>
    <link href="http://www.compegps.com">
      <text>CompeGPS TEAM, SL</text>
    </link>
    <time>2019-09-08T21:09:10Z</time>
    <bounds maxlat="42.786491" maxlon="0.155224" minlat="42.765631" minlon="0.111015"/>
  </metadata>
  <trk>
    <name>soum_des_salettes</name>
    <userMyTwoNav></userMyTwoNav>
    <serialNumber></serialNumber>
    <trkseg>
      <trkpt lat="42.786401" lon="0.155224">
        <ele>1853.0</ele>
        <time>2019-09-08T07:28:02Z</time>
      </trkpt>
      <trkpt lat="42.786430" lon="0.155097">
        <ele>1852.9</ele>
        <time>2019-09-08T07:28:15Z</time>
      </trkpt>
      <trkpt lat="42.786464" lon="0.154973">
        <ele>1853.0</ele>
        <time>2019-09-08T07:28:27Z</time>
      </trkpt>
      <trkpt lat="42.786475" lon="0.154837">
        <ele>1852.9</ele>
        <time>2019-09-08T07:28:39Z</time>
      </trkpt>
      <trkpt lat="42.786486" lon="0.154702">
        <ele>1852.8</ele>
        <time>2019-09-08T07:28:52Z</time>
      </trkpt>
      <trkpt lat="42.786491" lon="0.154570">
        <ele>1852.8</ele>
        <time>2019-09-08T07:29:03Z</time>
      </trkpt>
      <trkpt lat="42.786486" lon="0.154433">
        <ele>1852.4</ele>
        <time>2019-09-08T07:29:15Z</time>
      </trkpt>
      <trkpt lat="42.786487" lon="0.154306">
        <ele>1852.3</ele>
        <time>2019-09-08T07:29:26Z</time>
      </trkpt>
      <trkpt lat="42.786489" lon="0.154183">
        <ele>1852.1</ele>
        <time>2019-09-08T07:29:36Z</time>
      </trkpt>
      <trkpt lat="42.786471" lon="0.154061">
        <ele>1852.1</ele>
        <time>2019-09-08T07:29:48Z</time>
      </trkpt>
      <trkpt lat="42.786475" lon="0.153934">
        <ele>1852.3</ele>
        <time>2019-09-08T07:29:58Z</time>
      </trkpt>
      <trkpt lat="42.786418" lon="0.153791">
        <ele>1852.3</ele>
        <time>2019-09-08T07:30:40Z</time>
      </trkpt>
      <trkpt lat="42.786320" lon="0.153768">
        <ele>1851.5</ele>
        <time>2019-09-08T07:31:10Z</time>
      </trkpt>
      <trkpt lat="42.786283" lon="0.153562">
        <ele>1846.2</ele>
        <time>2019-09-08T07:31:33Z</time>
      </trkpt>
      <trkpt lat="42.786316" lon="0.153440">
        <ele>1843.8</ele>
        <time>2019-09-08T07:31:45Z</time>
      </trkpt>
      <trkpt lat="42.786374" lon="0.153355">
        <ele>1841.3</ele>
        <time>2019-09-08T07:31:56Z</time>
      </trkpt>
      <trkpt lat="42.786447" lon="0.153282">
        <ele>1839.1</ele>
        <time>2019-09-08T07:32:07Z</time>
      </trkpt>
      <trkpt lat="42.786401" lon="0.153058">
        <ele>1833.4</ele>
        <time>2019-09-08T07:32:38Z</time>
      </trkpt>
      <trkpt lat="42.786324" lon="0.152975">
        <ele>1832.3</ele>
        <time>2019-09-08T07:32:47Z</time>
      </trkpt>
      <trkpt lat="42.786336" lon="0.152849">
        <ele>1831.1</ele>
        <time>2019-09-08T07:32:55Z</time>
      </trkpt>
      <trkpt lat="42.786373" lon="0.152734">
        <ele>1830.1</ele>
        <time>2019-09-08T07:33:03Z</time>
      </trkpt>
      <trkpt lat="42.786377" lon="0.152609">
        <ele>1829.0</ele>
        <time>2019-09-08T07:33:12Z</time>
      </trkpt>
      <trkpt lat="42.786380" lon="0.152476">
        <ele>1828.4</ele>
        <time>2019-09-08T07:33:21Z</time>
      </trkpt>
      <trkpt lat="42.786393" lon="0.152348">
        <ele>1827.7</ele>
        <time>2019-09-08T07:33:30Z</time>
      </trkpt>
      <trkpt lat="42.786397" lon="0.152221">
        <ele>1827.2</ele>
        <time>2019-09-08T07:33:38Z</time>
      </trkpt>
      <trkpt lat="42.786403" lon="0.152091">
        <ele>1826.9</ele>
        <time>2019-09-08T07:33:46Z</time>
      </trkpt>
      <trkpt lat="42.786412" lon="0.151974">
        <ele>1826.5</ele>
        <time>2019-09-08T07:33:53Z</time>
      </trkpt>
      <trkpt lat="42.786432" lon="0.151855">
        <ele>1825.9</ele>
        <time>2019-09-08T07:34:01Z</time>
      </trkpt>
      <trkpt lat="42.786435" lon="0.151736">
        <ele>1825.3</ele>
        <time>2019-09-08T07:34:08Z</time>
      </trkpt>
      <trkpt lat="42.786439" lon="0.151613">
        <ele>1824.6</ele>
        <time>2019-09-08T07:34:16Z</time>
      </trkpt>
      <trkpt lat="42.786444" lon="0.151489">
        <ele>1823.6</ele>
        <time>2019-09-08T07:34:24Z</time>
      </trkpt>
      <trkpt lat="42.786449" lon="0.151370">
        <ele>1822.8</ele>
        <time>2019-09-08T07:34:33Z</time>
      </trkpt>
      <trkpt lat="42.786434" lon="0.151241">
        <ele>1822.3</ele>
        <time>2019-09-08T07:34:41Z</time>
      </trkpt>
      <trkpt lat="42.786413" lon="0.151103">
        <ele>1822.1</ele>
        <time>2019-09-08T07:34:49Z</time>
      </trkpt>
      <trkpt lat="42.786378" lon="0.150968">
        <ele>1821.8</ele>
        <time>2019-09-08T07:34:57Z</time>
      </trkpt>
      <trkpt lat="42.786350" lon="0.150834">
        <ele>1821.8</ele>
        <time>2019-09-08T07:35:05Z</time>
      </trkpt>
      <trkpt lat="42.786326" lon="0.150704">
        <ele>1822.3</ele>
        <time>2019-09-08T07:35:13Z</time>
      </trkpt>
      <trkpt lat="42.786323" lon="0.150561">
        <ele>1822.9</ele>
        <time>2019-09-08T07:35:22Z</time>
      </trkpt>
      <trkpt lat="42.786284" lon="0.150430">
        <ele>1823.1</ele>
        <time>2019-09-08T07:35:32Z</time>
      </trkpt>
      <trkpt lat="42.786237" lon="0.150320">
        <ele>1823.2</ele>
        <time>2019-09-08T07:35:40Z</time>
      </trkpt>
      <trkpt lat="42.786237" lon="0.150185">
        <ele>1823.2</ele>
        <time>2019-09-08T07:35:48Z</time>
      </trkpt>
      <trkpt lat="42.786186" lon="0.150078">
        <ele>1823.4</ele>
        <time>2019-09-08T07:35:56Z</time>
      </trkpt>
      <trkpt lat="42.786133" lon="0.149970">
        <ele>1823.8</ele>
        <time>2019-09-08T07:36:04Z</time>
      </trkpt>
      <trkpt lat="42.786092" lon="0.149852">
        <ele>1824.3</ele>
        <time>2019-09-08T07:36:18Z</time>
      </trkpt>
      <trkpt lat="42.786109" lon="0.149818">
        <ele>1824.4</ele>
        <time>2019-09-08T07:36:41Z</time>
      </trkpt>
      <trkpt lat="42.786107" lon="0.149687">
        <ele>1823.7</ele>
        <time>2019-09-08T07:36:55Z</time>
      </trkpt>
      <trkpt lat="42.786119" lon="0.149553">
        <ele>1821.9</ele>
        <time>2019-09-08T07:37:08Z</time>
      </trkpt>
      <trkpt lat="42.786120" lon="0.149425">
        <ele>1821.6</ele>
        <time>2019-09-08T07:37:17Z</time>
      </trkpt>
      <trkpt lat="42.786091" lon="0.149310">
        <ele>1821.2</ele>
        <time>2019-09-08T07:37:26Z</time>
      </trkpt>
      <trkpt lat="42.786078" lon="0.149171">
        <ele>1820.6</ele>
        <time>2019-09-08T07:37:36Z</time>
      </trkpt>
      <trkpt lat="42.786063" lon="0.149036">
        <ele>1820.4</ele>
        <time>2019-09-08T07:37:47Z</time>
      </trkpt>
      <trkpt lat="42.786018" lon="0.148902">
        <ele>1820.8</ele>
        <time>2019-09-08T07:37:58Z</time>
      </trkpt>
      <trkpt lat="42.785977" lon="0.148758">
        <ele>1821.1</ele>
        <time>2019-09-08T07:38:08Z</time>
      </trkpt>
      <trkpt lat="42.785938" lon="0.148625">
        <ele>1821.6</ele>
        <time>2019-09-08T07:38:18Z</time>
      </trkpt>
      <trkpt lat="42.785889" lon="0.148497">
        <ele>1822.1</ele>
        <time>2019-09-08T07:38:28Z</time>
      </trkpt>
      <trkpt lat="42.785882" lon="0.148363">
        <ele>1823.7</ele>
        <time>2019-09-08T07:38:40Z</time>
      </trkpt>
      <trkpt lat="42.785829" lon="0.148228">
        <ele>1825.0</ele>
        <time>2019-09-08T07:38:52Z</time>
      </trkpt>
      <trkpt lat="42.785803" lon="0.148088">
        <ele>1826.2</ele>
        <time>2019-09-08T07:39:02Z</time>
      </trkpt>
      <trkpt lat="42.785788" lon="0.147960">
        <ele>1826.6</ele>
        <time>2019-09-08T07:39:11Z</time>
      </trkpt>
      <trkpt lat="42.785775" lon="0.147827">
        <ele>1826.4</ele>
        <time>2019-09-08T07:39:21Z</time>
      </trkpt>
      <trkpt lat="42.785720" lon="0.147732">
        <ele>1826.5</ele>
        <time>2019-09-08T07:39:32Z</time>
      </trkpt>
      <trkpt lat="42.785645" lon="0.147628">
        <ele>1828.3</ele>
        <time>2019-09-08T07:39:45Z</time>
      </trkpt>
      <trkpt lat="42.785602" lon="0.147503">
        <ele>1829.4</ele>
        <time>2019-09-08T07:39:55Z</time>
      </trkpt>
      <trkpt lat="42.785612" lon="0.147375">
        <ele>1829.6</ele>
        <time>2019-09-08T07:40:04Z</time>
      </trkpt>
      <trkpt lat="42.785626" lon="0.147243">
        <ele>1829.4</ele>
        <time>2019-09-08T07:40:13Z</time>
      </trkpt>
      <trkpt lat="42.785625" lon="0.147097">
        <ele>1830.6</ele>
        <time>2019-09-08T07:40:25Z</time>
      </trkpt>
      <trkpt lat="42.785607" lon="0.146952">
        <ele>1831.1</ele>
        <time>2019-09-08T07:40:35Z</time>
      </trkpt>
      <trkpt lat="42.785566" lon="0.146822">
        <ele>1831.1</ele>
        <time>2019-09-08T07:40:46Z</time>
      </trkpt>
      <trkpt lat="42.785533" lon="0.146702">
        <ele>1831.7</ele>
        <time>2019-09-08T07:40:56Z</time>
      </trkpt>
      <trkpt lat="42.785534" lon="0.146571">
        <ele>1831.5</ele>
        <time>2019-09-08T07:41:04Z</time>
      </trkpt>
      <trkpt lat="42.785536" lon="0.146452">
        <ele>1831.5</ele>
        <time>2019-09-08T07:41:13Z</time>
      </trkpt>
      <trkpt lat="42.785525" lon="0.146353">
        <ele>1832.0</ele>
        <time>2019-09-08T07:41:28Z</time>
      </trkpt>
      <trkpt lat="42.785546" lon="0.146231">
        <ele>1830.2</ele>
        <time>2019-09-08T07:42:02Z</time>
      </trkpt>
      <trkpt lat="42.785634" lon="0.146149">
        <ele>1828.6</ele>
        <time>2019-09-08T07:42:11Z</time>
      </trkpt>
      <trkpt lat="42.785704" lon="0.146071">
        <ele>1828.2</ele>
        <time>2019-09-08T07:42:26Z</time>
      </trkpt>
      <trkpt lat="42.785643" lon="0.145977">
        <ele>1829.4</ele>
        <time>2019-09-08T07:42:37Z</time>
      </trkpt>
      <trkpt lat="42.785620" lon="0.145846">
        <ele>1830.9</ele>
        <time>2019-09-08T07:42:50Z</time>
      </trkpt>
      <trkpt lat="42.785637" lon="0.145710">
        <ele>1833.3</ele>
        <time>2019-09-08T07:43:03Z</time>
      </trkpt>
      <trkpt lat="42.785669" lon="0.145571">
        <ele>1835.4</ele>
        <time>2019-09-08T07:43:16Z</time>
      </trkpt>
      <trkpt lat="42.785695" lon="0.145436">
        <ele>1837.0</ele>
        <time>2019-09-08T07:43:27Z</time>
      </trkpt>
      <trkpt lat="42.785735" lon="0.145303">
        <ele>1838.9</ele>
        <time>2019-09-08T07:43:40Z</time>
      </trkpt>
      <trkpt lat="42.785773" lon="0.145154">
        <ele>1840.6</ele>
        <time>2019-09-08T07:43:51Z</time>
      </trkpt>
      <trkpt lat="42.785823" lon="0.145037">
        <ele>1842.2</ele>
        <time>2019-09-08T07:44:01Z</time>
      </trkpt>
      <trkpt lat="42.785840" lon="0.144910">
        <ele>1843.4</ele>
        <time>2019-09-08T07:44:12Z</time>
      </trkpt>
      <trkpt lat="42.785858" lon="0.144775">
        <ele>1846.0</ele>
        <time>2019-09-08T07:45:11Z</time>
      </trkpt>
      <trkpt lat="42.785857" lon="0.144778">
        <ele>1846.0</ele>
        <time>2019-09-08T07:45:41Z</time>
      </trkpt>
      <trkpt lat="42.785815" lon="0.144711">
        <ele>1845.6</ele>
        <time>2019-09-08T07:46:44Z</time>
      </trkpt>
      <trkpt lat="42.785761" lon="0.144584">
        <ele>1846.0</ele>
        <time>2019-09-08T07:46:55Z</time>
      </trkpt>
      <trkpt lat="42.785754" lon="0.144456">
        <ele>1847.3</ele>
        <time>2019-09-08T07:47:06Z</time>
      </trkpt>
      <trkpt lat="42.785751" lon="0.144325">
        <ele>1848.8</ele>
        <time>2019-09-08T07:47:17Z</time>
      </trkpt>
      <trkpt lat="42.785721" lon="0.144194">
        <ele>1850.3</ele>
        <time>2019-09-08T07:47:29Z</time>
      </trkpt>
      <trkpt lat="42.785692" lon="0.144064">
        <ele>1851.8</ele>
        <time>2019-09-08T07:47:41Z</time>
      </trkpt>
      <trkpt lat="42.785685" lon="0.143914">
        <ele>1853.5</ele>
        <time>2019-09-08T07:47:52Z</time>
      </trkpt>
      <trkpt lat="42.785694" lon="0.143801">
        <ele>1854.9</ele>
        <time>2019-09-08T07:48:03Z</time>
      </trkpt>
      <trkpt lat="42.785661" lon="0.143683">
        <ele>1856.6</ele>
        <time>2019-09-08T07:48:14Z</time>
      </trkpt>
      <trkpt lat="42.785584" lon="0.143615">
        <ele>1857.2</ele>
        <time>2019-09-08T07:48:25Z</time>
      </trkpt>
      <trkpt lat="42.785547" lon="0.143486">
        <ele>1859.1</ele>
        <time>2019-09-08T07:48:36Z</time>
      </trkpt>
      <trkpt lat="42.785518" lon="0.143369">
        <ele>1860.4</ele>
        <time>2019-09-08T07:48:46Z</time>
      </trkpt>
      <trkpt lat="42.785455" lon="0.143252">
        <ele>1862.0</ele>
        <time>2019-09-08T07:49:02Z</time>
      </trkpt>
      <trkpt lat="42.785444" lon="0.143169">
        <ele>1863.1</ele>
        <time>2019-09-08T07:50:33Z</time>
      </trkpt>
      <trkpt lat="42.785397" lon="0.143048">
        <ele>1864.5</ele>
        <time>2019-09-08T07:50:46Z</time>
      </trkpt>
      <trkpt lat="42.785359" lon="0.142928">
        <ele>1865.8</ele>
        <time>2019-09-08T07:50:56Z</time>
      </trkpt>
      <trkpt lat="42.785297" lon="0.142809">
        <ele>1867.0</ele>
        <time>2019-09-08T07:51:06Z</time>
      </trkpt>
      <trkpt lat="42.785236" lon="0.142718">
        <ele>1868.4</ele>
        <time>2019-09-08T07:51:16Z</time>
      </trkpt>
      <trkpt lat="42.785183" lon="0.142624">
        <ele>1869.0</ele>
        <time>2019-09-08T07:51:28Z</time>
      </trkpt>
      <trkpt lat="42.785152" lon="0.142489">
        <ele>1870.4</ele>
        <time>2019-09-08T07:51:41Z</time>
      </trkpt>
      <trkpt lat="42.785093" lon="0.142417">
        <ele>1871.7</ele>
        <time>2019-09-08T07:51:51Z</time>
      </trkpt>
      <trkpt lat="42.785001" lon="0.142419">
        <ele>1871.8</ele>
        <time>2019-09-08T07:51:59Z</time>
      </trkpt>
      <trkpt lat="42.784915" lon="0.142349">
        <ele>1872.8</ele>
        <time>2019-09-08T07:52:12Z</time>
      </trkpt>
      <trkpt lat="42.784820" lon="0.142260">
        <ele>1873.9</ele>
        <time>2019-09-08T07:52:22Z</time>
      </trkpt>
      <trkpt lat="42.784743" lon="0.142188">
        <ele>1874.5</ele>
        <time>2019-09-08T07:52:31Z</time>
      </trkpt>
      <trkpt lat="42.784661" lon="0.142134">
        <ele>1875.1</ele>
        <time>2019-09-08T07:52:41Z</time>
      </trkpt>
      <trkpt lat="42.784588" lon="0.142056">
        <ele>1875.4</ele>
        <time>2019-09-08T07:52:51Z</time>
      </trkpt>
      <trkpt lat="42.784515" lon="0.141943">
        <ele>1875.6</ele>
        <time>2019-09-08T07:53:00Z</time>
      </trkpt>
      <trkpt lat="42.784434" lon="0.141862">
        <ele>1875.7</ele>
        <time>2019-09-08T07:53:08Z</time>
      </trkpt>
      <trkpt lat="42.784352" lon="0.141828">
        <ele>1875.3</ele>
        <time>2019-09-08T07:53:17Z</time>
      </trkpt>
      <trkpt lat="42.784271" lon="0.141811">
        <ele>1875.2</ele>
        <time>2019-09-08T07:53:26Z</time>
      </trkpt>
      <trkpt lat="42.784228" lon="0.141760">
        <ele>1875.5</ele>
        <time>2019-09-08T07:53:35Z</time>
      </trkpt>
      <trkpt lat="42.784171" lon="0.141643">
        <ele>1877.0</ele>
        <time>2019-09-08T07:53:48Z</time>
      </trkpt>
      <trkpt lat="42.784123" lon="0.141516">
        <ele>1879.4</ele>
        <time>2019-09-08T07:54:02Z</time>
      </trkpt>
      <trkpt lat="42.784065" lon="0.141383">
        <ele>1881.1</ele>
        <time>2019-09-08T07:54:15Z</time>
      </trkpt>
      <trkpt lat="42.784002" lon="0.141272">
        <ele>1882.5</ele>
        <time>2019-09-08T07:54:26Z</time>
      </trkpt>
      <trkpt lat="42.783933" lon="0.141171">
        <ele>1883.1</ele>
        <time>2019-09-08T07:54:36Z</time>
      </trkpt>
      <trkpt lat="42.783915" lon="0.141039">
        <ele>1884.9</ele>
        <time>2019-09-08T07:54:47Z</time>
      </trkpt>
      <trkpt lat="42.783909" lon="0.140892">
        <ele>1886.9</ele>
        <time>2019-09-08T07:54:58Z</time>
      </trkpt>
      <trkpt lat="42.783885" lon="0.140771">
        <ele>1888.6</ele>
        <time>2019-09-08T07:55:08Z</time>
      </trkpt>
      <trkpt lat="42.783865" lon="0.140648">
        <ele>1889.7</ele>
        <time>2019-09-08T07:55:18Z</time>
      </trkpt>
      <trkpt lat="42.783844" lon="0.140530">
        <ele>1890.3</ele>
        <time>2019-09-08T07:55:27Z</time>
      </trkpt>
      <trkpt lat="42.783778" lon="0.140420">
        <ele>1891.1</ele>
        <time>2019-09-08T07:55:37Z</time>
      </trkpt>
      <trkpt lat="42.783769" lon="0.140293">
        <ele>1892.7</ele>
        <time>2019-09-08T07:55:48Z</time>
      </trkpt>
      <trkpt lat="42.783758" lon="0.140151">
        <ele>1895.2</ele>
        <time>2019-09-08T07:56:02Z</time>
      </trkpt>
      <trkpt lat="42.783751" lon="0.140018">
        <ele>1896.4</ele>
        <time>2019-09-08T07:56:13Z</time>
      </trkpt>
      <trkpt lat="42.783755" lon="0.139892">
        <ele>1898.6</ele>
        <time>2019-09-08T07:56:24Z</time>
      </trkpt>
      <trkpt lat="42.783751" lon="0.139773">
        <ele>1900.0</ele>
        <time>2019-09-08T07:56:34Z</time>
      </trkpt>
      <trkpt lat="42.783741" lon="0.139648">
        <ele>1901.3</ele>
        <time>2019-09-08T07:56:44Z</time>
      </trkpt>
      <trkpt lat="42.783739" lon="0.139530">
        <ele>1902.4</ele>
        <time>2019-09-08T07:56:53Z</time>
      </trkpt>
      <trkpt lat="42.783737" lon="0.139414">
        <ele>1904.1</ele>
        <time>2019-09-08T07:57:05Z</time>
      </trkpt>
      <trkpt lat="42.783765" lon="0.139275">
        <ele>1906.2</ele>
        <time>2019-09-08T07:57:18Z</time>
      </trkpt>
      <trkpt lat="42.783805" lon="0.139164">
        <ele>1907.9</ele>
        <time>2019-09-08T07:57:30Z</time>
      </trkpt>
      <trkpt lat="42.783854" lon="0.139045">
        <ele>1909.1</ele>
        <time>2019-09-08T07:57:40Z</time>
      </trkpt>
      <trkpt lat="42.783874" lon="0.138919">
        <ele>1910.2</ele>
        <time>2019-09-08T07:57:51Z</time>
      </trkpt>
      <trkpt lat="42.783875" lon="0.138802">
        <ele>1912.3</ele>
        <time>2019-09-08T07:58:02Z</time>
      </trkpt>
      <trkpt lat="42.783902" lon="0.138675">
        <ele>1914.6</ele>
        <time>2019-09-08T07:58:15Z</time>
      </trkpt>
      <trkpt lat="42.783940" lon="0.138528">
        <ele>1916.2</ele>
        <time>2019-09-08T07:58:27Z</time>
      </trkpt>
      <trkpt lat="42.783974" lon="0.138392">
        <ele>1918.2</ele>
        <time>2019-09-08T07:58:36Z</time>
      </trkpt>
      <trkpt lat="42.784011" lon="0.138286">
        <ele>1919.9</ele>
        <time>2019-09-08T07:58:46Z</time>
      </trkpt>
      <trkpt lat="42.784041" lon="0.138175">
        <ele>1922.2</ele>
        <time>2019-09-08T07:59:00Z</time>
      </trkpt>
      <trkpt lat="42.784021" lon="0.138081">
        <ele>1923.8</ele>
        <time>2019-09-08T07:59:29Z</time>
      </trkpt>
      <trkpt lat="42.784060" lon="0.137959">
        <ele>1925.3</ele>
        <time>2019-09-08T07:59:50Z</time>
      </trkpt>
      <trkpt lat="42.784086" lon="0.137816">
        <ele>1926.3</ele>
        <time>2019-09-08T08:00:04Z</time>
      </trkpt>
      <trkpt lat="42.784096" lon="0.137674">
        <ele>1927.7</ele>
        <time>2019-09-08T08:00:15Z</time>
      </trkpt>
      <trkpt lat="42.784115" lon="0.137544">
        <ele>1929.5</ele>
        <time>2019-09-08T08:00:27Z</time>
      </trkpt>
      <trkpt lat="42.784093" lon="0.137410">
        <ele>1930.9</ele>
        <time>2019-09-08T08:00:38Z</time>
      </trkpt>
      <trkpt lat="42.784114" lon="0.137273">
        <ele>1933.1</ele>
        <time>2019-09-08T08:00:51Z</time>
      </trkpt>
      <trkpt lat="42.784153" lon="0.137150">
        <ele>1934.9</ele>
        <time>2019-09-08T08:01:03Z</time>
      </trkpt>
      <trkpt lat="42.784188" lon="0.137027">
        <ele>1936.6</ele>
        <time>2019-09-08T08:01:15Z</time>
      </trkpt>
      <trkpt lat="42.784217" lon="0.136899">
        <ele>1938.9</ele>
        <time>2019-09-08T08:01:28Z</time>
      </trkpt>
      <trkpt lat="42.784278" lon="0.136781">
        <ele>1940.6</ele>
        <time>2019-09-08T08:01:41Z</time>
      </trkpt>
      <trkpt lat="42.784300" lon="0.136654">
        <ele>1941.1</ele>
        <time>2019-09-08T08:01:54Z</time>
      </trkpt>
      <trkpt lat="42.784318" lon="0.136530">
        <ele>1943.3</ele>
        <time>2019-09-08T08:02:08Z</time>
      </trkpt>
      <trkpt lat="42.784314" lon="0.136396">
        <ele>1945.6</ele>
        <time>2019-09-08T08:02:22Z</time>
      </trkpt>
      <trkpt lat="42.784299" lon="0.136277">
        <ele>1946.7</ele>
        <time>2019-09-08T08:02:32Z</time>
      </trkpt>
      <trkpt lat="42.784268" lon="0.136175">
        <ele>1947.8</ele>
        <time>2019-09-08T08:02:43Z</time>
      </trkpt>
      <trkpt lat="42.784226" lon="0.136069">
        <ele>1949.9</ele>
        <time>2019-09-08T08:02:56Z</time>
      </trkpt>
      <trkpt lat="42.784157" lon="0.135978">
        <ele>1951.5</ele>
        <time>2019-09-08T08:03:09Z</time>
      </trkpt>
      <trkpt lat="42.784067" lon="0.135921">
        <ele>1952.8</ele>
        <time>2019-09-08T08:03:20Z</time>
      </trkpt>
      <trkpt lat="42.784005" lon="0.135830">
        <ele>1954.8</ele>
        <time>2019-09-08T08:03:32Z</time>
      </trkpt>
      <trkpt lat="42.783925" lon="0.135767">
        <ele>1956.4</ele>
        <time>2019-09-08T08:03:42Z</time>
      </trkpt>
      <trkpt lat="42.783844" lon="0.135694">
        <ele>1958.2</ele>
        <time>2019-09-08T08:03:55Z</time>
      </trkpt>
      <trkpt lat="42.783764" lon="0.135602">
        <ele>1959.5</ele>
        <time>2019-09-08T08:04:08Z</time>
      </trkpt>
      <trkpt lat="42.783693" lon="0.135500">
        <ele>1961.4</ele>
        <time>2019-09-08T08:04:20Z</time>
      </trkpt>
      <trkpt lat="42.783637" lon="0.135410">
        <ele>1962.8</ele>
        <time>2019-09-08T08:04:32Z</time>
      </trkpt>
      <trkpt lat="42.783583" lon="0.135295">
        <ele>1964.5</ele>
        <time>2019-09-08T08:04:46Z</time>
      </trkpt>
      <trkpt lat="42.783528" lon="0.135176">
        <ele>1965.8</ele>
        <time>2019-09-08T08:04:59Z</time>
      </trkpt>
      <trkpt lat="42.783476" lon="0.135079">
        <ele>1967.3</ele>
        <time>2019-09-08T08:05:12Z</time>
      </trkpt>
      <trkpt lat="42.783410" lon="0.134963">
        <ele>1969.5</ele>
        <time>2019-09-08T08:05:25Z</time>
      </trkpt>
      <trkpt lat="42.783359" lon="0.134853">
        <ele>1970.6</ele>
        <time>2019-09-08T08:05:36Z</time>
      </trkpt>
      <trkpt lat="42.783302" lon="0.134745">
        <ele>1971.7</ele>
        <time>2019-09-08T08:05:48Z</time>
      </trkpt>
      <trkpt lat="42.783214" lon="0.134660">
        <ele>1972.6</ele>
        <time>2019-09-08T08:05:59Z</time>
      </trkpt>
      <trkpt lat="42.783157" lon="0.134544">
        <ele>1974.4</ele>
        <time>2019-09-08T08:06:13Z</time>
      </trkpt>
      <trkpt lat="42.783085" lon="0.134490">
        <ele>1974.5</ele>
        <time>2019-09-08T08:06:24Z</time>
      </trkpt>
      <trkpt lat="42.783032" lon="0.134454">
        <ele>1976.2</ele>
        <time>2019-09-08T08:06:58Z</time>
      </trkpt>
      <trkpt lat="42.782945" lon="0.134391">
        <ele>1976.2</ele>
        <time>2019-09-08T08:07:09Z</time>
      </trkpt>
      <trkpt lat="42.782877" lon="0.134333">
        <ele>1976.9</ele>
        <time>2019-09-08T08:07:19Z</time>
      </trkpt>
      <trkpt lat="42.782783" lon="0.134314">
        <ele>1977.4</ele>
        <time>2019-09-08T08:07:31Z</time>
      </trkpt>
      <trkpt lat="42.782714" lon="0.134259">
        <ele>1978.6</ele>
        <time>2019-09-08T08:07:42Z</time>
      </trkpt>
      <trkpt lat="42.782671" lon="0.134193">
        <ele>1981.7</ele>
        <time>2019-09-08T08:07:55Z</time>
      </trkpt>
      <trkpt lat="42.782577" lon="0.134168">
        <ele>1984.0</ele>
        <time>2019-09-08T08:08:06Z</time>
      </trkpt>
      <trkpt lat="42.782471" lon="0.134152">
        <ele>1987.1</ele>
        <time>2019-09-08T08:08:19Z</time>
      </trkpt>
      <trkpt lat="42.782390" lon="0.134104">
        <ele>1989.7</ele>
        <time>2019-09-08T08:08:33Z</time>
      </trkpt>
      <trkpt lat="42.782285" lon="0.134084">
        <ele>1991.9</ele>
        <time>2019-09-08T08:08:45Z</time>
      </trkpt>
      <trkpt lat="42.782216" lon="0.134029">
        <ele>1995.5</ele>
        <time>2019-09-08T08:09:02Z</time>
      </trkpt>
      <trkpt lat="42.782107" lon="0.134005">
        <ele>1998.5</ele>
        <time>2019-09-08T08:09:14Z</time>
      </trkpt>
      <trkpt lat="42.782020" lon="0.133965">
        <ele>1999.8</ele>
        <time>2019-09-08T08:09:26Z</time>
      </trkpt>
      <trkpt lat="42.781962" lon="0.133860">
        <ele>1999.6</ele>
        <time>2019-09-08T08:09:38Z</time>
      </trkpt>
      <trkpt lat="42.781882" lon="0.133743">
        <ele>2002.6</ele>
        <time>2019-09-08T08:09:52Z</time>
      </trkpt>
      <trkpt lat="42.781819" lon="0.133622">
        <ele>2004.5</ele>
        <time>2019-09-08T08:10:03Z</time>
      </trkpt>
      <trkpt lat="42.781735" lon="0.133544">
        <ele>2005.4</ele>
        <time>2019-09-08T08:10:14Z</time>
      </trkpt>
      <trkpt lat="42.781659" lon="0.133454">
        <ele>2007.6</ele>
        <time>2019-09-08T08:10:27Z</time>
      </trkpt>
      <trkpt lat="42.781577" lon="0.133368">
        <ele>2008.8</ele>
        <time>2019-09-08T08:10:36Z</time>
      </trkpt>
      <trkpt lat="42.781494" lon="0.133328">
        <ele>2009.2</ele>
        <time>2019-09-08T08:10:44Z</time>
      </trkpt>
      <trkpt lat="42.781414" lon="0.133284">
        <ele>2011.6</ele>
        <time>2019-09-08T08:11:00Z</time>
      </trkpt>
      <trkpt lat="42.781333" lon="0.133205">
        <ele>2013.7</ele>
        <time>2019-09-08T08:11:12Z</time>
      </trkpt>
      <trkpt lat="42.781275" lon="0.133114">
        <ele>2014.9</ele>
        <time>2019-09-08T08:11:24Z</time>
      </trkpt>
      <trkpt lat="42.781196" lon="0.133059">
        <ele>2016.3</ele>
        <time>2019-09-08T08:11:37Z</time>
      </trkpt>
      <trkpt lat="42.781092" lon="0.133059">
        <ele>2017.8</ele>
        <time>2019-09-08T08:11:50Z</time>
      </trkpt>
      <trkpt lat="42.780998" lon="0.133024">
        <ele>2019.9</ele>
        <time>2019-09-08T08:12:04Z</time>
      </trkpt>
      <trkpt lat="42.780911" lon="0.132964">
        <ele>2021.8</ele>
        <time>2019-09-08T08:12:16Z</time>
      </trkpt>
      <trkpt lat="42.780824" lon="0.132893">
        <ele>2024.4</ele>
        <time>2019-09-08T08:12:29Z</time>
      </trkpt>
      <trkpt lat="42.780791" lon="0.132772">
        <ele>2027.0</ele>
        <time>2019-09-08T08:12:44Z</time>
      </trkpt>
      <trkpt lat="42.780719" lon="0.132720">
        <ele>2029.1</ele>
        <time>2019-09-08T08:12:57Z</time>
      </trkpt>
      <trkpt lat="42.780619" lon="0.132725">
        <ele>2029.8</ele>
        <time>2019-09-08T08:13:06Z</time>
      </trkpt>
      <trkpt lat="42.780568" lon="0.132576">
        <ele>2032.5</ele>
        <time>2019-09-08T08:13:21Z</time>
      </trkpt>
      <trkpt lat="42.780492" lon="0.132560">
        <ele>2034.0</ele>
        <time>2019-09-08T08:13:32Z</time>
      </trkpt>
      <trkpt lat="42.780401" lon="0.132495">
        <ele>2035.3</ele>
        <time>2019-09-08T08:13:42Z</time>
      </trkpt>
      <trkpt lat="42.780326" lon="0.132440">
        <ele>2036.0</ele>
        <time>2019-09-08T08:13:51Z</time>
      </trkpt>
      <trkpt lat="42.780255" lon="0.132342">
        <ele>2037.2</ele>
        <time>2019-09-08T08:14:02Z</time>
      </trkpt>
      <trkpt lat="42.780185" lon="0.132250">
        <ele>2039.0</ele>
        <time>2019-09-08T08:14:12Z</time>
      </trkpt>
      <trkpt lat="42.780114" lon="0.132193">
        <ele>2041.2</ele>
        <time>2019-09-08T08:14:25Z</time>
      </trkpt>
      <trkpt lat="42.780038" lon="0.132186">
        <ele>2041.9</ele>
        <time>2019-09-08T08:14:38Z</time>
      </trkpt>
      <trkpt lat="42.779969" lon="0.132093">
        <ele>2042.9</ele>
        <time>2019-09-08T08:14:55Z</time>
      </trkpt>
      <trkpt lat="42.779889" lon="0.132050">
        <ele>2045.9</ele>
        <time>2019-09-08T08:15:09Z</time>
      </trkpt>
      <trkpt lat="42.779819" lon="0.132028">
        <ele>2048.9</ele>
        <time>2019-09-08T08:15:22Z</time>
      </trkpt>
      <trkpt lat="42.779754" lon="0.132018">
        <ele>2051.4</ele>
        <time>2019-09-08T08:15:33Z</time>
      </trkpt>
      <trkpt lat="42.779674" lon="0.131986">
        <ele>2053.4</ele>
        <time>2019-09-08T08:15:45Z</time>
      </trkpt>
      <trkpt lat="42.779605" lon="0.131900">
        <ele>2055.9</ele>
        <time>2019-09-08T08:15:57Z</time>
      </trkpt>
      <trkpt lat="42.779501" lon="0.131901">
        <ele>2058.9</ele>
        <time>2019-09-08T08:16:11Z</time>
      </trkpt>
      <trkpt lat="42.779406" lon="0.131923">
        <ele>2060.9</ele>
        <time>2019-09-08T08:16:22Z</time>
      </trkpt>
      <trkpt lat="42.779296" lon="0.131926">
        <ele>2062.1</ele>
        <time>2019-09-08T08:16:32Z</time>
      </trkpt>
      <trkpt lat="42.779211" lon="0.131951">
        <ele>2063.0</ele>
        <time>2019-09-08T08:16:45Z</time>
      </trkpt>
      <trkpt lat="42.779111" lon="0.131966">
        <ele>2064.5</ele>
        <time>2019-09-08T08:16:58Z</time>
      </trkpt>
      <trkpt lat="42.779019" lon="0.131986">
        <ele>2064.8</ele>
        <time>2019-09-08T08:17:08Z</time>
      </trkpt>
      <trkpt lat="42.778943" lon="0.131946">
        <ele>2065.8</ele>
        <time>2019-09-08T08:17:22Z</time>
      </trkpt>
      <trkpt lat="42.778888" lon="0.131989">
        <ele>2066.7</ele>
        <time>2019-09-08T08:18:03Z</time>
      </trkpt>
      <trkpt lat="42.778835" lon="0.131927">
        <ele>2068.1</ele>
        <time>2019-09-08T08:24:41Z</time>
      </trkpt>
      <trkpt lat="42.778755" lon="0.131855">
        <ele>2069.7</ele>
        <time>2019-09-08T08:24:52Z</time>
      </trkpt>
      <trkpt lat="42.778661" lon="0.131830">
        <ele>2070.8</ele>
        <time>2019-09-08T08:25:05Z</time>
      </trkpt>
      <trkpt lat="42.778557" lon="0.131818">
        <ele>2071.3</ele>
        <time>2019-09-08T08:25:18Z</time>
      </trkpt>
      <trkpt lat="42.778477" lon="0.131778">
        <ele>2072.4</ele>
        <time>2019-09-08T08:25:29Z</time>
      </trkpt>
      <trkpt lat="42.778399" lon="0.131721">
        <ele>2073.9</ele>
        <time>2019-09-08T08:25:40Z</time>
      </trkpt>
      <trkpt lat="42.778313" lon="0.131683">
        <ele>2075.3</ele>
        <time>2019-09-08T08:25:51Z</time>
      </trkpt>
      <trkpt lat="42.778265" lon="0.131582">
        <ele>2077.1</ele>
        <time>2019-09-08T08:26:02Z</time>
      </trkpt>
      <trkpt lat="42.778195" lon="0.131502">
        <ele>2078.7</ele>
        <time>2019-09-08T08:26:13Z</time>
      </trkpt>
      <trkpt lat="42.778122" lon="0.131430">
        <ele>2080.1</ele>
        <time>2019-09-08T08:26:24Z</time>
      </trkpt>
      <trkpt lat="42.778035" lon="0.131364">
        <ele>2081.1</ele>
        <time>2019-09-08T08:26:33Z</time>
      </trkpt>
      <trkpt lat="42.777961" lon="0.131305">
        <ele>2082.4</ele>
        <time>2019-09-08T08:26:43Z</time>
      </trkpt>
      <trkpt lat="42.777883" lon="0.131238">
        <ele>2083.8</ele>
        <time>2019-09-08T08:26:54Z</time>
      </trkpt>
      <trkpt lat="42.777792" lon="0.131202">
        <ele>2084.7</ele>
        <time>2019-09-08T08:27:03Z</time>
      </trkpt>
      <trkpt lat="42.777709" lon="0.131158">
        <ele>2085.4</ele>
        <time>2019-09-08T08:27:13Z</time>
      </trkpt>
      <trkpt lat="42.777627" lon="0.131067">
        <ele>2087.5</ele>
        <time>2019-09-08T08:27:25Z</time>
      </trkpt>
      <trkpt lat="42.777559" lon="0.130985">
        <ele>2088.6</ele>
        <time>2019-09-08T08:27:35Z</time>
      </trkpt>
      <trkpt lat="42.777480" lon="0.130897">
        <ele>2089.3</ele>
        <time>2019-09-08T08:27:45Z</time>
      </trkpt>
      <trkpt lat="42.777421" lon="0.130800">
        <ele>2090.3</ele>
        <time>2019-09-08T08:27:54Z</time>
      </trkpt>
      <trkpt lat="42.777356" lon="0.130678">
        <ele>2091.9</ele>
        <time>2019-09-08T08:28:07Z</time>
      </trkpt>
      <trkpt lat="42.777284" lon="0.130598">
        <ele>2092.7</ele>
        <time>2019-09-08T08:28:16Z</time>
      </trkpt>
      <trkpt lat="42.777207" lon="0.130557">
        <ele>2093.4</ele>
        <time>2019-09-08T08:28:26Z</time>
      </trkpt>
      <trkpt lat="42.777114" lon="0.130518">
        <ele>2093.9</ele>
        <time>2019-09-08T08:28:36Z</time>
      </trkpt>
      <trkpt lat="42.777012" lon="0.130488">
        <ele>2094.2</ele>
        <time>2019-09-08T08:28:46Z</time>
      </trkpt>
      <trkpt lat="42.776933" lon="0.130415">
        <ele>2095.3</ele>
        <time>2019-09-08T08:28:56Z</time>
      </trkpt>
      <trkpt lat="42.776853" lon="0.130363">
        <ele>2096.5</ele>
        <time>2019-09-08T08:29:05Z</time>
      </trkpt>
      <trkpt lat="42.776780" lon="0.130286">
        <ele>2097.4</ele>
        <time>2019-09-08T08:29:15Z</time>
      </trkpt>
      <trkpt lat="42.776734" lon="0.130162">
        <ele>2098.8</ele>
        <time>2019-09-08T08:29:26Z</time>
      </trkpt>
      <trkpt lat="42.776685" lon="0.130056">
        <ele>2100.2</ele>
        <time>2019-09-08T08:29:38Z</time>
      </trkpt>
      <trkpt lat="42.776583" lon="0.130033">
        <ele>2101.2</ele>
        <time>2019-09-08T08:29:51Z</time>
      </trkpt>
      <trkpt lat="42.776511" lon="0.130099">
        <ele>2101.9</ele>
        <time>2019-09-08T08:30:02Z</time>
      </trkpt>
      <trkpt lat="42.776428" lon="0.130172">
        <ele>2103.2</ele>
        <time>2019-09-08T08:30:13Z</time>
      </trkpt>
      <trkpt lat="42.776330" lon="0.130178">
        <ele>2104.4</ele>
        <time>2019-09-08T08:30:24Z</time>
      </trkpt>
      <trkpt lat="42.776234" lon="0.130147">
        <ele>2105.3</ele>
        <time>2019-09-08T08:30:34Z</time>
      </trkpt>
      <trkpt lat="42.776158" lon="0.130081">
        <ele>2106.6</ele>
        <time>2019-09-08T08:30:45Z</time>
      </trkpt>
      <trkpt lat="42.776079" lon="0.130014">
        <ele>2108.7</ele>
        <time>2019-09-08T08:30:57Z</time>
      </trkpt>
      <trkpt lat="42.776007" lon="0.129904">
        <ele>2109.9</ele>
        <time>2019-09-08T08:31:08Z</time>
      </trkpt>
      <trkpt lat="42.775943" lon="0.129781">
        <ele>2110.1</ele>
        <time>2019-09-08T08:31:18Z</time>
      </trkpt>
      <trkpt lat="42.775906" lon="0.129665">
        <ele>2110.1</ele>
        <time>2019-09-08T08:31:27Z</time>
      </trkpt>
      <trkpt lat="42.775869" lon="0.129553">
        <ele>2110.5</ele>
        <time>2019-09-08T08:31:36Z</time>
      </trkpt>
      <trkpt lat="42.775840" lon="0.129447">
        <ele>2110.5</ele>
        <time>2019-09-08T08:31:48Z</time>
      </trkpt>
      <trkpt lat="42.775801" lon="0.129309">
        <ele>2111.8</ele>
        <time>2019-09-08T08:31:59Z</time>
      </trkpt>
      <trkpt lat="42.775780" lon="0.129169">
        <ele>2113.1</ele>
        <time>2019-09-08T08:32:10Z</time>
      </trkpt>
      <trkpt lat="42.775742" lon="0.129035">
        <ele>2114.1</ele>
        <time>2019-09-08T08:32:20Z</time>
      </trkpt>
      <trkpt lat="42.775716" lon="0.128906">
        <ele>2114.3</ele>
        <time>2019-09-08T08:32:29Z</time>
      </trkpt>
      <trkpt lat="42.775672" lon="0.128781">
        <ele>2114.6</ele>
        <time>2019-09-08T08:32:38Z</time>
      </trkpt>
      <trkpt lat="42.775629" lon="0.128664">
        <ele>2114.5</ele>
        <time>2019-09-08T08:32:47Z</time>
      </trkpt>
      <trkpt lat="42.775587" lon="0.128557">
        <ele>2114.3</ele>
        <time>2019-09-08T08:32:56Z</time>
      </trkpt>
      <trkpt lat="42.775530" lon="0.128442">
        <ele>2114.0</ele>
        <time>2019-09-08T08:33:05Z</time>
      </trkpt>
      <trkpt lat="42.775491" lon="0.128324">
        <ele>2114.4</ele>
        <time>2019-09-08T08:33:15Z</time>
      </trkpt>
      <trkpt lat="42.775454" lon="0.128192">
        <ele>2115.8</ele>
        <time>2019-09-08T08:33:26Z</time>
      </trkpt>
      <trkpt lat="42.775394" lon="0.128103">
        <ele>2116.9</ele>
        <time>2019-09-08T08:33:35Z</time>
      </trkpt>
      <trkpt lat="42.775332" lon="0.127990">
        <ele>2117.9</ele>
        <time>2019-09-08T08:33:44Z</time>
      </trkpt>
      <trkpt lat="42.775264" lon="0.127889">
        <ele>2118.3</ele>
        <time>2019-09-08T08:33:53Z</time>
      </trkpt>
      <trkpt lat="42.775231" lon="0.127791">
        <ele>2118.3</ele>
        <time>2019-09-08T08:34:02Z</time>
      </trkpt>
      <trkpt lat="42.775166" lon="0.127713">
        <ele>2118.2</ele>
        <time>2019-09-08T08:34:10Z</time>
      </trkpt>
      <trkpt lat="42.775101" lon="0.127618">
        <ele>2118.2</ele>
        <time>2019-09-08T08:34:19Z</time>
      </trkpt>
      <trkpt lat="42.775046" lon="0.127515">
        <ele>2118.8</ele>
        <time>2019-09-08T08:34:29Z</time>
      </trkpt>
      <trkpt lat="42.774962" lon="0.127454">
        <ele>2119.8</ele>
        <time>2019-09-08T08:34:40Z</time>
      </trkpt>
      <trkpt lat="42.774874" lon="0.127454">
        <ele>2121.0</ele>
        <time>2019-09-08T08:34:50Z</time>
      </trkpt>
      <trkpt lat="42.774789" lon="0.127484">
        <ele>2121.8</ele>
        <time>2019-09-08T08:35:00Z</time>
      </trkpt>
      <trkpt lat="42.774704" lon="0.127518">
        <ele>2122.3</ele>
        <time>2019-09-08T08:35:10Z</time>
      </trkpt>
      <trkpt lat="42.774635" lon="0.127605">
        <ele>2122.6</ele>
        <time>2019-09-08T08:35:19Z</time>
      </trkpt>
      <trkpt lat="42.774566" lon="0.127676">
        <ele>2123.4</ele>
        <time>2019-09-08T08:35:28Z</time>
      </trkpt>
      <trkpt lat="42.774499" lon="0.127754">
        <ele>2124.1</ele>
        <time>2019-09-08T08:35:38Z</time>
      </trkpt>
      <trkpt lat="42.774422" lon="0.127834">
        <ele>2125.0</ele>
        <time>2019-09-08T08:35:48Z</time>
      </trkpt>
      <trkpt lat="42.774351" lon="0.127925">
        <ele>2126.3</ele>
        <time>2019-09-08T08:35:58Z</time>
      </trkpt>
      <trkpt lat="42.774283" lon="0.128000">
        <ele>2127.4</ele>
        <time>2019-09-08T08:36:08Z</time>
      </trkpt>
      <trkpt lat="42.774214" lon="0.128080">
        <ele>2128.9</ele>
        <time>2019-09-08T08:36:18Z</time>
      </trkpt>
      <trkpt lat="42.774136" lon="0.128147">
        <ele>2130.0</ele>
        <time>2019-09-08T08:36:27Z</time>
      </trkpt>
      <trkpt lat="42.774065" lon="0.128223">
        <ele>2131.2</ele>
        <time>2019-09-08T08:36:38Z</time>
      </trkpt>
      <trkpt lat="42.774009" lon="0.128321">
        <ele>2132.5</ele>
        <time>2019-09-08T08:36:48Z</time>
      </trkpt>
      <trkpt lat="42.773962" lon="0.128419">
        <ele>2134.1</ele>
        <time>2019-09-08T08:36:58Z</time>
      </trkpt>
      <trkpt lat="42.773934" lon="0.128539">
        <ele>2135.5</ele>
        <time>2019-09-08T08:37:08Z</time>
      </trkpt>
      <trkpt lat="42.773908" lon="0.128650">
        <ele>2136.5</ele>
        <time>2019-09-08T08:37:17Z</time>
      </trkpt>
      <trkpt lat="42.773878" lon="0.128757">
        <ele>2137.1</ele>
        <time>2019-09-08T08:37:26Z</time>
      </trkpt>
      <trkpt lat="42.773809" lon="0.128849">
        <ele>2137.8</ele>
        <time>2019-09-08T08:37:36Z</time>
      </trkpt>
      <trkpt lat="42.773719" lon="0.128904">
        <ele>2137.5</ele>
        <time>2019-09-08T08:37:46Z</time>
      </trkpt>
      <trkpt lat="42.773612" lon="0.128927">
        <ele>2137.7</ele>
        <time>2019-09-08T08:37:56Z</time>
      </trkpt>
      <trkpt lat="42.773540" lon="0.128819">
        <ele>2138.1</ele>
        <time>2019-09-08T08:38:05Z</time>
      </trkpt>
      <trkpt lat="42.773487" lon="0.128694">
        <ele>2139.2</ele>
        <time>2019-09-08T08:38:17Z</time>
      </trkpt>
      <trkpt lat="42.773412" lon="0.128730">
        <ele>2140.3</ele>
        <time>2019-09-08T08:38:29Z</time>
      </trkpt>
      <trkpt lat="42.773365" lon="0.128779">
        <ele>2141.3</ele>
        <time>2019-09-08T08:39:40Z</time>
      </trkpt>
      <trkpt lat="42.773281" lon="0.128812">
        <ele>2140.9</ele>
        <time>2019-09-08T08:39:54Z</time>
      </trkpt>
      <trkpt lat="42.773299" lon="0.128934">
        <ele>2139.7</ele>
        <time>2019-09-08T08:40:04Z</time>
      </trkpt>
      <trkpt lat="42.773313" lon="0.129081">
        <ele>2140.3</ele>
        <time>2019-09-08T08:40:17Z</time>
      </trkpt>
      <trkpt lat="42.773340" lon="0.129218">
        <ele>2142.6</ele>
        <time>2019-09-08T08:40:30Z</time>
      </trkpt>
      <trkpt lat="42.773294" lon="0.129346">
        <ele>2144.7</ele>
        <time>2019-09-08T08:40:41Z</time>
      </trkpt>
      <trkpt lat="42.773280" lon="0.129477">
        <ele>2145.6</ele>
        <time>2019-09-08T08:40:52Z</time>
      </trkpt>
      <trkpt lat="42.773212" lon="0.129487">
        <ele>2147.5</ele>
        <time>2019-09-08T08:42:07Z</time>
      </trkpt>
      <trkpt lat="42.773162" lon="0.129358">
        <ele>2148.9</ele>
        <time>2019-09-08T08:42:19Z</time>
      </trkpt>
      <trkpt lat="42.773111" lon="0.129223">
        <ele>2150.9</ele>
        <time>2019-09-08T08:42:32Z</time>
      </trkpt>
      <trkpt lat="42.773043" lon="0.129115">
        <ele>2152.9</ele>
        <time>2019-09-08T08:42:46Z</time>
      </trkpt>
      <trkpt lat="42.772983" lon="0.129019">
        <ele>2154.5</ele>
        <time>2019-09-08T08:42:58Z</time>
      </trkpt>
      <trkpt lat="42.772910" lon="0.128926">
        <ele>2156.9</ele>
        <time>2019-09-08T08:43:09Z</time>
      </trkpt>
      <trkpt lat="42.772823" lon="0.128873">
        <ele>2159.0</ele>
        <time>2019-09-08T08:43:21Z</time>
      </trkpt>
      <trkpt lat="42.772747" lon="0.128821">
        <ele>2160.9</ele>
        <time>2019-09-08T08:43:33Z</time>
      </trkpt>
      <trkpt lat="42.772662" lon="0.128758">
        <ele>2162.5</ele>
        <time>2019-09-08T08:43:45Z</time>
      </trkpt>
      <trkpt lat="42.772631" lon="0.128620">
        <ele>2164.6</ele>
        <time>2019-09-08T08:44:01Z</time>
      </trkpt>
      <trkpt lat="42.772636" lon="0.128529">
        <ele>2166.7</ele>
        <time>2019-09-08T08:44:22Z</time>
      </trkpt>
      <trkpt lat="42.772664" lon="0.128424">
        <ele>2167.3</ele>
        <time>2019-09-08T08:44:32Z</time>
      </trkpt>
      <trkpt lat="42.772689" lon="0.128294">
        <ele>2168.0</ele>
        <time>2019-09-08T08:44:42Z</time>
      </trkpt>
      <trkpt lat="42.772686" lon="0.128174">
        <ele>2169.4</ele>
        <time>2019-09-08T08:44:53Z</time>
      </trkpt>
      <trkpt lat="42.772646" lon="0.128026">
        <ele>2171.0</ele>
        <time>2019-09-08T08:45:05Z</time>
      </trkpt>
      <trkpt lat="42.772636" lon="0.127907">
        <ele>2172.5</ele>
        <time>2019-09-08T08:45:15Z</time>
      </trkpt>
      <trkpt lat="42.772612" lon="0.127785">
        <ele>2174.9</ele>
        <time>2019-09-08T08:45:29Z</time>
      </trkpt>
      <trkpt lat="42.772556" lon="0.127635">
        <ele>2177.1</ele>
        <time>2019-09-08T08:45:44Z</time>
      </trkpt>
      <trkpt lat="42.772534" lon="0.127518">
        <ele>2179.4</ele>
        <time>2019-09-08T08:46:02Z</time>
      </trkpt>
      <trkpt lat="42.772489" lon="0.127425">
        <ele>2181.1</ele>
        <time>2019-09-08T08:46:15Z</time>
      </trkpt>
      <trkpt lat="42.772501" lon="0.127303">
        <ele>2182.9</ele>
        <time>2019-09-08T08:46:28Z</time>
      </trkpt>
      <trkpt lat="42.772534" lon="0.127175">
        <ele>2185.0</ele>
        <time>2019-09-08T08:46:43Z</time>
      </trkpt>
      <trkpt lat="42.772576" lon="0.127052">
        <ele>2187.6</ele>
        <time>2019-09-08T08:47:00Z</time>
      </trkpt>
      <trkpt lat="42.772630" lon="0.126934">
        <ele>2189.6</ele>
        <time>2019-09-08T08:47:14Z</time>
      </trkpt>
      <trkpt lat="42.772607" lon="0.126804">
        <ele>2192.8</ele>
        <time>2019-09-08T08:47:37Z</time>
      </trkpt>
      <trkpt lat="42.772585" lon="0.126677">
        <ele>2195.7</ele>
        <time>2019-09-08T08:47:51Z</time>
      </trkpt>
      <trkpt lat="42.772583" lon="0.126539">
        <ele>2198.6</ele>
        <time>2019-09-08T08:48:09Z</time>
      </trkpt>
      <trkpt lat="42.772556" lon="0.126420">
        <ele>2200.9</ele>
        <time>2019-09-08T08:48:25Z</time>
      </trkpt>
      <trkpt lat="42.772503" lon="0.126329">
        <ele>2203.2</ele>
        <time>2019-09-08T08:48:38Z</time>
      </trkpt>
      <trkpt lat="42.772451" lon="0.126223">
        <ele>2205.4</ele>
        <time>2019-09-08T08:48:51Z</time>
      </trkpt>
      <trkpt lat="42.772395" lon="0.126106">
        <ele>2208.1</ele>
        <time>2019-09-08T08:49:05Z</time>
      </trkpt>
      <trkpt lat="42.772384" lon="0.125963">
        <ele>2210.3</ele>
        <time>2019-09-08T08:49:18Z</time>
      </trkpt>
      <trkpt lat="42.772339" lon="0.125842">
        <ele>2211.9</ele>
        <time>2019-09-08T08:49:29Z</time>
      </trkpt>
      <trkpt lat="42.772283" lon="0.125739">
        <ele>2213.0</ele>
        <time>2019-09-08T08:49:41Z</time>
      </trkpt>
      <trkpt lat="42.772222" lon="0.125651">
        <ele>2214.1</ele>
        <time>2019-09-08T08:49:50Z</time>
      </trkpt>
      <trkpt lat="42.772144" lon="0.125567">
        <ele>2215.2</ele>
        <time>2019-09-08T08:49:59Z</time>
      </trkpt>
      <trkpt lat="42.772082" lon="0.125460">
        <ele>2215.7</ele>
        <time>2019-09-08T08:50:08Z</time>
      </trkpt>
      <trkpt lat="42.772041" lon="0.125356">
        <ele>2216.5</ele>
        <time>2019-09-08T08:50:17Z</time>
      </trkpt>
      <trkpt lat="42.772042" lon="0.125209">
        <ele>2218.1</ele>
        <time>2019-09-08T08:50:28Z</time>
      </trkpt>
      <trkpt lat="42.772027" lon="0.125078">
        <ele>2219.3</ele>
        <time>2019-09-08T08:50:42Z</time>
      </trkpt>
      <trkpt lat="42.772012" lon="0.124953">
        <ele>2220.0</ele>
        <time>2019-09-08T08:50:51Z</time>
      </trkpt>
      <trkpt lat="42.771985" lon="0.124832">
        <ele>2221.9</ele>
        <time>2019-09-08T08:51:04Z</time>
      </trkpt>
      <trkpt lat="42.771966" lon="0.124727">
        <ele>2223.4</ele>
        <time>2019-09-08T08:51:15Z</time>
      </trkpt>
      <trkpt lat="42.771923" lon="0.124632">
        <ele>2225.0</ele>
        <time>2019-09-08T08:51:28Z</time>
      </trkpt>
      <trkpt lat="42.771915" lon="0.124538">
        <ele>2227.1</ele>
        <time>2019-09-08T08:51:57Z</time>
      </trkpt>
      <trkpt lat="42.771958" lon="0.124439">
        <ele>2227.2</ele>
        <time>2019-09-08T08:52:09Z</time>
      </trkpt>
      <trkpt lat="42.771965" lon="0.124344">
        <ele>2227.3</ele>
        <time>2019-09-08T08:52:41Z</time>
      </trkpt>
      <trkpt lat="42.772012" lon="0.124231">
        <ele>2227.8</ele>
        <time>2019-09-08T08:53:02Z</time>
      </trkpt>
      <trkpt lat="42.772067" lon="0.124104">
        <ele>2227.9</ele>
        <time>2019-09-08T08:53:10Z</time>
      </trkpt>
      <trkpt lat="42.772113" lon="0.123984">
        <ele>2228.7</ele>
        <time>2019-09-08T08:53:18Z</time>
      </trkpt>
      <trkpt lat="42.772155" lon="0.123870">
        <ele>2230.0</ele>
        <time>2019-09-08T08:53:27Z</time>
      </trkpt>
      <trkpt lat="42.772205" lon="0.123749">
        <ele>2232.3</ele>
        <time>2019-09-08T08:53:37Z</time>
      </trkpt>
      <trkpt lat="42.772252" lon="0.123687">
        <ele>2233.9</ele>
        <time>2019-09-08T08:53:45Z</time>
      </trkpt>
      <trkpt lat="42.772343" lon="0.123605">
        <ele>2236.1</ele>
        <time>2019-09-08T08:53:55Z</time>
      </trkpt>
      <trkpt lat="42.772409" lon="0.123525">
        <ele>2237.9</ele>
        <time>2019-09-08T08:54:03Z</time>
      </trkpt>
      <trkpt lat="42.772493" lon="0.123478">
        <ele>2239.9</ele>
        <time>2019-09-08T08:54:13Z</time>
      </trkpt>
      <trkpt lat="42.772554" lon="0.123403">
        <ele>2242.2</ele>
        <time>2019-09-08T08:54:35Z</time>
      </trkpt>
      <trkpt lat="42.772606" lon="0.123275">
        <ele>2244.1</ele>
        <time>2019-09-08T08:54:49Z</time>
      </trkpt>
      <trkpt lat="42.772664" lon="0.123172">
        <ele>2246.2</ele>
        <time>2019-09-08T08:55:00Z</time>
      </trkpt>
      <trkpt lat="42.772723" lon="0.123068">
        <ele>2247.9</ele>
        <time>2019-09-08T08:55:12Z</time>
      </trkpt>
      <trkpt lat="42.772774" lon="0.122953">
        <ele>2249.7</ele>
        <time>2019-09-08T08:55:23Z</time>
      </trkpt>
      <trkpt lat="42.772842" lon="0.122846">
        <ele>2251.2</ele>
        <time>2019-09-08T08:55:35Z</time>
      </trkpt>
      <trkpt lat="42.772884" lon="0.122722">
        <ele>2252.7</ele>
        <time>2019-09-08T08:55:46Z</time>
      </trkpt>
      <trkpt lat="42.772937" lon="0.122618">
        <ele>2253.9</ele>
        <time>2019-09-08T08:55:57Z</time>
      </trkpt>
      <trkpt lat="42.772968" lon="0.122500">
        <ele>2256.1</ele>
        <time>2019-09-08T08:56:09Z</time>
      </trkpt>
      <trkpt lat="42.772997" lon="0.122384">
        <ele>2257.9</ele>
        <time>2019-09-08T08:56:20Z</time>
      </trkpt>
      <trkpt lat="42.773085" lon="0.122334">
        <ele>2258.1</ele>
        <time>2019-09-08T08:56:30Z</time>
      </trkpt>
      <trkpt lat="42.773161" lon="0.122291">
        <ele>2259.5</ele>
        <time>2019-09-08T08:56:39Z</time>
      </trkpt>
      <trkpt lat="42.773252" lon="0.122227">
        <ele>2260.8</ele>
        <time>2019-09-08T08:56:50Z</time>
      </trkpt>
      <trkpt lat="42.773305" lon="0.122131">
        <ele>2262.2</ele>
        <time>2019-09-08T08:57:00Z</time>
      </trkpt>
      <trkpt lat="42.773410" lon="0.122078">
        <ele>2264.4</ele>
        <time>2019-09-08T08:57:12Z</time>
      </trkpt>
      <trkpt lat="42.773485" lon="0.122017">
        <ele>2265.5</ele>
        <time>2019-09-08T08:57:26Z</time>
      </trkpt>
      <trkpt lat="42.773580" lon="0.121931">
        <ele>2267.8</ele>
        <time>2019-09-08T08:57:39Z</time>
      </trkpt>
      <trkpt lat="42.773651" lon="0.121821">
        <ele>2268.8</ele>
        <time>2019-09-08T08:57:52Z</time>
      </trkpt>
      <trkpt lat="42.773742" lon="0.121729">
        <ele>2270.4</ele>
        <time>2019-09-08T08:58:04Z</time>
      </trkpt>
      <trkpt lat="42.773823" lon="0.121637">
        <ele>2271.3</ele>
        <time>2019-09-08T08:58:15Z</time>
      </trkpt>
      <trkpt lat="42.773886" lon="0.121542">
        <ele>2272.7</ele>
        <time>2019-09-08T08:58:26Z</time>
      </trkpt>
      <trkpt lat="42.773976" lon="0.121477">
        <ele>2274.2</ele>
        <time>2019-09-08T08:58:36Z</time>
      </trkpt>
      <trkpt lat="42.774080" lon="0.121460">
        <ele>2275.8</ele>
        <time>2019-09-08T08:58:47Z</time>
      </trkpt>
      <trkpt lat="42.774100" lon="0.121370">
        <ele>2277.7</ele>
        <time>2019-09-08T08:58:59Z</time>
      </trkpt>
      <trkpt lat="42.774060" lon="0.121254">
        <ele>2280.1</ele>
        <time>2019-09-08T08:59:11Z</time>
      </trkpt>
      <trkpt lat="42.774020" lon="0.121120">
        <ele>2282.7</ele>
        <time>2019-09-08T08:59:24Z</time>
      </trkpt>
      <trkpt lat="42.774028" lon="0.121001">
        <ele>2285.9</ele>
        <time>2019-09-08T08:59:40Z</time>
      </trkpt>
      <trkpt lat="42.774125" lon="0.120931">
        <ele>2288.2</ele>
        <time>2019-09-08T08:59:52Z</time>
      </trkpt>
      <trkpt lat="42.774226" lon="0.120909">
        <ele>2290.3</ele>
        <time>2019-09-08T09:00:07Z</time>
      </trkpt>
      <trkpt lat="42.774304" lon="0.120876">
        <ele>2292.4</ele>
        <time>2019-09-08T09:00:20Z</time>
      </trkpt>
      <trkpt lat="42.774349" lon="0.120798">
        <ele>2296.5</ele>
        <time>2019-09-08T09:00:37Z</time>
      </trkpt>
      <trkpt lat="42.774408" lon="0.120699">
        <ele>2299.6</ele>
        <time>2019-09-08T09:00:50Z</time>
      </trkpt>
      <trkpt lat="42.774386" lon="0.120578">
        <ele>2301.6</ele>
        <time>2019-09-08T09:01:02Z</time>
      </trkpt>
      <trkpt lat="42.774384" lon="0.120463">
        <ele>2303.7</ele>
        <time>2019-09-08T09:01:19Z</time>
      </trkpt>
      <trkpt lat="42.774378" lon="0.120341">
        <ele>2306.0</ele>
        <time>2019-09-08T09:01:40Z</time>
      </trkpt>
      <trkpt lat="42.774378" lon="0.120209">
        <ele>2307.6</ele>
        <time>2019-09-08T09:01:52Z</time>
      </trkpt>
      <trkpt lat="42.774365" lon="0.120073">
        <ele>2309.3</ele>
        <time>2019-09-08T09:02:07Z</time>
      </trkpt>
      <trkpt lat="42.774348" lon="0.119936">
        <ele>2310.6</ele>
        <time>2019-09-08T09:02:20Z</time>
      </trkpt>
      <trkpt lat="42.774309" lon="0.119828">
        <ele>2312.8</ele>
        <time>2019-09-08T09:02:33Z</time>
      </trkpt>
      <trkpt lat="42.774234" lon="0.119732">
        <ele>2314.4</ele>
        <time>2019-09-08T09:02:47Z</time>
      </trkpt>
      <trkpt lat="42.774164" lon="0.119657">
        <ele>2316.6</ele>
        <time>2019-09-08T09:03:01Z</time>
      </trkpt>
      <trkpt lat="42.774114" lon="0.119573">
        <ele>2319.4</ele>
        <time>2019-09-08T09:03:15Z</time>
      </trkpt>
      <trkpt lat="42.774017" lon="0.119538">
        <ele>2321.3</ele>
        <time>2019-09-08T09:03:29Z</time>
      </trkpt>
      <trkpt lat="42.773897" lon="0.119521">
        <ele>2323.1</ele>
        <time>2019-09-08T09:03:45Z</time>
      </trkpt>
      <trkpt lat="42.773791" lon="0.119484">
        <ele>2325.5</ele>
        <time>2019-09-08T09:03:59Z</time>
      </trkpt>
      <trkpt lat="42.773689" lon="0.119444">
        <ele>2327.0</ele>
        <time>2019-09-08T09:04:12Z</time>
      </trkpt>
      <trkpt lat="42.773593" lon="0.119383">
        <ele>2328.9</ele>
        <time>2019-09-08T09:04:25Z</time>
      </trkpt>
      <trkpt lat="42.773625" lon="0.119293">
        <ele>2330.5</ele>
        <time>2019-09-08T09:04:41Z</time>
      </trkpt>
      <trkpt lat="42.773727" lon="0.119205">
        <ele>2332.8</ele>
        <time>2019-09-08T09:04:54Z</time>
      </trkpt>
      <trkpt lat="42.773773" lon="0.119107">
        <ele>2334.9</ele>
        <time>2019-09-08T09:05:08Z</time>
      </trkpt>
      <trkpt lat="42.773838" lon="0.119001">
        <ele>2337.1</ele>
        <time>2019-09-08T09:05:23Z</time>
      </trkpt>
      <trkpt lat="42.773917" lon="0.118919">
        <ele>2339.7</ele>
        <time>2019-09-08T09:05:38Z</time>
      </trkpt>
      <trkpt lat="42.773991" lon="0.118854">
        <ele>2342.0</ele>
        <time>2019-09-08T09:05:53Z</time>
      </trkpt>
      <trkpt lat="42.774086" lon="0.118791">
        <ele>2344.8</ele>
        <time>2019-09-08T09:06:07Z</time>
      </trkpt>
      <trkpt lat="42.774184" lon="0.118758">
        <ele>2345.7</ele>
        <time>2019-09-08T09:06:21Z</time>
      </trkpt>
      <trkpt lat="42.774281" lon="0.118725">
        <ele>2347.7</ele>
        <time>2019-09-08T09:06:35Z</time>
      </trkpt>
      <trkpt lat="42.774286" lon="0.118623">
        <ele>2350.6</ele>
        <time>2019-09-08T09:06:54Z</time>
      </trkpt>
      <trkpt lat="42.774196" lon="0.118548">
        <ele>2352.6</ele>
        <time>2019-09-08T09:07:10Z</time>
      </trkpt>
      <trkpt lat="42.774110" lon="0.118469">
        <ele>2355.4</ele>
        <time>2019-09-08T09:07:27Z</time>
      </trkpt>
      <trkpt lat="42.774028" lon="0.118430">
        <ele>2358.2</ele>
        <time>2019-09-08T09:07:45Z</time>
      </trkpt>
      <trkpt lat="42.773931" lon="0.118393">
        <ele>2359.1</ele>
        <time>2019-09-08T09:07:58Z</time>
      </trkpt>
      <trkpt lat="42.773828" lon="0.118317">
        <ele>2361.8</ele>
        <time>2019-09-08T09:08:13Z</time>
      </trkpt>
      <trkpt lat="42.773740" lon="0.118257">
        <ele>2363.6</ele>
        <time>2019-09-08T09:08:27Z</time>
      </trkpt>
      <trkpt lat="42.773634" lon="0.118224">
        <ele>2366.4</ele>
        <time>2019-09-08T09:08:42Z</time>
      </trkpt>
      <trkpt lat="42.773531" lon="0.118150">
        <ele>2367.9</ele>
        <time>2019-09-08T09:08:56Z</time>
      </trkpt>
      <trkpt lat="42.773473" lon="0.118101">
        <ele>2370.8</ele>
        <time>2019-09-08T09:09:12Z</time>
      </trkpt>
      <trkpt lat="42.773555" lon="0.118042">
        <ele>2372.5</ele>
        <time>2019-09-08T09:09:43Z</time>
      </trkpt>
      <trkpt lat="42.773640" lon="0.117946">
        <ele>2374.4</ele>
        <time>2019-09-08T09:10:01Z</time>
      </trkpt>
      <trkpt lat="42.773723" lon="0.117911">
        <ele>2375.0</ele>
        <time>2019-09-08T09:10:14Z</time>
      </trkpt>
      <trkpt lat="42.773801" lon="0.117831">
        <ele>2377.6</ele>
        <time>2019-09-08T09:10:32Z</time>
      </trkpt>
      <trkpt lat="42.773893" lon="0.117783">
        <ele>2379.9</ele>
        <time>2019-09-08T09:10:46Z</time>
      </trkpt>
      <trkpt lat="42.773982" lon="0.117721">
        <ele>2382.1</ele>
        <time>2019-09-08T09:11:02Z</time>
      </trkpt>
      <trkpt lat="42.774076" lon="0.117651">
        <ele>2384.5</ele>
        <time>2019-09-08T09:11:19Z</time>
      </trkpt>
      <trkpt lat="42.774106" lon="0.117545">
        <ele>2388.3</ele>
        <time>2019-09-08T09:11:37Z</time>
      </trkpt>
      <trkpt lat="42.774070" lon="0.117473">
        <ele>2391.6</ele>
        <time>2019-09-08T09:11:56Z</time>
      </trkpt>
      <trkpt lat="42.774116" lon="0.117392">
        <ele>2394.5</ele>
        <time>2019-09-08T09:12:15Z</time>
      </trkpt>
      <trkpt lat="42.774102" lon="0.117295">
        <ele>2398.7</ele>
        <time>2019-09-08T09:12:37Z</time>
      </trkpt>
      <trkpt lat="42.774116" lon="0.117208">
        <ele>2402.2</ele>
        <time>2019-09-08T09:13:00Z</time>
      </trkpt>
      <trkpt lat="42.774137" lon="0.117157">
        <ele>2405.8</ele>
        <time>2019-09-08T09:13:22Z</time>
      </trkpt>
      <trkpt lat="42.774159" lon="0.117041">
        <ele>2409.2</ele>
        <time>2019-09-08T09:13:44Z</time>
      </trkpt>
      <trkpt lat="42.774190" lon="0.116941">
        <ele>2412.8</ele>
        <time>2019-09-08T09:14:06Z</time>
      </trkpt>
      <trkpt lat="42.774247" lon="0.116850">
        <ele>2416.1</ele>
        <time>2019-09-08T09:14:28Z</time>
      </trkpt>
      <trkpt lat="42.774298" lon="0.116775">
        <ele>2419.9</ele>
        <time>2019-09-08T09:14:51Z</time>
      </trkpt>
      <trkpt lat="42.774369" lon="0.116696">
        <ele>2423.9</ele>
        <time>2019-09-08T09:15:14Z</time>
      </trkpt>
      <trkpt lat="42.774381" lon="0.116588">
        <ele>2427.1</ele>
        <time>2019-09-08T09:15:33Z</time>
      </trkpt>
      <trkpt lat="42.774448" lon="0.116531">
        <ele>2429.8</ele>
        <time>2019-09-08T09:15:50Z</time>
      </trkpt>
      <trkpt lat="42.774488" lon="0.116449">
        <ele>2433.1</ele>
        <time>2019-09-08T09:16:09Z</time>
      </trkpt>
      <trkpt lat="42.774443" lon="0.116353">
        <ele>2437.0</ele>
        <time>2019-09-08T09:16:30Z</time>
      </trkpt>
      <trkpt lat="42.774492" lon="0.116240">
        <ele>2441.4</ele>
        <time>2019-09-08T09:16:56Z</time>
      </trkpt>
      <trkpt lat="42.774516" lon="0.116151">
        <ele>2445.4</ele>
        <time>2019-09-08T09:17:21Z</time>
      </trkpt>
      <trkpt lat="42.774567" lon="0.116039">
        <ele>2448.7</ele>
        <time>2019-09-08T09:17:43Z</time>
      </trkpt>
      <trkpt lat="42.774596" lon="0.115948">
        <ele>2453.4</ele>
        <time>2019-09-08T09:18:08Z</time>
      </trkpt>
      <trkpt lat="42.774639" lon="0.115837">
        <ele>2456.4</ele>
        <time>2019-09-08T09:18:26Z</time>
      </trkpt>
      <trkpt lat="42.774593" lon="0.115756">
        <ele>2459.4</ele>
        <time>2019-09-08T09:18:43Z</time>
      </trkpt>
      <trkpt lat="42.774530" lon="0.115686">
        <ele>2462.2</ele>
        <time>2019-09-08T09:18:59Z</time>
      </trkpt>
      <trkpt lat="42.774563" lon="0.115611">
        <ele>2464.2</ele>
        <time>2019-09-08T09:19:35Z</time>
      </trkpt>
      <trkpt lat="42.774639" lon="0.115556">
        <ele>2466.2</ele>
        <time>2019-09-08T09:19:50Z</time>
      </trkpt>
      <trkpt lat="42.774734" lon="0.115520">
        <ele>2468.5</ele>
        <time>2019-09-08T09:20:07Z</time>
      </trkpt>
      <trkpt lat="42.774835" lon="0.115549">
        <ele>2469.6</ele>
        <time>2019-09-08T09:20:21Z</time>
      </trkpt>
      <trkpt lat="42.774933" lon="0.115602">
        <ele>2471.1</ele>
        <time>2019-09-08T09:20:35Z</time>
      </trkpt>
      <trkpt lat="42.774988" lon="0.115699">
        <ele>2473.6</ele>
        <time>2019-09-08T09:20:52Z</time>
      </trkpt>
      <trkpt lat="42.775005" lon="0.115836">
        <ele>2475.1</ele>
        <time>2019-09-08T09:21:07Z</time>
      </trkpt>
      <trkpt lat="42.775059" lon="0.115942">
        <ele>2476.2</ele>
        <time>2019-09-08T09:21:21Z</time>
      </trkpt>
      <trkpt lat="42.775109" lon="0.116051">
        <ele>2477.9</ele>
        <time>2019-09-08T09:21:41Z</time>
      </trkpt>
      <trkpt lat="42.775114" lon="0.115958">
        <ele>2480.8</ele>
        <time>2019-09-08T09:21:59Z</time>
      </trkpt>
      <trkpt lat="42.775099" lon="0.115821">
        <ele>2483.0</ele>
        <time>2019-09-08T09:22:15Z</time>
      </trkpt>
      <trkpt lat="42.775098" lon="0.115682">
        <ele>2484.6</ele>
        <time>2019-09-08T09:22:32Z</time>
      </trkpt>
      <trkpt lat="42.775116" lon="0.115549">
        <ele>2487.0</ele>
        <time>2019-09-08T09:22:48Z</time>
      </trkpt>
      <trkpt lat="42.775098" lon="0.115427">
        <ele>2489.6</ele>
        <time>2019-09-08T09:23:03Z</time>
      </trkpt>
      <trkpt lat="42.775087" lon="0.115281">
        <ele>2492.6</ele>
        <time>2019-09-08T09:23:21Z</time>
      </trkpt>
      <trkpt lat="42.775106" lon="0.115151">
        <ele>2494.9</ele>
        <time>2019-09-08T09:23:37Z</time>
      </trkpt>
      <trkpt lat="42.775085" lon="0.114999">
        <ele>2497.4</ele>
        <time>2019-09-08T09:23:54Z</time>
      </trkpt>
      <trkpt lat="42.775037" lon="0.114881">
        <ele>2497.6</ele>
        <time>2019-09-08T09:24:09Z</time>
      </trkpt>
      <trkpt lat="42.774970" lon="0.114775">
        <ele>2499.5</ele>
        <time>2019-09-08T09:24:24Z</time>
      </trkpt>
      <trkpt lat="42.774943" lon="0.114668">
        <ele>2501.8</ele>
        <time>2019-09-08T09:24:42Z</time>
      </trkpt>
      <trkpt lat="42.774907" lon="0.114564">
        <ele>2504.1</ele>
        <time>2019-09-08T09:25:00Z</time>
      </trkpt>
      <trkpt lat="42.774990" lon="0.114508">
        <ele>2506.6</ele>
        <time>2019-09-08T09:25:17Z</time>
      </trkpt>
      <trkpt lat="42.775080" lon="0.114565">
        <ele>2508.3</ele>
        <time>2019-09-08T09:25:35Z</time>
      </trkpt>
      <trkpt lat="42.775164" lon="0.114634">
        <ele>2509.5</ele>
        <time>2019-09-08T09:25:57Z</time>
      </trkpt>
      <trkpt lat="42.775240" lon="0.114720">
        <ele>2511.5</ele>
        <time>2019-09-08T09:26:12Z</time>
      </trkpt>
      <trkpt lat="42.775330" lon="0.114800">
        <ele>2514.4</ele>
        <time>2019-09-08T09:26:28Z</time>
      </trkpt>
      <trkpt lat="42.775434" lon="0.114883">
        <ele>2515.3</ele>
        <time>2019-09-08T09:26:42Z</time>
      </trkpt>
      <trkpt lat="42.775463" lon="0.115000">
        <ele>2517.7</ele>
        <time>2019-09-08T09:26:58Z</time>
      </trkpt>
      <trkpt lat="42.775441" lon="0.115105">
        <ele>2519.5</ele>
        <time>2019-09-08T09:27:29Z</time>
      </trkpt>
      <trkpt lat="42.775510" lon="0.115191">
        <ele>2521.3</ele>
        <time>2019-09-08T09:27:52Z</time>
      </trkpt>
      <trkpt lat="42.775562" lon="0.115320">
        <ele>2523.7</ele>
        <time>2019-09-08T09:28:05Z</time>
      </trkpt>
      <trkpt lat="42.775610" lon="0.115289">
        <ele>2527.1</ele>
        <time>2019-09-08T09:28:23Z</time>
      </trkpt>
      <trkpt lat="42.775667" lon="0.115168">
        <ele>2530.9</ele>
        <time>2019-09-08T09:28:42Z</time>
      </trkpt>
      <trkpt lat="42.775665" lon="0.115021">
        <ele>2533.9</ele>
        <time>2019-09-08T09:29:01Z</time>
      </trkpt>
      <trkpt lat="42.775678" lon="0.114875">
        <ele>2536.0</ele>
        <time>2019-09-08T09:29:18Z</time>
      </trkpt>
      <trkpt lat="42.775703" lon="0.114728">
        <ele>2538.6</ele>
        <time>2019-09-08T09:29:32Z</time>
      </trkpt>
      <trkpt lat="42.775695" lon="0.114612">
        <ele>2541.2</ele>
        <time>2019-09-08T09:29:46Z</time>
      </trkpt>
      <trkpt lat="42.775681" lon="0.114530">
        <ele>2542.3</ele>
        <time>2019-09-08T09:30:11Z</time>
      </trkpt>
      <trkpt lat="42.775689" lon="0.114395">
        <ele>2545.7</ele>
        <time>2019-09-08T09:30:28Z</time>
      </trkpt>
      <trkpt lat="42.775657" lon="0.114268">
        <ele>2548.7</ele>
        <time>2019-09-08T09:30:49Z</time>
      </trkpt>
      <trkpt lat="42.775710" lon="0.114146">
        <ele>2551.4</ele>
        <time>2019-09-08T09:31:11Z</time>
      </trkpt>
      <trkpt lat="42.775738" lon="0.114032">
        <ele>2554.9</ele>
        <time>2019-09-08T09:31:29Z</time>
      </trkpt>
      <trkpt lat="42.775740" lon="0.113917">
        <ele>2557.9</ele>
        <time>2019-09-08T09:31:45Z</time>
      </trkpt>
      <trkpt lat="42.775713" lon="0.113760">
        <ele>2560.4</ele>
        <time>2019-09-08T09:32:01Z</time>
      </trkpt>
      <trkpt lat="42.775704" lon="0.113615">
        <ele>2562.7</ele>
        <time>2019-09-08T09:32:16Z</time>
      </trkpt>
      <trkpt lat="42.775684" lon="0.113496">
        <ele>2564.5</ele>
        <time>2019-09-08T09:32:30Z</time>
      </trkpt>
      <trkpt lat="42.775666" lon="0.113372">
        <ele>2566.2</ele>
        <time>2019-09-08T09:32:42Z</time>
      </trkpt>
      <trkpt lat="42.775632" lon="0.113256">
        <ele>2568.4</ele>
        <time>2019-09-08T09:32:55Z</time>
      </trkpt>
      <trkpt lat="42.775634" lon="0.113137">
        <ele>2570.4</ele>
        <time>2019-09-08T09:33:09Z</time>
      </trkpt>
      <trkpt lat="42.775619" lon="0.112999">
        <ele>2573.2</ele>
        <time>2019-09-08T09:33:25Z</time>
      </trkpt>
      <trkpt lat="42.775545" lon="0.112879">
        <ele>2575.4</ele>
        <time>2019-09-08T09:33:41Z</time>
      </trkpt>
      <trkpt lat="42.775491" lon="0.112752">
        <ele>2576.8</ele>
        <time>2019-09-08T09:33:53Z</time>
      </trkpt>
      <trkpt lat="42.775468" lon="0.112614">
        <ele>2578.2</ele>
        <time>2019-09-08T09:34:07Z</time>
      </trkpt>
      <trkpt lat="42.775458" lon="0.112478">
        <ele>2581.7</ele>
        <time>2019-09-08T09:34:22Z</time>
      </trkpt>
      <trkpt lat="42.775456" lon="0.112348">
        <ele>2584.9</ele>
        <time>2019-09-08T09:34:43Z</time>
      </trkpt>
      <trkpt lat="42.775447" lon="0.112355">
        <ele>2587.9</ele>
        <time>2019-09-08T09:47:34Z</time>
      </trkpt>
      <trkpt lat="42.775440" lon="0.112314">
        <ele>2589.2</ele>
        <time>2019-09-08T09:48:55Z</time>
      </trkpt>
      <trkpt lat="42.775410" lon="0.112220">
        <ele>2592.6</ele>
        <time>2019-09-08T09:49:24Z</time>
      </trkpt>
      <trkpt lat="42.775361" lon="0.112198">
        <ele>2594.4</ele>
        <time>2019-09-08T09:49:39Z</time>
      </trkpt>
      <trkpt lat="42.775295" lon="0.112195">
        <ele>2597.2</ele>
        <time>2019-09-08T09:50:12Z</time>
      </trkpt>
      <trkpt lat="42.775246" lon="0.112101">
        <ele>2599.4</ele>
        <time>2019-09-08T09:50:28Z</time>
      </trkpt>
      <trkpt lat="42.775179" lon="0.112046">
        <ele>2601.8</ele>
        <time>2019-09-08T09:50:42Z</time>
      </trkpt>
      <trkpt lat="42.775107" lon="0.112135">
        <ele>2604.6</ele>
        <time>2019-09-08T09:50:54Z</time>
      </trkpt>
      <trkpt lat="42.775023" lon="0.112204">
        <ele>2608.1</ele>
        <time>2019-09-08T09:51:09Z</time>
      </trkpt>
      <trkpt lat="42.774952" lon="0.112182">
        <ele>2610.3</ele>
        <time>2019-09-08T09:51:22Z</time>
      </trkpt>
      <trkpt lat="42.774877" lon="0.112238">
        <ele>2612.9</ele>
        <time>2019-09-08T09:51:37Z</time>
      </trkpt>
      <trkpt lat="42.774820" lon="0.112157">
        <ele>2615.4</ele>
        <time>2019-09-08T09:51:53Z</time>
      </trkpt>
      <trkpt lat="42.774760" lon="0.112232">
        <ele>2617.1</ele>
        <time>2019-09-08T09:52:07Z</time>
      </trkpt>
      <trkpt lat="42.774675" lon="0.112291">
        <ele>2621.1</ele>
        <time>2019-09-08T09:52:24Z</time>
      </trkpt>
      <trkpt lat="42.774603" lon="0.112315">
        <ele>2623.9</ele>
        <time>2019-09-08T09:52:43Z</time>
      </trkpt>
      <trkpt lat="42.774513" lon="0.112344">
        <ele>2626.9</ele>
        <time>2019-09-08T09:53:03Z</time>
      </trkpt>
      <trkpt lat="42.774449" lon="0.112434">
        <ele>2629.5</ele>
        <time>2019-09-08T09:53:18Z</time>
      </trkpt>
      <trkpt lat="42.774383" lon="0.112530">
        <ele>2631.6</ele>
        <time>2019-09-08T09:53:32Z</time>
      </trkpt>
      <trkpt lat="42.774315" lon="0.112614">
        <ele>2634.6</ele>
        <time>2019-09-08T09:53:47Z</time>
      </trkpt>
      <trkpt lat="42.774236" lon="0.112682">
        <ele>2637.7</ele>
        <time>2019-09-08T09:54:01Z</time>
      </trkpt>
      <trkpt lat="42.774189" lon="0.112697">
        <ele>2640.6</ele>
        <time>2019-09-08T09:54:37Z</time>
      </trkpt>
      <trkpt lat="42.774156" lon="0.112587">
        <ele>2642.0</ele>
        <time>2019-09-08T09:54:49Z</time>
      </trkpt>
      <trkpt lat="42.774079" lon="0.112593">
        <ele>2646.1</ele>
        <time>2019-09-08T09:55:03Z</time>
      </trkpt>
      <trkpt lat="42.773990" lon="0.112566">
        <ele>2649.5</ele>
        <time>2019-09-08T09:55:18Z</time>
      </trkpt>
      <trkpt lat="42.773899" lon="0.112605">
        <ele>2651.1</ele>
        <time>2019-09-08T09:55:32Z</time>
      </trkpt>
      <trkpt lat="42.773812" lon="0.112602">
        <ele>2653.9</ele>
        <time>2019-09-08T09:55:54Z</time>
      </trkpt>
      <trkpt lat="42.773755" lon="0.112551">
        <ele>2658.4</ele>
        <time>2019-09-08T09:56:15Z</time>
      </trkpt>
      <trkpt lat="42.773734" lon="0.112445">
        <ele>2660.3</ele>
        <time>2019-09-08T09:57:49Z</time>
      </trkpt>
      <trkpt lat="42.773637" lon="0.112478">
        <ele>2663.4</ele>
        <time>2019-09-08T09:58:04Z</time>
      </trkpt>
      <trkpt lat="42.773565" lon="0.112426">
        <ele>2666.6</ele>
        <time>2019-09-08T09:58:20Z</time>
      </trkpt>
      <trkpt lat="42.773532" lon="0.112303">
        <ele>2669.2</ele>
        <time>2019-09-08T09:58:33Z</time>
      </trkpt>
      <trkpt lat="42.773479" lon="0.112201">
        <ele>2670.2</ele>
        <time>2019-09-08T09:58:45Z</time>
      </trkpt>
      <trkpt lat="42.773449" lon="0.112081">
        <ele>2672.6</ele>
        <time>2019-09-08T09:58:59Z</time>
      </trkpt>
      <trkpt lat="42.773412" lon="0.111980">
        <ele>2676.3</ele>
        <time>2019-09-08T09:59:15Z</time>
      </trkpt>
      <trkpt lat="42.773376" lon="0.111873">
        <ele>2679.3</ele>
        <time>2019-09-08T09:59:36Z</time>
      </trkpt>
      <trkpt lat="42.773334" lon="0.111777">
        <ele>2683.4</ele>
        <time>2019-09-08T09:59:54Z</time>
      </trkpt>
      <trkpt lat="42.773281" lon="0.111681">
        <ele>2688.4</ele>
        <time>2019-09-08T10:00:17Z</time>
      </trkpt>
      <trkpt lat="42.773226" lon="0.111582">
        <ele>2692.9</ele>
        <time>2019-09-08T10:00:38Z</time>
      </trkpt>
      <trkpt lat="42.773151" lon="0.111529">
        <ele>2697.4</ele>
        <time>2019-09-08T10:01:02Z</time>
      </trkpt>
      <trkpt lat="42.773100" lon="0.111547">
        <ele>2702.1</ele>
        <time>2019-09-08T10:01:23Z</time>
      </trkpt>
      <trkpt lat="42.773036" lon="0.111608">
        <ele>2705.9</ele>
        <time>2019-09-08T10:01:43Z</time>
      </trkpt>
      <trkpt lat="42.772974" lon="0.111541">
        <ele>2710.0</ele>
        <time>2019-09-08T10:02:08Z</time>
      </trkpt>
      <trkpt lat="42.772930" lon="0.111578">
        <ele>2711.8</ele>
        <time>2019-09-08T10:02:41Z</time>
      </trkpt>
      <trkpt lat="42.772861" lon="0.111539">
        <ele>2715.6</ele>
        <time>2019-09-08T10:03:02Z</time>
      </trkpt>
      <trkpt lat="42.772777" lon="0.111503">
        <ele>2717.6</ele>
        <time>2019-09-08T10:03:18Z</time>
      </trkpt>
      <trkpt lat="42.772727" lon="0.111541">
        <ele>2721.8</ele>
        <time>2019-09-08T10:03:39Z</time>
      </trkpt>
      <trkpt lat="42.772672" lon="0.111626">
        <ele>2725.1</ele>
        <time>2019-09-08T10:03:58Z</time>
      </trkpt>
      <trkpt lat="42.772616" lon="0.111646">
        <ele>2730.2</ele>
        <time>2019-09-08T10:04:32Z</time>
      </trkpt>
      <trkpt lat="42.772562" lon="0.111645">
        <ele>2732.1</ele>
        <time>2019-09-08T10:05:35Z</time>
      </trkpt>
      <trkpt lat="42.772447" lon="0.111673">
        <ele>2735.7</ele>
        <time>2019-09-08T10:06:40Z</time>
      </trkpt>
      <trkpt lat="42.772356" lon="0.111682">
        <ele>2739.9</ele>
        <time>2019-09-08T10:07:01Z</time>
      </trkpt>
      <trkpt lat="42.772293" lon="0.111741">
        <ele>2742.9</ele>
        <time>2019-09-08T10:07:20Z</time>
      </trkpt>
      <trkpt lat="42.772219" lon="0.111772">
        <ele>2746.7</ele>
        <time>2019-09-08T10:07:43Z</time>
      </trkpt>
      <trkpt lat="42.772201" lon="0.111838">
        <ele>2750.6</ele>
        <time>2019-09-08T10:08:08Z</time>
      </trkpt>
      <trkpt lat="42.772127" lon="0.111857">
        <ele>2755.2</ele>
        <time>2019-09-08T10:08:33Z</time>
      </trkpt>
      <trkpt lat="42.772055" lon="0.111896">
        <ele>2758.7</ele>
        <time>2019-09-08T10:08:57Z</time>
      </trkpt>
      <trkpt lat="42.771968" lon="0.111866">
        <ele>2761.5</ele>
        <time>2019-09-08T10:09:15Z</time>
      </trkpt>
      <trkpt lat="42.771901" lon="0.111927">
        <ele>2764.9</ele>
        <time>2019-09-08T10:09:40Z</time>
      </trkpt>
      <trkpt lat="42.771816" lon="0.111984">
        <ele>2769.5</ele>
        <time>2019-09-08T10:10:12Z</time>
      </trkpt>
      <trkpt lat="42.771736" lon="0.112088">
        <ele>2779.2</ele>
        <time>2019-09-08T10:11:22Z</time>
      </trkpt>
      <trkpt lat="42.771664" lon="0.112121">
        <ele>2782.8</ele>
        <time>2019-09-08T10:11:44Z</time>
      </trkpt>
      <trkpt lat="42.771531" lon="0.112143">
        <ele>2789.4</ele>
        <time>2019-09-08T10:13:33Z</time>
      </trkpt>
      <trkpt lat="42.771444" lon="0.112108">
        <ele>2791.6</ele>
        <time>2019-09-08T10:13:51Z</time>
      </trkpt>
      <trkpt lat="42.771361" lon="0.112126">
        <ele>2796.0</ele>
        <time>2019-09-08T10:14:43Z</time>
      </trkpt>
      <trkpt lat="42.771270" lon="0.112134">
        <ele>2803.1</ele>
        <time>2019-09-08T10:15:28Z</time>
      </trkpt>
      <trkpt lat="42.771201" lon="0.112113">
        <ele>2806.7</ele>
        <time>2019-09-08T10:15:53Z</time>
      </trkpt>
      <trkpt lat="42.771125" lon="0.112079">
        <ele>2810.0</ele>
        <time>2019-09-08T10:16:14Z</time>
      </trkpt>
      <trkpt lat="42.771046" lon="0.112010">
        <ele>2813.6</ele>
        <time>2019-09-08T10:16:35Z</time>
      </trkpt>
      <trkpt lat="42.770996" lon="0.112071">
        <ele>2817.1</ele>
        <time>2019-09-08T10:16:56Z</time>
      </trkpt>
      <trkpt lat="42.770949" lon="0.112137">
        <ele>2820.9</ele>
        <time>2019-09-08T10:17:17Z</time>
      </trkpt>
      <trkpt lat="42.770880" lon="0.112154">
        <ele>2824.3</ele>
        <time>2019-09-08T10:17:40Z</time>
      </trkpt>
      <trkpt lat="42.770836" lon="0.112042">
        <ele>2827.4</ele>
        <time>2019-09-08T10:18:00Z</time>
      </trkpt>
      <trkpt lat="42.770780" lon="0.111957">
        <ele>2830.1</ele>
        <time>2019-09-08T10:18:20Z</time>
      </trkpt>
      <trkpt lat="42.770704" lon="0.111882">
        <ele>2833.5</ele>
        <time>2019-09-08T10:18:44Z</time>
      </trkpt>
      <trkpt lat="42.770629" lon="0.111852">
        <ele>2837.5</ele>
        <time>2019-09-08T10:19:07Z</time>
      </trkpt>
      <trkpt lat="42.770540" lon="0.111820">
        <ele>2843.2</ele>
        <time>2019-09-08T10:19:43Z</time>
      </trkpt>
      <trkpt lat="42.770445" lon="0.111806">
        <ele>2848.2</ele>
        <time>2019-09-08T10:20:16Z</time>
      </trkpt>
      <trkpt lat="42.770390" lon="0.111874">
        <ele>2852.3</ele>
        <time>2019-09-08T10:20:45Z</time>
      </trkpt>
      <trkpt lat="42.770344" lon="0.111933">
        <ele>2857.2</ele>
        <time>2019-09-08T10:22:04Z</time>
      </trkpt>
      <trkpt lat="42.770269" lon="0.111951">
        <ele>2859.5</ele>
        <time>2019-09-08T10:22:23Z</time>
      </trkpt>
      <trkpt lat="42.770171" lon="0.111918">
        <ele>2865.7</ele>
        <time>2019-09-08T10:23:06Z</time>
      </trkpt>
      <trkpt lat="42.770107" lon="0.111893">
        <ele>2869.3</ele>
        <time>2019-09-08T10:23:29Z</time>
      </trkpt>
      <trkpt lat="42.770031" lon="0.111833">
        <ele>2872.5</ele>
        <time>2019-09-08T10:23:49Z</time>
      </trkpt>
      <trkpt lat="42.769981" lon="0.111739">
        <ele>2875.2</ele>
        <time>2019-09-08T10:24:11Z</time>
      </trkpt>
      <trkpt lat="42.769929" lon="0.111653">
        <ele>2878.3</ele>
        <time>2019-09-08T10:24:35Z</time>
      </trkpt>
      <trkpt lat="42.769871" lon="0.111610">
        <ele>2882.3</ele>
        <time>2019-09-08T10:25:04Z</time>
      </trkpt>
      <trkpt lat="42.769792" lon="0.111586">
        <ele>2886.3</ele>
        <time>2019-09-08T10:25:36Z</time>
      </trkpt>
      <trkpt lat="42.769723" lon="0.111537">
        <ele>2890.2</ele>
        <time>2019-09-08T10:26:01Z</time>
      </trkpt>
      <trkpt lat="42.769672" lon="0.111455">
        <ele>2894.4</ele>
        <time>2019-09-08T10:26:26Z</time>
      </trkpt>
      <trkpt lat="42.769607" lon="0.111447">
        <ele>2898.0</ele>
        <time>2019-09-08T10:26:54Z</time>
      </trkpt>
      <trkpt lat="42.769548" lon="0.111369">
        <ele>2903.1</ele>
        <time>2019-09-08T10:27:30Z</time>
      </trkpt>
      <trkpt lat="42.769503" lon="0.111408">
        <ele>2906.8</ele>
        <time>2019-09-08T10:28:58Z</time>
      </trkpt>
      <trkpt lat="42.769456" lon="0.111399">
        <ele>2910.4</ele>
        <time>2019-09-08T10:29:19Z</time>
      </trkpt>
      <trkpt lat="42.769388" lon="0.111429">
        <ele>2915.5</ele>
        <time>2019-09-08T10:30:02Z</time>
      </trkpt>
      <trkpt lat="42.769330" lon="0.111529">
        <ele>2919.4</ele>
        <time>2019-09-08T10:30:25Z</time>
      </trkpt>
      <trkpt lat="42.769277" lon="0.111599">
        <ele>2923.4</ele>
        <time>2019-09-08T10:30:49Z</time>
      </trkpt>
      <trkpt lat="42.769235" lon="0.111650">
        <ele>2926.8</ele>
        <time>2019-09-08T10:31:11Z</time>
      </trkpt>
      <trkpt lat="42.769139" lon="0.111584">
        <ele>2934.4</ele>
        <time>2019-09-08T10:32:24Z</time>
      </trkpt>
      <trkpt lat="42.769096" lon="0.111617">
        <ele>2938.7</ele>
        <time>2019-09-08T10:35:29Z</time>
      </trkpt>
      <trkpt lat="42.769017" lon="0.111621">
        <ele>2943.2</ele>
        <time>2019-09-08T10:36:06Z</time>
      </trkpt>
      <trkpt lat="42.768950" lon="0.111673">
        <ele>2947.2</ele>
        <time>2019-09-08T10:36:34Z</time>
      </trkpt>
      <trkpt lat="42.768902" lon="0.111770">
        <ele>2951.4</ele>
        <time>2019-09-08T10:37:00Z</time>
      </trkpt>
      <trkpt lat="42.768844" lon="0.111881">
        <ele>2955.4</ele>
        <time>2019-09-08T10:37:26Z</time>
      </trkpt>
      <trkpt lat="42.768801" lon="0.111834">
        <ele>2959.6</ele>
        <time>2019-09-08T10:37:52Z</time>
      </trkpt>
      <trkpt lat="42.768775" lon="0.111715">
        <ele>2962.8</ele>
        <time>2019-09-08T10:38:14Z</time>
      </trkpt>
      <trkpt lat="42.768748" lon="0.111609">
        <ele>2966.5</ele>
        <time>2019-09-08T10:38:33Z</time>
      </trkpt>
      <trkpt lat="42.768762" lon="0.111490">
        <ele>2967.5</ele>
        <time>2019-09-08T10:38:46Z</time>
      </trkpt>
      <trkpt lat="42.768753" lon="0.111373">
        <ele>2968.9</ele>
        <time>2019-09-08T10:39:00Z</time>
      </trkpt>
      <trkpt lat="42.768754" lon="0.111374">
        <ele>2972.9</ele>
        <time>2019-09-08T10:51:48Z</time>
      </trkpt>
      <trkpt lat="42.768735" lon="0.111245">
        <ele>2972.8</ele>
        <time>2019-09-08T10:52:22Z</time>
      </trkpt>
      <trkpt lat="42.768722" lon="0.111124">
        <ele>2971.6</ele>
        <time>2019-09-08T10:52:43Z</time>
      </trkpt>
      <trkpt lat="42.768730" lon="0.111015">
        <ele>2971.7</ele>
        <time>2019-09-08T10:53:07Z</time>
      </trkpt>
      <trkpt lat="42.768735" lon="0.111113">
        <ele>2971.4</ele>
        <time>2019-09-08T10:54:05Z</time>
      </trkpt>
      <trkpt lat="42.768737" lon="0.111175">
        <ele>2971.3</ele>
        <time>2019-09-08T10:56:10Z</time>
      </trkpt>
      <trkpt lat="42.768730" lon="0.111205">
        <ele>2972.5</ele>
        <time>2019-09-08T12:21:42Z</time>
      </trkpt>
      <trkpt lat="42.768749" lon="0.111328">
        <ele>2973.4</ele>
        <time>2019-09-08T12:23:12Z</time>
      </trkpt>
      <trkpt lat="42.768753" lon="0.111458">
        <ele>2973.2</ele>
        <time>2019-09-08T12:23:25Z</time>
      </trkpt>
      <trkpt lat="42.768811" lon="0.111457">
        <ele>2971.6</ele>
        <time>2019-09-08T12:23:42Z</time>
      </trkpt>
      <trkpt lat="42.768848" lon="0.111565">
        <ele>2968.4</ele>
        <time>2019-09-08T12:24:15Z</time>
      </trkpt>
      <trkpt lat="42.768877" lon="0.111554">
        <ele>2965.7</ele>
        <time>2019-09-08T12:24:51Z</time>
      </trkpt>
      <trkpt lat="42.768924" lon="0.111566">
        <ele>2962.8</ele>
        <time>2019-09-08T12:25:13Z</time>
      </trkpt>
      <trkpt lat="42.768999" lon="0.111584">
        <ele>2955.3</ele>
        <time>2019-09-08T12:26:19Z</time>
      </trkpt>
      <trkpt lat="42.769036" lon="0.111609">
        <ele>2952.4</ele>
        <time>2019-09-08T12:26:52Z</time>
      </trkpt>
      <trkpt lat="42.769077" lon="0.111617">
        <ele>2949.2</ele>
        <time>2019-09-08T12:27:15Z</time>
      </trkpt>
      <trkpt lat="42.769128" lon="0.111645">
        <ele>2945.6</ele>
        <time>2019-09-08T12:27:40Z</time>
      </trkpt>
      <trkpt lat="42.769189" lon="0.111621">
        <ele>2941.4</ele>
        <time>2019-09-08T12:28:05Z</time>
      </trkpt>
      <trkpt lat="42.769238" lon="0.111667">
        <ele>2938.8</ele>
        <time>2019-09-08T12:28:22Z</time>
      </trkpt>
      <trkpt lat="42.769296" lon="0.111631">
        <ele>2934.4</ele>
        <time>2019-09-08T12:28:52Z</time>
      </trkpt>
      <trkpt lat="42.769339" lon="0.111540">
        <ele>2931.1</ele>
        <time>2019-09-08T12:29:13Z</time>
      </trkpt>
      <trkpt lat="42.769391" lon="0.111471">
        <ele>2928.5</ele>
        <time>2019-09-08T12:29:30Z</time>
      </trkpt>
      <trkpt lat="42.769440" lon="0.111389">
        <ele>2923.5</ele>
        <time>2019-09-08T12:29:49Z</time>
      </trkpt>
      <trkpt lat="42.769535" lon="0.111359">
        <ele>2915.6</ele>
        <time>2019-09-08T12:30:45Z</time>
      </trkpt>
      <trkpt lat="42.769617" lon="0.111397">
        <ele>2910.8</ele>
        <time>2019-09-08T12:31:05Z</time>
      </trkpt>
      <trkpt lat="42.769675" lon="0.111489">
        <ele>2906.5</ele>
        <time>2019-09-08T12:31:22Z</time>
      </trkpt>
      <trkpt lat="42.769729" lon="0.111490">
        <ele>2903.3</ele>
        <time>2019-09-08T12:31:43Z</time>
      </trkpt>
      <trkpt lat="42.769785" lon="0.111577">
        <ele>2900.0</ele>
        <time>2019-09-08T12:31:59Z</time>
      </trkpt>
      <trkpt lat="42.769851" lon="0.111605">
        <ele>2896.1</ele>
        <time>2019-09-08T12:32:19Z</time>
      </trkpt>
      <trkpt lat="42.769912" lon="0.111631">
        <ele>2892.6</ele>
        <time>2019-09-08T12:32:34Z</time>
      </trkpt>
      <trkpt lat="42.769967" lon="0.111658">
        <ele>2889.1</ele>
        <time>2019-09-08T12:32:48Z</time>
      </trkpt>
      <trkpt lat="42.770010" lon="0.111771">
        <ele>2885.1</ele>
        <time>2019-09-08T12:33:00Z</time>
      </trkpt>
      <trkpt lat="42.770078" lon="0.111842">
        <ele>2882.8</ele>
        <time>2019-09-08T12:33:12Z</time>
      </trkpt>
      <trkpt lat="42.770147" lon="0.111852">
        <ele>2879.1</ele>
        <time>2019-09-08T12:33:33Z</time>
      </trkpt>
      <trkpt lat="42.770204" lon="0.111886">
        <ele>2877.1</ele>
        <time>2019-09-08T12:33:44Z</time>
      </trkpt>
      <trkpt lat="42.770252" lon="0.111877">
        <ele>2874.3</ele>
        <time>2019-09-08T12:33:55Z</time>
      </trkpt>
      <trkpt lat="42.770311" lon="0.111960">
        <ele>2871.0</ele>
        <time>2019-09-08T12:34:05Z</time>
      </trkpt>
      <trkpt lat="42.770378" lon="0.111923">
        <ele>2867.8</ele>
        <time>2019-09-08T12:34:16Z</time>
      </trkpt>
      <trkpt lat="42.770436" lon="0.111869">
        <ele>2863.8</ele>
        <time>2019-09-08T12:34:30Z</time>
      </trkpt>
      <trkpt lat="42.770491" lon="0.111823">
        <ele>2859.4</ele>
        <time>2019-09-08T12:34:44Z</time>
      </trkpt>
      <trkpt lat="42.770579" lon="0.111814">
        <ele>2855.8</ele>
        <time>2019-09-08T12:34:55Z</time>
      </trkpt>
      <trkpt lat="42.770646" lon="0.111835">
        <ele>2851.7</ele>
        <time>2019-09-08T12:35:06Z</time>
      </trkpt>
      <trkpt lat="42.770729" lon="0.111864">
        <ele>2847.4</ele>
        <time>2019-09-08T12:35:17Z</time>
      </trkpt>
      <trkpt lat="42.770809" lon="0.111931">
        <ele>2843.5</ele>
        <time>2019-09-08T12:35:28Z</time>
      </trkpt>
      <trkpt lat="42.770881" lon="0.112018">
        <ele>2840.1</ele>
        <time>2019-09-08T12:35:38Z</time>
      </trkpt>
      <trkpt lat="42.770928" lon="0.112131">
        <ele>2837.8</ele>
        <time>2019-09-08T12:35:47Z</time>
      </trkpt>
      <trkpt lat="42.770979" lon="0.112113">
        <ele>2833.9</ele>
        <time>2019-09-08T12:36:00Z</time>
      </trkpt>
      <trkpt lat="42.771036" lon="0.112067">
        <ele>2831.1</ele>
        <time>2019-09-08T12:36:10Z</time>
      </trkpt>
      <trkpt lat="42.771079" lon="0.112017">
        <ele>2828.1</ele>
        <time>2019-09-08T12:36:18Z</time>
      </trkpt>
      <trkpt lat="42.771163" lon="0.112087">
        <ele>2824.3</ele>
        <time>2019-09-08T12:36:26Z</time>
      </trkpt>
      <trkpt lat="42.771229" lon="0.112087">
        <ele>2819.9</ele>
        <time>2019-09-08T12:36:37Z</time>
      </trkpt>
      <trkpt lat="42.771296" lon="0.112109">
        <ele>2817.4</ele>
        <time>2019-09-08T12:36:49Z</time>
      </trkpt>
      <trkpt lat="42.771368" lon="0.112092">
        <ele>2813.7</ele>
        <time>2019-09-08T12:37:00Z</time>
      </trkpt>
      <trkpt lat="42.771443" lon="0.112094">
        <ele>2808.1</ele>
        <time>2019-09-08T12:37:12Z</time>
      </trkpt>
      <trkpt lat="42.771531" lon="0.112115">
        <ele>2804.1</ele>
        <time>2019-09-08T12:37:23Z</time>
      </trkpt>
      <trkpt lat="42.771618" lon="0.112093">
        <ele>2800.8</ele>
        <time>2019-09-08T12:37:33Z</time>
      </trkpt>
      <trkpt lat="42.771714" lon="0.112062">
        <ele>2796.2</ele>
        <time>2019-09-08T12:37:43Z</time>
      </trkpt>
      <trkpt lat="42.771762" lon="0.111998">
        <ele>2791.7</ele>
        <time>2019-09-08T12:37:54Z</time>
      </trkpt>
      <trkpt lat="42.771845" lon="0.111979">
        <ele>2787.1</ele>
        <time>2019-09-08T12:38:04Z</time>
      </trkpt>
      <trkpt lat="42.771917" lon="0.111922">
        <ele>2782.9</ele>
        <time>2019-09-08T12:38:15Z</time>
      </trkpt>
      <trkpt lat="42.772002" lon="0.111881">
        <ele>2778.1</ele>
        <time>2019-09-08T12:38:25Z</time>
      </trkpt>
      <trkpt lat="42.772082" lon="0.111868">
        <ele>2774.2</ele>
        <time>2019-09-08T12:38:34Z</time>
      </trkpt>
      <trkpt lat="42.772158" lon="0.111832">
        <ele>2770.8</ele>
        <time>2019-09-08T12:38:44Z</time>
      </trkpt>
      <trkpt lat="42.772258" lon="0.111743">
        <ele>2763.6</ele>
        <time>2019-09-08T12:39:03Z</time>
      </trkpt>
      <trkpt lat="42.772332" lon="0.111705">
        <ele>2759.2</ele>
        <time>2019-09-08T12:39:13Z</time>
      </trkpt>
      <trkpt lat="42.772414" lon="0.111693">
        <ele>2754.8</ele>
        <time>2019-09-08T12:39:23Z</time>
      </trkpt>
      <trkpt lat="42.772478" lon="0.111670">
        <ele>2751.4</ele>
        <time>2019-09-08T12:39:32Z</time>
      </trkpt>
      <trkpt lat="42.772567" lon="0.111656">
        <ele>2747.9</ele>
        <time>2019-09-08T12:39:42Z</time>
      </trkpt>
      <trkpt lat="42.772599" lon="0.111584">
        <ele>2742.6</ele>
        <time>2019-09-08T12:49:32Z</time>
      </trkpt>
      <trkpt lat="42.772661" lon="0.111514">
        <ele>2737.6</ele>
        <time>2019-09-08T12:49:49Z</time>
      </trkpt>
      <trkpt lat="42.772751" lon="0.111482">
        <ele>2733.1</ele>
        <time>2019-09-08T12:50:04Z</time>
      </trkpt>
      <trkpt lat="42.772848" lon="0.111510">
        <ele>2730.2</ele>
        <time>2019-09-08T12:50:16Z</time>
      </trkpt>
      <trkpt lat="42.772931" lon="0.111548">
        <ele>2727.2</ele>
        <time>2019-09-08T12:50:29Z</time>
      </trkpt>
      <trkpt lat="42.772983" lon="0.111519">
        <ele>2724.8</ele>
        <time>2019-09-08T12:50:45Z</time>
      </trkpt>
      <trkpt lat="42.773059" lon="0.111602">
        <ele>2720.9</ele>
        <time>2019-09-08T12:50:59Z</time>
      </trkpt>
      <trkpt lat="42.773118" lon="0.111537">
        <ele>2718.2</ele>
        <time>2019-09-08T12:51:13Z</time>
      </trkpt>
      <trkpt lat="42.773182" lon="0.111508">
        <ele>2713.6</ele>
        <time>2019-09-08T12:51:26Z</time>
      </trkpt>
      <trkpt lat="42.773268" lon="0.111572">
        <ele>2708.3</ele>
        <time>2019-09-08T12:51:42Z</time>
      </trkpt>
      <trkpt lat="42.773341" lon="0.111660">
        <ele>2704.4</ele>
        <time>2019-09-08T12:51:54Z</time>
      </trkpt>
      <trkpt lat="42.773405" lon="0.111761">
        <ele>2700.2</ele>
        <time>2019-09-08T12:52:07Z</time>
      </trkpt>
      <trkpt lat="42.773450" lon="0.111869">
        <ele>2695.1</ele>
        <time>2019-09-08T12:52:19Z</time>
      </trkpt>
      <trkpt lat="42.773497" lon="0.111995">
        <ele>2690.6</ele>
        <time>2019-09-08T12:52:31Z</time>
      </trkpt>
      <trkpt lat="42.773552" lon="0.112110">
        <ele>2687.0</ele>
        <time>2019-09-08T12:52:43Z</time>
      </trkpt>
      <trkpt lat="42.773591" lon="0.112232">
        <ele>2684.0</ele>
        <time>2019-09-08T12:52:53Z</time>
      </trkpt>
      <trkpt lat="42.773581" lon="0.112306">
        <ele>2681.9</ele>
        <time>2019-09-08T12:53:36Z</time>
      </trkpt>
      <trkpt lat="42.773609" lon="0.112414">
        <ele>2681.6</ele>
        <time>2019-09-08T12:54:14Z</time>
      </trkpt>
      <trkpt lat="42.773662" lon="0.112466">
        <ele>2680.0</ele>
        <time>2019-09-08T12:54:27Z</time>
      </trkpt>
      <trkpt lat="42.773751" lon="0.112440">
        <ele>2677.5</ele>
        <time>2019-09-08T12:54:40Z</time>
      </trkpt>
      <trkpt lat="42.773794" lon="0.112559">
        <ele>2672.3</ele>
        <time>2019-09-08T12:54:54Z</time>
      </trkpt>
      <trkpt lat="42.773884" lon="0.112587">
        <ele>2669.8</ele>
        <time>2019-09-08T12:55:08Z</time>
      </trkpt>
      <trkpt lat="42.773963" lon="0.112556">
        <ele>2667.4</ele>
        <time>2019-09-08T12:55:21Z</time>
      </trkpt>
      <trkpt lat="42.774051" lon="0.112568">
        <ele>2665.6</ele>
        <time>2019-09-08T12:55:33Z</time>
      </trkpt>
      <trkpt lat="42.774126" lon="0.112564">
        <ele>2662.3</ele>
        <time>2019-09-08T12:55:45Z</time>
      </trkpt>
      <trkpt lat="42.774215" lon="0.112568">
        <ele>2659.5</ele>
        <time>2019-09-08T12:55:56Z</time>
      </trkpt>
      <trkpt lat="42.774279" lon="0.112633">
        <ele>2655.0</ele>
        <time>2019-09-08T12:56:08Z</time>
      </trkpt>
      <trkpt lat="42.774357" lon="0.112581">
        <ele>2653.7</ele>
        <time>2019-09-08T12:56:17Z</time>
      </trkpt>
      <trkpt lat="42.774436" lon="0.112519">
        <ele>2649.4</ele>
        <time>2019-09-08T12:56:27Z</time>
      </trkpt>
      <trkpt lat="42.774491" lon="0.112423">
        <ele>2646.4</ele>
        <time>2019-09-08T12:56:36Z</time>
      </trkpt>
      <trkpt lat="42.774570" lon="0.112353">
        <ele>2642.3</ele>
        <time>2019-09-08T12:56:48Z</time>
      </trkpt>
      <trkpt lat="42.774649" lon="0.112321">
        <ele>2639.2</ele>
        <time>2019-09-08T12:57:03Z</time>
      </trkpt>
      <trkpt lat="42.774742" lon="0.112250">
        <ele>2636.5</ele>
        <time>2019-09-08T12:57:20Z</time>
      </trkpt>
      <trkpt lat="42.774822" lon="0.112197">
        <ele>2633.9</ele>
        <time>2019-09-08T12:57:29Z</time>
      </trkpt>
      <trkpt lat="42.774897" lon="0.112204">
        <ele>2630.7</ele>
        <time>2019-09-08T12:57:38Z</time>
      </trkpt>
      <trkpt lat="42.774964" lon="0.112193">
        <ele>2628.0</ele>
        <time>2019-09-08T12:57:49Z</time>
      </trkpt>
      <trkpt lat="42.775049" lon="0.112191">
        <ele>2624.6</ele>
        <time>2019-09-08T12:58:01Z</time>
      </trkpt>
      <trkpt lat="42.775143" lon="0.112148">
        <ele>2623.1</ele>
        <time>2019-09-08T12:58:10Z</time>
      </trkpt>
      <trkpt lat="42.775223" lon="0.112049">
        <ele>2620.7</ele>
        <time>2019-09-08T12:58:19Z</time>
      </trkpt>
      <trkpt lat="42.775299" lon="0.112127">
        <ele>2616.0</ele>
        <time>2019-09-08T12:58:28Z</time>
      </trkpt>
      <trkpt lat="42.775324" lon="0.112242">
        <ele>2609.9</ele>
        <time>2019-09-08T12:59:30Z</time>
      </trkpt>
      <trkpt lat="42.775394" lon="0.112179">
        <ele>2609.1</ele>
        <time>2019-09-08T12:59:45Z</time>
      </trkpt>
      <trkpt lat="42.775459" lon="0.112273">
        <ele>2606.7</ele>
        <time>2019-09-08T12:59:54Z</time>
      </trkpt>
      <trkpt lat="42.775491" lon="0.112391">
        <ele>2602.1</ele>
        <time>2019-09-08T13:00:05Z</time>
      </trkpt>
      <trkpt lat="42.775510" lon="0.112400">
        <ele>2599.6</ele>
        <time>2019-09-08T13:02:48Z</time>
      </trkpt>
      <trkpt lat="42.775497" lon="0.112501">
        <ele>2599.9</ele>
        <time>2019-09-08T13:05:35Z</time>
      </trkpt>
      <trkpt lat="42.775518" lon="0.112618">
        <ele>2597.5</ele>
        <time>2019-09-08T13:05:46Z</time>
      </trkpt>
      <trkpt lat="42.775541" lon="0.112743">
        <ele>2595.1</ele>
        <time>2019-09-08T13:05:56Z</time>
      </trkpt>
      <trkpt lat="42.775583" lon="0.112852">
        <ele>2593.6</ele>
        <time>2019-09-08T13:06:04Z</time>
      </trkpt>
      <trkpt lat="42.775616" lon="0.112962">
        <ele>2593.1</ele>
        <time>2019-09-08T13:06:12Z</time>
      </trkpt>
      <trkpt lat="42.775657" lon="0.113079">
        <ele>2591.7</ele>
        <time>2019-09-08T13:06:21Z</time>
      </trkpt>
      <trkpt lat="42.775680" lon="0.113214">
        <ele>2590.0</ele>
        <time>2019-09-08T13:06:31Z</time>
      </trkpt>
      <trkpt lat="42.775687" lon="0.113348">
        <ele>2587.6</ele>
        <time>2019-09-08T13:06:41Z</time>
      </trkpt>
      <trkpt lat="42.775695" lon="0.113478">
        <ele>2583.9</ele>
        <time>2019-09-08T13:06:52Z</time>
      </trkpt>
      <trkpt lat="42.775720" lon="0.113600">
        <ele>2582.0</ele>
        <time>2019-09-08T13:07:02Z</time>
      </trkpt>
      <trkpt lat="42.775727" lon="0.113742">
        <ele>2580.9</ele>
        <time>2019-09-08T13:07:12Z</time>
      </trkpt>
      <trkpt lat="42.775727" lon="0.113867">
        <ele>2577.9</ele>
        <time>2019-09-08T13:07:20Z</time>
      </trkpt>
      <trkpt lat="42.775746" lon="0.113993">
        <ele>2575.8</ele>
        <time>2019-09-08T13:07:29Z</time>
      </trkpt>
      <trkpt lat="42.775737" lon="0.114097">
        <ele>2573.5</ele>
        <time>2019-09-08T13:07:38Z</time>
      </trkpt>
      <trkpt lat="42.775710" lon="0.114211">
        <ele>2570.8</ele>
        <time>2019-09-08T13:07:50Z</time>
      </trkpt>
      <trkpt lat="42.775673" lon="0.114326">
        <ele>2566.3</ele>
        <time>2019-09-08T13:08:03Z</time>
      </trkpt>
      <trkpt lat="42.775661" lon="0.114447">
        <ele>2564.1</ele>
        <time>2019-09-08T13:08:12Z</time>
      </trkpt>
      <trkpt lat="42.775669" lon="0.114584">
        <ele>2560.4</ele>
        <time>2019-09-08T13:08:22Z</time>
      </trkpt>
      <trkpt lat="42.775699" lon="0.114693">
        <ele>2557.9</ele>
        <time>2019-09-08T13:08:30Z</time>
      </trkpt>
      <trkpt lat="42.775699" lon="0.114820">
        <ele>2556.5</ele>
        <time>2019-09-08T13:08:38Z</time>
      </trkpt>
      <trkpt lat="42.775663" lon="0.114935">
        <ele>2553.5</ele>
        <time>2019-09-08T13:08:48Z</time>
      </trkpt>
      <trkpt lat="42.775649" lon="0.115067">
        <ele>2551.1</ele>
        <time>2019-09-08T13:09:01Z</time>
      </trkpt>
      <trkpt lat="42.775639" lon="0.115198">
        <ele>2549.7</ele>
        <time>2019-09-08T13:09:10Z</time>
      </trkpt>
      <trkpt lat="42.775613" lon="0.115311">
        <ele>2545.9</ele>
        <time>2019-09-08T13:09:24Z</time>
      </trkpt>
      <trkpt lat="42.775564" lon="0.115380">
        <ele>2542.0</ele>
        <time>2019-09-08T13:09:39Z</time>
      </trkpt>
      <trkpt lat="42.775521" lon="0.115243">
        <ele>2540.9</ele>
        <time>2019-09-08T13:09:49Z</time>
      </trkpt>
      <trkpt lat="42.775458" lon="0.115145">
        <ele>2538.6</ele>
        <time>2019-09-08T13:10:01Z</time>
      </trkpt>
      <trkpt lat="42.775414" lon="0.115027">
        <ele>2536.1</ele>
        <time>2019-09-08T13:10:10Z</time>
      </trkpt>
      <trkpt lat="42.775372" lon="0.114906">
        <ele>2534.6</ele>
        <time>2019-09-08T13:10:19Z</time>
      </trkpt>
      <trkpt lat="42.775314" lon="0.114812">
        <ele>2532.7</ele>
        <time>2019-09-08T13:10:27Z</time>
      </trkpt>
      <trkpt lat="42.775246" lon="0.114730">
        <ele>2530.8</ele>
        <time>2019-09-08T13:10:36Z</time>
      </trkpt>
      <trkpt lat="42.775183" lon="0.114659">
        <ele>2528.8</ele>
        <time>2019-09-08T13:10:44Z</time>
      </trkpt>
      <trkpt lat="42.775110" lon="0.114606">
        <ele>2527.0</ele>
        <time>2019-09-08T13:10:52Z</time>
      </trkpt>
      <trkpt lat="42.775030" lon="0.114532">
        <ele>2525.1</ele>
        <time>2019-09-08T13:11:02Z</time>
      </trkpt>
      <trkpt lat="42.774935" lon="0.114584">
        <ele>2522.7</ele>
        <time>2019-09-08T13:11:14Z</time>
      </trkpt>
      <trkpt lat="42.774980" lon="0.114686">
        <ele>2520.3</ele>
        <time>2019-09-08T13:11:26Z</time>
      </trkpt>
      <trkpt lat="42.775030" lon="0.114801">
        <ele>2516.7</ele>
        <time>2019-09-08T13:11:37Z</time>
      </trkpt>
      <trkpt lat="42.775079" lon="0.114927">
        <ele>2514.2</ele>
        <time>2019-09-08T13:11:46Z</time>
      </trkpt>
      <trkpt lat="42.775127" lon="0.115033">
        <ele>2513.6</ele>
        <time>2019-09-08T13:11:55Z</time>
      </trkpt>
      <trkpt lat="42.775131" lon="0.115166">
        <ele>2512.6</ele>
        <time>2019-09-08T13:12:03Z</time>
      </trkpt>
      <trkpt lat="42.775120" lon="0.115305">
        <ele>2511.2</ele>
        <time>2019-09-08T13:12:12Z</time>
      </trkpt>
      <trkpt lat="42.775118" lon="0.115440">
        <ele>2509.0</ele>
        <time>2019-09-08T13:12:20Z</time>
      </trkpt>
      <trkpt lat="42.775128" lon="0.115586">
        <ele>2506.7</ele>
        <time>2019-09-08T13:12:29Z</time>
      </trkpt>
      <trkpt lat="42.775126" lon="0.115705">
        <ele>2503.8</ele>
        <time>2019-09-08T13:12:38Z</time>
      </trkpt>
      <trkpt lat="42.775134" lon="0.115827">
        <ele>2501.4</ele>
        <time>2019-09-08T13:12:51Z</time>
      </trkpt>
      <trkpt lat="42.775144" lon="0.115953">
        <ele>2499.9</ele>
        <time>2019-09-08T13:13:01Z</time>
      </trkpt>
      <trkpt lat="42.775169" lon="0.116067">
        <ele>2497.5</ele>
        <time>2019-09-08T13:13:11Z</time>
      </trkpt>
      <trkpt lat="42.775078" lon="0.116022">
        <ele>2494.7</ele>
        <time>2019-09-08T13:13:21Z</time>
      </trkpt>
      <trkpt lat="42.775031" lon="0.115907">
        <ele>2493.4</ele>
        <time>2019-09-08T13:13:30Z</time>
      </trkpt>
      <trkpt lat="42.774969" lon="0.115781">
        <ele>2492.5</ele>
        <time>2019-09-08T13:13:38Z</time>
      </trkpt>
      <trkpt lat="42.774925" lon="0.115667">
        <ele>2491.2</ele>
        <time>2019-09-08T13:13:45Z</time>
      </trkpt>
      <trkpt lat="42.774850" lon="0.115602">
        <ele>2489.2</ele>
        <time>2019-09-08T13:13:52Z</time>
      </trkpt>
      <trkpt lat="42.774764" lon="0.115561">
        <ele>2486.6</ele>
        <time>2019-09-08T13:14:00Z</time>
      </trkpt>
      <trkpt lat="42.774671" lon="0.115573">
        <ele>2485.4</ele>
        <time>2019-09-08T13:14:09Z</time>
      </trkpt>
      <trkpt lat="42.774601" lon="0.115666">
        <ele>2483.1</ele>
        <time>2019-09-08T13:14:18Z</time>
      </trkpt>
      <trkpt lat="42.774539" lon="0.115718">
        <ele>2481.2</ele>
        <time>2019-09-08T13:14:26Z</time>
      </trkpt>
      <trkpt lat="42.774592" lon="0.115808">
        <ele>2478.9</ele>
        <time>2019-09-08T13:14:33Z</time>
      </trkpt>
      <trkpt lat="42.774642" lon="0.115896">
        <ele>2475.3</ele>
        <time>2019-09-08T13:14:43Z</time>
      </trkpt>
      <trkpt lat="42.774594" lon="0.116003">
        <ele>2471.6</ele>
        <time>2019-09-08T13:14:54Z</time>
      </trkpt>
      <trkpt lat="42.774573" lon="0.116110">
        <ele>2467.6</ele>
        <time>2019-09-08T13:15:05Z</time>
      </trkpt>
      <trkpt lat="42.774530" lon="0.116227">
        <ele>2462.2</ele>
        <time>2019-09-08T13:15:16Z</time>
      </trkpt>
      <trkpt lat="42.774517" lon="0.116330">
        <ele>2458.6</ele>
        <time>2019-09-08T13:15:26Z</time>
      </trkpt>
      <trkpt lat="42.774473" lon="0.116441">
        <ele>2453.4</ele>
        <time>2019-09-08T13:15:38Z</time>
      </trkpt>
      <trkpt lat="42.774481" lon="0.116566">
        <ele>2449.4</ele>
        <time>2019-09-08T13:15:49Z</time>
      </trkpt>
      <trkpt lat="42.774398" lon="0.116640">
        <ele>2445.5</ele>
        <time>2019-09-08T13:15:59Z</time>
      </trkpt>
      <trkpt lat="42.774355" lon="0.116728">
        <ele>2441.4</ele>
        <time>2019-09-08T13:16:11Z</time>
      </trkpt>
      <trkpt lat="42.774321" lon="0.116812">
        <ele>2437.2</ele>
        <time>2019-09-08T13:16:25Z</time>
      </trkpt>
      <trkpt lat="42.774271" lon="0.116907">
        <ele>2433.1</ele>
        <time>2019-09-08T13:16:38Z</time>
      </trkpt>
      <trkpt lat="42.774210" lon="0.116991">
        <ele>2429.1</ele>
        <time>2019-09-08T13:16:51Z</time>
      </trkpt>
      <trkpt lat="42.774171" lon="0.117101">
        <ele>2425.1</ele>
        <time>2019-09-08T13:17:02Z</time>
      </trkpt>
      <trkpt lat="42.774124" lon="0.117201">
        <ele>2419.6</ele>
        <time>2019-09-08T13:17:14Z</time>
      </trkpt>
      <trkpt lat="42.774146" lon="0.117300">
        <ele>2414.1</ele>
        <time>2019-09-08T13:17:29Z</time>
      </trkpt>
      <trkpt lat="42.774105" lon="0.117398">
        <ele>2410.9</ele>
        <time>2019-09-08T13:17:40Z</time>
      </trkpt>
      <trkpt lat="42.774089" lon="0.117478">
        <ele>2407.5</ele>
        <time>2019-09-08T13:17:49Z</time>
      </trkpt>
      <trkpt lat="42.774097" lon="0.117558">
        <ele>2403.3</ele>
        <time>2019-09-08T13:17:59Z</time>
      </trkpt>
      <trkpt lat="42.774096" lon="0.117655">
        <ele>2399.9</ele>
        <time>2019-09-08T13:18:09Z</time>
      </trkpt>
      <trkpt lat="42.774010" lon="0.117739">
        <ele>2396.6</ele>
        <time>2019-09-08T13:18:17Z</time>
      </trkpt>
      <trkpt lat="42.773918" lon="0.117794">
        <ele>2393.9</ele>
        <time>2019-09-08T13:18:25Z</time>
      </trkpt>
      <trkpt lat="42.773839" lon="0.117870">
        <ele>2391.7</ele>
        <time>2019-09-08T13:18:34Z</time>
      </trkpt>
      <trkpt lat="42.773751" lon="0.117931">
        <ele>2388.6</ele>
        <time>2019-09-08T13:18:43Z</time>
      </trkpt>
      <trkpt lat="42.773660" lon="0.117966">
        <ele>2386.5</ele>
        <time>2019-09-08T13:18:52Z</time>
      </trkpt>
      <trkpt lat="42.773577" lon="0.118061">
        <ele>2384.7</ele>
        <time>2019-09-08T13:19:01Z</time>
      </trkpt>
      <trkpt lat="42.773497" lon="0.118124">
        <ele>2383.1</ele>
        <time>2019-09-08T13:19:09Z</time>
      </trkpt>
      <trkpt lat="42.773540" lon="0.118175">
        <ele>2381.5</ele>
        <time>2019-09-08T13:19:17Z</time>
      </trkpt>
      <trkpt lat="42.773636" lon="0.118204">
        <ele>2378.8</ele>
        <time>2019-09-08T13:19:26Z</time>
      </trkpt>
      <trkpt lat="42.773719" lon="0.118247">
        <ele>2376.7</ele>
        <time>2019-09-08T13:19:34Z</time>
      </trkpt>
      <trkpt lat="42.773816" lon="0.118288">
        <ele>2374.8</ele>
        <time>2019-09-08T13:19:41Z</time>
      </trkpt>
      <trkpt lat="42.773898" lon="0.118348">
        <ele>2373.3</ele>
        <time>2019-09-08T13:19:48Z</time>
      </trkpt>
      <trkpt lat="42.773976" lon="0.118406">
        <ele>2370.9</ele>
        <time>2019-09-08T13:19:56Z</time>
      </trkpt>
      <trkpt lat="42.774064" lon="0.118424">
        <ele>2368.7</ele>
        <time>2019-09-08T13:20:07Z</time>
      </trkpt>
      <trkpt lat="42.774145" lon="0.118481">
        <ele>2367.5</ele>
        <time>2019-09-08T13:20:14Z</time>
      </trkpt>
      <trkpt lat="42.774222" lon="0.118560">
        <ele>2364.5</ele>
        <time>2019-09-08T13:20:21Z</time>
      </trkpt>
      <trkpt lat="42.774307" lon="0.118642">
        <ele>2362.4</ele>
        <time>2019-09-08T13:20:28Z</time>
      </trkpt>
      <trkpt lat="42.774267" lon="0.118732">
        <ele>2360.1</ele>
        <time>2019-09-08T13:20:36Z</time>
      </trkpt>
      <trkpt lat="42.774168" lon="0.118762">
        <ele>2356.8</ele>
        <time>2019-09-08T13:20:44Z</time>
      </trkpt>
      <trkpt lat="42.774064" lon="0.118807">
        <ele>2354.9</ele>
        <time>2019-09-08T13:20:52Z</time>
      </trkpt>
      <trkpt lat="42.773961" lon="0.118901">
        <ele>2353.5</ele>
        <time>2019-09-08T13:21:01Z</time>
      </trkpt>
      <trkpt lat="42.773877" lon="0.118996">
        <ele>2350.8</ele>
        <time>2019-09-08T13:21:09Z</time>
      </trkpt>
      <trkpt lat="42.773803" lon="0.119103">
        <ele>2348.6</ele>
        <time>2019-09-08T13:21:17Z</time>
      </trkpt>
      <trkpt lat="42.773733" lon="0.119204">
        <ele>2346.4</ele>
        <time>2019-09-08T13:21:25Z</time>
      </trkpt>
      <trkpt lat="42.773649" lon="0.119266">
        <ele>2344.8</ele>
        <time>2019-09-08T13:21:32Z</time>
      </trkpt>
      <trkpt lat="42.773574" lon="0.119326">
        <ele>2342.6</ele>
        <time>2019-09-08T13:21:39Z</time>
      </trkpt>
      <trkpt lat="42.773640" lon="0.119389">
        <ele>2339.4</ele>
        <time>2019-09-08T13:21:49Z</time>
      </trkpt>
      <trkpt lat="42.773738" lon="0.119446">
        <ele>2337.2</ele>
        <time>2019-09-08T13:22:02Z</time>
      </trkpt>
      <trkpt lat="42.773837" lon="0.119480">
        <ele>2336.0</ele>
        <time>2019-09-08T13:22:10Z</time>
      </trkpt>
      <trkpt lat="42.773935" lon="0.119507">
        <ele>2335.2</ele>
        <time>2019-09-08T13:22:17Z</time>
      </trkpt>
      <trkpt lat="42.774027" lon="0.119562">
        <ele>2333.4</ele>
        <time>2019-09-08T13:22:24Z</time>
      </trkpt>
      <trkpt lat="42.774106" lon="0.119636">
        <ele>2331.7</ele>
        <time>2019-09-08T13:22:31Z</time>
      </trkpt>
      <trkpt lat="42.774165" lon="0.119732">
        <ele>2329.8</ele>
        <time>2019-09-08T13:22:39Z</time>
      </trkpt>
      <trkpt lat="42.774221" lon="0.119832">
        <ele>2326.8</ele>
        <time>2019-09-08T13:22:46Z</time>
      </trkpt>
      <trkpt lat="42.774275" lon="0.119960">
        <ele>2324.6</ele>
        <time>2019-09-08T13:22:54Z</time>
      </trkpt>
      <trkpt lat="42.774297" lon="0.120086">
        <ele>2322.8</ele>
        <time>2019-09-08T13:23:00Z</time>
      </trkpt>
      <trkpt lat="42.774316" lon="0.120225">
        <ele>2320.9</ele>
        <time>2019-09-08T13:23:07Z</time>
      </trkpt>
      <trkpt lat="42.774324" lon="0.120349">
        <ele>2318.5</ele>
        <time>2019-09-08T13:23:14Z</time>
      </trkpt>
      <trkpt lat="42.774330" lon="0.120469">
        <ele>2316.4</ele>
        <time>2019-09-08T13:23:21Z</time>
      </trkpt>
      <trkpt lat="42.774350" lon="0.120600">
        <ele>2314.3</ele>
        <time>2019-09-08T13:23:29Z</time>
      </trkpt>
      <trkpt lat="42.774354" lon="0.120725">
        <ele>2312.3</ele>
        <time>2019-09-08T13:23:36Z</time>
      </trkpt>
      <trkpt lat="42.774362" lon="0.120843">
        <ele>2309.9</ele>
        <time>2019-09-08T13:23:45Z</time>
      </trkpt>
      <trkpt lat="42.774351" lon="0.120962">
        <ele>2307.8</ele>
        <time>2019-09-08T13:23:54Z</time>
      </trkpt>
      <trkpt lat="42.774340" lon="0.121111">
        <ele>2305.1</ele>
        <time>2019-09-08T13:24:05Z</time>
      </trkpt>
      <trkpt lat="42.774313" lon="0.121155">
        <ele>2302.9</ele>
        <time>2019-09-08T13:24:13Z</time>
      </trkpt>
      <trkpt lat="42.774257" lon="0.121029">
        <ele>2300.9</ele>
        <time>2019-09-08T13:24:21Z</time>
      </trkpt>
      <trkpt lat="42.774185" lon="0.120950">
        <ele>2299.5</ele>
        <time>2019-09-08T13:24:29Z</time>
      </trkpt>
      <trkpt lat="42.774091" lon="0.120993">
        <ele>2298.1</ele>
        <time>2019-09-08T13:24:38Z</time>
      </trkpt>
      <trkpt lat="42.774013" lon="0.121066">
        <ele>2296.3</ele>
        <time>2019-09-08T13:24:46Z</time>
      </trkpt>
      <trkpt lat="42.774013" lon="0.121191">
        <ele>2294.0</ele>
        <time>2019-09-08T13:24:55Z</time>
      </trkpt>
      <trkpt lat="42.774034" lon="0.121306">
        <ele>2291.0</ele>
        <time>2019-09-08T13:25:06Z</time>
      </trkpt>
      <trkpt lat="42.774086" lon="0.121421">
        <ele>2288.9</ele>
        <time>2019-09-08T13:25:16Z</time>
      </trkpt>
      <trkpt lat="42.774068" lon="0.121504">
        <ele>2286.6</ele>
        <time>2019-09-08T13:25:27Z</time>
      </trkpt>
      <trkpt lat="42.773974" lon="0.121528">
        <ele>2285.4</ele>
        <time>2019-09-08T13:25:35Z</time>
      </trkpt>
      <trkpt lat="42.773894" lon="0.121604">
        <ele>2283.8</ele>
        <time>2019-09-08T13:25:43Z</time>
      </trkpt>
      <trkpt lat="42.773818" lon="0.121690">
        <ele>2282.4</ele>
        <time>2019-09-08T13:25:51Z</time>
      </trkpt>
      <trkpt lat="42.773752" lon="0.121781">
        <ele>2280.8</ele>
        <time>2019-09-08T13:25:59Z</time>
      </trkpt>
      <trkpt lat="42.773680" lon="0.121850">
        <ele>2279.5</ele>
        <time>2019-09-08T13:26:07Z</time>
      </trkpt>
      <trkpt lat="42.773607" lon="0.121938">
        <ele>2277.8</ele>
        <time>2019-09-08T13:26:17Z</time>
      </trkpt>
      <trkpt lat="42.773536" lon="0.122021">
        <ele>2276.6</ele>
        <time>2019-09-08T13:26:25Z</time>
      </trkpt>
      <trkpt lat="42.773460" lon="0.122101">
        <ele>2275.1</ele>
        <time>2019-09-08T13:26:33Z</time>
      </trkpt>
      <trkpt lat="42.773382" lon="0.122185">
        <ele>2273.6</ele>
        <time>2019-09-08T13:26:41Z</time>
      </trkpt>
      <trkpt lat="42.773299" lon="0.122234">
        <ele>2272.1</ele>
        <time>2019-09-08T13:26:50Z</time>
      </trkpt>
      <trkpt lat="42.773219" lon="0.122313">
        <ele>2270.5</ele>
        <time>2019-09-08T13:26:59Z</time>
      </trkpt>
      <trkpt lat="42.773121" lon="0.122342">
        <ele>2269.1</ele>
        <time>2019-09-08T13:27:07Z</time>
      </trkpt>
      <trkpt lat="42.773035" lon="0.122375">
        <ele>2267.8</ele>
        <time>2019-09-08T13:27:15Z</time>
      </trkpt>
      <trkpt lat="42.772975" lon="0.122454">
        <ele>2266.5</ele>
        <time>2019-09-08T13:27:24Z</time>
      </trkpt>
      <trkpt lat="42.772984" lon="0.122577">
        <ele>2265.2</ele>
        <time>2019-09-08T13:27:33Z</time>
      </trkpt>
      <trkpt lat="42.772926" lon="0.122676">
        <ele>2263.5</ele>
        <time>2019-09-08T13:27:40Z</time>
      </trkpt>
      <trkpt lat="42.772887" lon="0.122801">
        <ele>2261.5</ele>
        <time>2019-09-08T13:27:50Z</time>
      </trkpt>
      <trkpt lat="42.772829" lon="0.122902">
        <ele>2260.6</ele>
        <time>2019-09-08T13:27:58Z</time>
      </trkpt>
      <trkpt lat="42.772765" lon="0.123010">
        <ele>2259.1</ele>
        <time>2019-09-08T13:28:07Z</time>
      </trkpt>
      <trkpt lat="42.772718" lon="0.123130">
        <ele>2257.7</ele>
        <time>2019-09-08T13:28:15Z</time>
      </trkpt>
      <trkpt lat="42.772656" lon="0.123243">
        <ele>2255.9</ele>
        <time>2019-09-08T13:28:24Z</time>
      </trkpt>
      <trkpt lat="42.772584" lon="0.123333">
        <ele>2254.1</ele>
        <time>2019-09-08T13:28:32Z</time>
      </trkpt>
      <trkpt lat="42.772530" lon="0.123433">
        <ele>2252.0</ele>
        <time>2019-09-08T13:28:40Z</time>
      </trkpt>
      <trkpt lat="42.772447" lon="0.123517">
        <ele>2249.6</ele>
        <time>2019-09-08T13:28:49Z</time>
      </trkpt>
      <trkpt lat="42.772377" lon="0.123598">
        <ele>2247.8</ele>
        <time>2019-09-08T13:28:57Z</time>
      </trkpt>
      <trkpt lat="42.772313" lon="0.123670">
        <ele>2246.0</ele>
        <time>2019-09-08T13:29:04Z</time>
      </trkpt>
      <trkpt lat="42.772227" lon="0.123748">
        <ele>2243.5</ele>
        <time>2019-09-08T13:29:14Z</time>
      </trkpt>
      <trkpt lat="42.772172" lon="0.123850">
        <ele>2241.6</ele>
        <time>2019-09-08T13:29:21Z</time>
      </trkpt>
      <trkpt lat="42.772131" lon="0.123943">
        <ele>2239.7</ele>
        <time>2019-09-08T13:29:28Z</time>
      </trkpt>
      <trkpt lat="42.772098" lon="0.124060">
        <ele>2238.1</ele>
        <time>2019-09-08T13:29:35Z</time>
      </trkpt>
      <trkpt lat="42.772044" lon="0.124177">
        <ele>2236.9</ele>
        <time>2019-09-08T13:29:43Z</time>
      </trkpt>
      <trkpt lat="42.771988" lon="0.124286">
        <ele>2235.8</ele>
        <time>2019-09-08T13:29:50Z</time>
      </trkpt>
      <trkpt lat="42.771952" lon="0.124414">
        <ele>2235.4</ele>
        <time>2019-09-08T13:29:58Z</time>
      </trkpt>
      <trkpt lat="42.771918" lon="0.124516">
        <ele>2232.4</ele>
        <time>2019-09-08T13:38:43Z</time>
      </trkpt>
      <trkpt lat="42.771954" lon="0.124634">
        <ele>2230.9</ele>
        <time>2019-09-08T13:41:54Z</time>
      </trkpt>
      <trkpt lat="42.771988" lon="0.124751">
        <ele>2229.9</ele>
        <time>2019-09-08T13:42:05Z</time>
      </trkpt>
      <trkpt lat="42.772019" lon="0.124877">
        <ele>2228.6</ele>
        <time>2019-09-08T13:42:13Z</time>
      </trkpt>
      <trkpt lat="42.772055" lon="0.124996">
        <ele>2226.6</ele>
        <time>2019-09-08T13:42:24Z</time>
      </trkpt>
      <trkpt lat="42.772035" lon="0.125131">
        <ele>2225.3</ele>
        <time>2019-09-08T13:42:34Z</time>
      </trkpt>
      <trkpt lat="42.772039" lon="0.125271">
        <ele>2224.6</ele>
        <time>2019-09-08T13:42:43Z</time>
      </trkpt>
      <trkpt lat="42.772062" lon="0.125385">
        <ele>2223.5</ele>
        <time>2019-09-08T13:42:51Z</time>
      </trkpt>
      <trkpt lat="42.772118" lon="0.125486">
        <ele>2222.0</ele>
        <time>2019-09-08T13:43:01Z</time>
      </trkpt>
      <trkpt lat="42.772191" lon="0.125595">
        <ele>2221.5</ele>
        <time>2019-09-08T13:43:10Z</time>
      </trkpt>
      <trkpt lat="42.772266" lon="0.125672">
        <ele>2221.1</ele>
        <time>2019-09-08T13:43:19Z</time>
      </trkpt>
      <trkpt lat="42.772309" lon="0.125784">
        <ele>2220.5</ele>
        <time>2019-09-08T13:43:27Z</time>
      </trkpt>
      <trkpt lat="42.772334" lon="0.125911">
        <ele>2219.1</ele>
        <time>2019-09-08T13:43:35Z</time>
      </trkpt>
      <trkpt lat="42.772390" lon="0.126006">
        <ele>2218.1</ele>
        <time>2019-09-08T13:43:44Z</time>
      </trkpt>
      <trkpt lat="42.772412" lon="0.126126">
        <ele>2216.7</ele>
        <time>2019-09-08T13:43:53Z</time>
      </trkpt>
      <trkpt lat="42.772444" lon="0.126240">
        <ele>2214.8</ele>
        <time>2019-09-08T13:44:01Z</time>
      </trkpt>
      <trkpt lat="42.772482" lon="0.126353">
        <ele>2213.5</ele>
        <time>2019-09-08T13:44:09Z</time>
      </trkpt>
      <trkpt lat="42.772518" lon="0.126468">
        <ele>2212.0</ele>
        <time>2019-09-08T13:44:17Z</time>
      </trkpt>
      <trkpt lat="42.772527" lon="0.126591">
        <ele>2209.6</ele>
        <time>2019-09-08T13:44:27Z</time>
      </trkpt>
      <trkpt lat="42.772589" lon="0.126630">
        <ele>2206.3</ele>
        <time>2019-09-08T13:44:39Z</time>
      </trkpt>
      <trkpt lat="42.772617" lon="0.126706">
        <ele>2202.1</ele>
        <time>2019-09-08T13:45:00Z</time>
      </trkpt>
      <trkpt lat="42.772630" lon="0.126832">
        <ele>2200.6</ele>
        <time>2019-09-08T13:45:09Z</time>
      </trkpt>
      <trkpt lat="42.772635" lon="0.126956">
        <ele>2198.3</ele>
        <time>2019-09-08T13:45:17Z</time>
      </trkpt>
      <trkpt lat="42.772612" lon="0.127086">
        <ele>2195.3</ele>
        <time>2019-09-08T13:45:25Z</time>
      </trkpt>
      <trkpt lat="42.772570" lon="0.127215">
        <ele>2193.2</ele>
        <time>2019-09-08T13:45:32Z</time>
      </trkpt>
      <trkpt lat="42.772535" lon="0.127334">
        <ele>2190.9</ele>
        <time>2019-09-08T13:45:40Z</time>
      </trkpt>
      <trkpt lat="42.772544" lon="0.127460">
        <ele>2189.2</ele>
        <time>2019-09-08T13:45:47Z</time>
      </trkpt>
      <trkpt lat="42.772610" lon="0.127581">
        <ele>2186.4</ele>
        <time>2019-09-08T13:45:56Z</time>
      </trkpt>
      <trkpt lat="42.772633" lon="0.127704">
        <ele>2184.4</ele>
        <time>2019-09-08T13:46:03Z</time>
      </trkpt>
      <trkpt lat="42.772652" lon="0.127823">
        <ele>2182.6</ele>
        <time>2019-09-08T13:46:10Z</time>
      </trkpt>
      <trkpt lat="42.772662" lon="0.127963">
        <ele>2180.1</ele>
        <time>2019-09-08T13:46:19Z</time>
      </trkpt>
      <trkpt lat="42.772692" lon="0.128085">
        <ele>2178.4</ele>
        <time>2019-09-08T13:46:25Z</time>
      </trkpt>
      <trkpt lat="42.772725" lon="0.128206">
        <ele>2176.9</ele>
        <time>2019-09-08T13:46:31Z</time>
      </trkpt>
      <trkpt lat="42.772707" lon="0.128341">
        <ele>2175.4</ele>
        <time>2019-09-08T13:46:39Z</time>
      </trkpt>
      <trkpt lat="42.772692" lon="0.128476">
        <ele>2173.7</ele>
        <time>2019-09-08T13:46:48Z</time>
      </trkpt>
      <trkpt lat="42.772686" lon="0.128597">
        <ele>2172.8</ele>
        <time>2019-09-08T13:46:55Z</time>
      </trkpt>
      <trkpt lat="42.772684" lon="0.128718">
        <ele>2170.7</ele>
        <time>2019-09-08T13:47:04Z</time>
      </trkpt>
      <trkpt lat="42.772749" lon="0.128801">
        <ele>2168.8</ele>
        <time>2019-09-08T13:47:14Z</time>
      </trkpt>
      <trkpt lat="42.772826" lon="0.128850">
        <ele>2167.0</ele>
        <time>2019-09-08T13:47:26Z</time>
      </trkpt>
      <trkpt lat="42.772901" lon="0.128914">
        <ele>2164.8</ele>
        <time>2019-09-08T13:47:53Z</time>
      </trkpt>
      <trkpt lat="42.772976" lon="0.129006">
        <ele>2164.0</ele>
        <time>2019-09-08T13:48:00Z</time>
      </trkpt>
      <trkpt lat="42.773035" lon="0.129107">
        <ele>2162.3</ele>
        <time>2019-09-08T13:48:07Z</time>
      </trkpt>
      <trkpt lat="42.773108" lon="0.129194">
        <ele>2160.4</ele>
        <time>2019-09-08T13:48:14Z</time>
      </trkpt>
      <trkpt lat="42.773155" lon="0.129282">
        <ele>2157.2</ele>
        <time>2019-09-08T13:48:32Z</time>
      </trkpt>
      <trkpt lat="42.773177" lon="0.129397">
        <ele>2156.1</ele>
        <time>2019-09-08T13:48:44Z</time>
      </trkpt>
      <trkpt lat="42.773225" lon="0.129494">
        <ele>2154.9</ele>
        <time>2019-09-08T13:48:51Z</time>
      </trkpt>
      <trkpt lat="42.773226" lon="0.129554">
        <ele>2152.3</ele>
        <time>2019-09-08T13:50:07Z</time>
      </trkpt>
      <trkpt lat="42.773222" lon="0.129679">
        <ele>2151.4</ele>
        <time>2019-09-08T13:50:14Z</time>
      </trkpt>
      <trkpt lat="42.773194" lon="0.129809">
        <ele>2151.1</ele>
        <time>2019-09-08T13:50:22Z</time>
      </trkpt>
      <trkpt lat="42.773155" lon="0.129926">
        <ele>2151.4</ele>
        <time>2019-09-08T13:50:30Z</time>
      </trkpt>
      <trkpt lat="42.773071" lon="0.129988">
        <ele>2151.0</ele>
        <time>2019-09-08T13:50:40Z</time>
      </trkpt>
      <trkpt lat="42.772981" lon="0.129989">
        <ele>2149.6</ele>
        <time>2019-09-08T13:50:47Z</time>
      </trkpt>
      <trkpt lat="42.772880" lon="0.129984">
        <ele>2148.1</ele>
        <time>2019-09-08T13:50:55Z</time>
      </trkpt>
      <trkpt lat="42.772789" lon="0.130001">
        <ele>2146.3</ele>
        <time>2019-09-08T13:51:02Z</time>
      </trkpt>
      <trkpt lat="42.772700" lon="0.130062">
        <ele>2145.3</ele>
        <time>2019-09-08T13:51:10Z</time>
      </trkpt>
      <trkpt lat="42.772610" lon="0.130126">
        <ele>2145.1</ele>
        <time>2019-09-08T13:51:18Z</time>
      </trkpt>
      <trkpt lat="42.772528" lon="0.130163">
        <ele>2145.8</ele>
        <time>2019-09-08T13:51:29Z</time>
      </trkpt>
      <trkpt lat="42.772439" lon="0.130217">
        <ele>2145.1</ele>
        <time>2019-09-08T13:51:38Z</time>
      </trkpt>
      <trkpt lat="42.772343" lon="0.130271">
        <ele>2143.2</ele>
        <time>2019-09-08T13:51:46Z</time>
      </trkpt>
      <trkpt lat="42.772255" lon="0.130327">
        <ele>2141.8</ele>
        <time>2019-09-08T13:51:53Z</time>
      </trkpt>
      <trkpt lat="42.772172" lon="0.130371">
        <ele>2141.1</ele>
        <time>2019-09-08T13:52:01Z</time>
      </trkpt>
      <trkpt lat="42.772100" lon="0.130488">
        <ele>2140.1</ele>
        <time>2019-09-08T13:52:09Z</time>
      </trkpt>
      <trkpt lat="42.772029" lon="0.130555">
        <ele>2140.6</ele>
        <time>2019-09-08T13:52:26Z</time>
      </trkpt>
      <trkpt lat="42.771940" lon="0.130574">
        <ele>2139.9</ele>
        <time>2019-09-08T13:52:39Z</time>
      </trkpt>
      <trkpt lat="42.771876" lon="0.130647">
        <ele>2137.5</ele>
        <time>2019-09-08T13:52:49Z</time>
      </trkpt>
      <trkpt lat="42.771791" lon="0.130700">
        <ele>2133.5</ele>
        <time>2019-09-08T13:52:59Z</time>
      </trkpt>
      <trkpt lat="42.771727" lon="0.130782">
        <ele>2129.6</ele>
        <time>2019-09-08T13:53:10Z</time>
      </trkpt>
      <trkpt lat="42.771643" lon="0.130882">
        <ele>2127.1</ele>
        <time>2019-09-08T13:53:18Z</time>
      </trkpt>
      <trkpt lat="42.771573" lon="0.130976">
        <ele>2125.2</ele>
        <time>2019-09-08T13:53:27Z</time>
      </trkpt>
      <trkpt lat="42.771493" lon="0.131042">
        <ele>2124.7</ele>
        <time>2019-09-08T13:53:36Z</time>
      </trkpt>
      <trkpt lat="42.771387" lon="0.131084">
        <ele>2125.0</ele>
        <time>2019-09-08T13:53:46Z</time>
      </trkpt>
      <trkpt lat="42.771306" lon="0.131149">
        <ele>2124.6</ele>
        <time>2019-09-08T13:54:01Z</time>
      </trkpt>
      <trkpt lat="42.771242" lon="0.131239">
        <ele>2123.5</ele>
        <time>2019-09-08T13:54:12Z</time>
      </trkpt>
      <trkpt lat="42.771188" lon="0.131311">
        <ele>2122.0</ele>
        <time>2019-09-08T13:54:24Z</time>
      </trkpt>
      <trkpt lat="42.771135" lon="0.131439">
        <ele>2120.6</ele>
        <time>2019-09-08T13:54:42Z</time>
      </trkpt>
      <trkpt lat="42.771056" lon="0.131528">
        <ele>2120.2</ele>
        <time>2019-09-08T13:54:52Z</time>
      </trkpt>
      <trkpt lat="42.770952" lon="0.131574">
        <ele>2120.6</ele>
        <time>2019-09-08T13:55:02Z</time>
      </trkpt>
      <trkpt lat="42.770869" lon="0.131639">
        <ele>2120.6</ele>
        <time>2019-09-08T13:55:12Z</time>
      </trkpt>
      <trkpt lat="42.770768" lon="0.131715">
        <ele>2121.9</ele>
        <time>2019-09-08T13:55:27Z</time>
      </trkpt>
      <trkpt lat="42.770696" lon="0.131726">
        <ele>2123.6</ele>
        <time>2019-09-08T13:55:52Z</time>
      </trkpt>
      <trkpt lat="42.770604" lon="0.131747">
        <ele>2124.0</ele>
        <time>2019-09-08T13:56:22Z</time>
      </trkpt>
      <trkpt lat="42.770511" lon="0.131781">
        <ele>2124.5</ele>
        <time>2019-09-08T13:56:37Z</time>
      </trkpt>
      <trkpt lat="42.770412" lon="0.131820">
        <ele>2123.5</ele>
        <time>2019-09-08T13:56:46Z</time>
      </trkpt>
      <trkpt lat="42.770311" lon="0.131866">
        <ele>2121.9</ele>
        <time>2019-09-08T13:56:55Z</time>
      </trkpt>
      <trkpt lat="42.770219" lon="0.131945">
        <ele>2120.6</ele>
        <time>2019-09-08T13:57:04Z</time>
      </trkpt>
      <trkpt lat="42.770119" lon="0.132012">
        <ele>2119.8</ele>
        <time>2019-09-08T13:57:12Z</time>
      </trkpt>
      <trkpt lat="42.770026" lon="0.132039">
        <ele>2119.8</ele>
        <time>2019-09-08T13:57:20Z</time>
      </trkpt>
      <trkpt lat="42.769932" lon="0.132080">
        <ele>2119.9</ele>
        <time>2019-09-08T13:57:28Z</time>
      </trkpt>
      <trkpt lat="42.769846" lon="0.132106">
        <ele>2119.6</ele>
        <time>2019-09-08T13:57:37Z</time>
      </trkpt>
      <trkpt lat="42.769771" lon="0.132181">
        <ele>2119.1</ele>
        <time>2019-09-08T13:57:49Z</time>
      </trkpt>
      <trkpt lat="42.769682" lon="0.132214">
        <ele>2118.6</ele>
        <time>2019-09-08T13:57:57Z</time>
      </trkpt>
      <trkpt lat="42.769589" lon="0.132272">
        <ele>2117.9</ele>
        <time>2019-09-08T13:58:05Z</time>
      </trkpt>
      <trkpt lat="42.769497" lon="0.132317">
        <ele>2117.4</ele>
        <time>2019-09-08T13:58:13Z</time>
      </trkpt>
      <trkpt lat="42.769418" lon="0.132411">
        <ele>2116.3</ele>
        <time>2019-09-08T13:58:22Z</time>
      </trkpt>
      <trkpt lat="42.769326" lon="0.132455">
        <ele>2115.1</ele>
        <time>2019-09-08T13:58:30Z</time>
      </trkpt>
      <trkpt lat="42.769238" lon="0.132523">
        <ele>2114.5</ele>
        <time>2019-09-08T13:58:39Z</time>
      </trkpt>
      <trkpt lat="42.769156" lon="0.132630">
        <ele>2113.5</ele>
        <time>2019-09-08T13:58:48Z</time>
      </trkpt>
      <trkpt lat="42.769089" lon="0.132694">
        <ele>2111.7</ele>
        <time>2019-09-08T13:59:18Z</time>
      </trkpt>
      <trkpt lat="42.769018" lon="0.132787">
        <ele>2110.8</ele>
        <time>2019-09-08T13:59:29Z</time>
      </trkpt>
      <trkpt lat="42.768960" lon="0.132860">
        <ele>2108.7</ele>
        <time>2019-09-08T13:59:42Z</time>
      </trkpt>
      <trkpt lat="42.768874" lon="0.132935">
        <ele>2108.8</ele>
        <time>2019-09-08T13:59:55Z</time>
      </trkpt>
      <trkpt lat="42.768821" lon="0.133047">
        <ele>2109.3</ele>
        <time>2019-09-08T14:00:05Z</time>
      </trkpt>
      <trkpt lat="42.768784" lon="0.133160">
        <ele>2109.1</ele>
        <time>2019-09-08T14:00:14Z</time>
      </trkpt>
      <trkpt lat="42.768754" lon="0.133279">
        <ele>2107.9</ele>
        <time>2019-09-08T14:00:25Z</time>
      </trkpt>
      <trkpt lat="42.768765" lon="0.133399">
        <ele>2105.8</ele>
        <time>2019-09-08T14:00:35Z</time>
      </trkpt>
      <trkpt lat="42.768766" lon="0.133527">
        <ele>2103.5</ele>
        <time>2019-09-08T14:00:49Z</time>
      </trkpt>
      <trkpt lat="42.768780" lon="0.133665">
        <ele>2103.0</ele>
        <time>2019-09-08T14:00:58Z</time>
      </trkpt>
      <trkpt lat="42.768754" lon="0.133786">
        <ele>2102.3</ele>
        <time>2019-09-08T14:01:06Z</time>
      </trkpt>
      <trkpt lat="42.768685" lon="0.133866">
        <ele>2103.8</ele>
        <time>2019-09-08T14:01:22Z</time>
      </trkpt>
      <trkpt lat="42.768665" lon="0.133991">
        <ele>2103.2</ele>
        <time>2019-09-08T14:01:34Z</time>
      </trkpt>
      <trkpt lat="42.768638" lon="0.134114">
        <ele>2101.7</ele>
        <time>2019-09-08T14:01:43Z</time>
      </trkpt>
      <trkpt lat="42.768603" lon="0.134234">
        <ele>2099.8</ele>
        <time>2019-09-08T14:01:52Z</time>
      </trkpt>
      <trkpt lat="42.768553" lon="0.134343">
        <ele>2098.1</ele>
        <time>2019-09-08T14:02:01Z</time>
      </trkpt>
      <trkpt lat="42.768497" lon="0.134440">
        <ele>2096.6</ele>
        <time>2019-09-08T14:02:10Z</time>
      </trkpt>
      <trkpt lat="42.768417" lon="0.134511">
        <ele>2095.0</ele>
        <time>2019-09-08T14:02:19Z</time>
      </trkpt>
      <trkpt lat="42.768332" lon="0.134567">
        <ele>2094.0</ele>
        <time>2019-09-08T14:02:27Z</time>
      </trkpt>
      <trkpt lat="42.768287" lon="0.134659">
        <ele>2093.9</ele>
        <time>2019-09-08T14:02:38Z</time>
      </trkpt>
      <trkpt lat="42.768246" lon="0.134776">
        <ele>2093.1</ele>
        <time>2019-09-08T14:02:46Z</time>
      </trkpt>
      <trkpt lat="42.768201" lon="0.134912">
        <ele>2092.8</ele>
        <time>2019-09-08T14:02:56Z</time>
      </trkpt>
      <trkpt lat="42.768159" lon="0.135039">
        <ele>2092.0</ele>
        <time>2019-09-08T14:03:05Z</time>
      </trkpt>
      <trkpt lat="42.768165" lon="0.135163">
        <ele>2090.7</ele>
        <time>2019-09-08T14:03:13Z</time>
      </trkpt>
      <trkpt lat="42.768166" lon="0.135269">
        <ele>2089.4</ele>
        <time>2019-09-08T14:03:22Z</time>
      </trkpt>
      <trkpt lat="42.768188" lon="0.135347">
        <ele>2086.5</ele>
        <time>2019-09-08T14:03:34Z</time>
      </trkpt>
      <trkpt lat="42.768231" lon="0.135448">
        <ele>2083.9</ele>
        <time>2019-09-08T14:03:46Z</time>
      </trkpt>
      <trkpt lat="42.768199" lon="0.135521">
        <ele>2079.4</ele>
        <time>2019-09-08T14:05:35Z</time>
      </trkpt>
      <trkpt lat="42.768217" lon="0.135607">
        <ele>2079.4</ele>
        <time>2019-09-08T14:07:18Z</time>
      </trkpt>
      <trkpt lat="42.768147" lon="0.135695">
        <ele>2079.7</ele>
        <time>2019-09-08T14:07:29Z</time>
      </trkpt>
      <trkpt lat="42.768083" lon="0.135761">
        <ele>2082.5</ele>
        <time>2019-09-08T14:07:46Z</time>
      </trkpt>
      <trkpt lat="42.767981" lon="0.135789">
        <ele>2084.3</ele>
        <time>2019-09-08T14:07:59Z</time>
      </trkpt>
      <trkpt lat="42.767876" lon="0.135803">
        <ele>2086.1</ele>
        <time>2019-09-08T14:08:11Z</time>
      </trkpt>
      <trkpt lat="42.767779" lon="0.135822">
        <ele>2087.9</ele>
        <time>2019-09-08T14:08:22Z</time>
      </trkpt>
      <trkpt lat="42.767689" lon="0.135850">
        <ele>2087.9</ele>
        <time>2019-09-08T14:08:32Z</time>
      </trkpt>
      <trkpt lat="42.767592" lon="0.135862">
        <ele>2087.4</ele>
        <time>2019-09-08T14:08:41Z</time>
      </trkpt>
      <trkpt lat="42.767525" lon="0.135942">
        <ele>2087.8</ele>
        <time>2019-09-08T14:08:51Z</time>
      </trkpt>
      <trkpt lat="42.767462" lon="0.136037">
        <ele>2088.9</ele>
        <time>2019-09-08T14:09:01Z</time>
      </trkpt>
      <trkpt lat="42.767421" lon="0.136140">
        <ele>2089.6</ele>
        <time>2019-09-08T14:09:14Z</time>
      </trkpt>
      <trkpt lat="42.767346" lon="0.136184">
        <ele>2089.7</ele>
        <time>2019-09-08T14:10:02Z</time>
      </trkpt>
      <trkpt lat="42.767260" lon="0.136258">
        <ele>2089.2</ele>
        <time>2019-09-08T14:10:11Z</time>
      </trkpt>
      <trkpt lat="42.767169" lon="0.136313">
        <ele>2088.6</ele>
        <time>2019-09-08T14:10:19Z</time>
      </trkpt>
      <trkpt lat="42.767068" lon="0.136303">
        <ele>2088.4</ele>
        <time>2019-09-08T14:10:27Z</time>
      </trkpt>
      <trkpt lat="42.766955" lon="0.136293">
        <ele>2088.7</ele>
        <time>2019-09-08T14:10:36Z</time>
      </trkpt>
      <trkpt lat="42.766849" lon="0.136304">
        <ele>2089.1</ele>
        <time>2019-09-08T14:10:44Z</time>
      </trkpt>
      <trkpt lat="42.766757" lon="0.136339">
        <ele>2089.4</ele>
        <time>2019-09-08T14:10:52Z</time>
      </trkpt>
      <trkpt lat="42.766659" lon="0.136380">
        <ele>2089.9</ele>
        <time>2019-09-08T14:11:00Z</time>
      </trkpt>
      <trkpt lat="42.766572" lon="0.136400">
        <ele>2090.6</ele>
        <time>2019-09-08T14:11:08Z</time>
      </trkpt>
      <trkpt lat="42.766476" lon="0.136461">
        <ele>2091.6</ele>
        <time>2019-09-08T14:11:16Z</time>
      </trkpt>
      <trkpt lat="42.766403" lon="0.136549">
        <ele>2092.6</ele>
        <time>2019-09-08T14:11:23Z</time>
      </trkpt>
      <trkpt lat="42.766359" lon="0.136632">
        <ele>2093.8</ele>
        <time>2019-09-08T14:11:31Z</time>
      </trkpt>
      <trkpt lat="42.766263" lon="0.136616">
        <ele>2095.3</ele>
        <time>2019-09-08T14:11:42Z</time>
      </trkpt>
      <trkpt lat="42.766166" lon="0.136581">
        <ele>2095.4</ele>
        <time>2019-09-08T14:11:52Z</time>
      </trkpt>
      <trkpt lat="42.766073" lon="0.136571">
        <ele>2094.4</ele>
        <time>2019-09-08T14:12:00Z</time>
      </trkpt>
      <trkpt lat="42.765977" lon="0.136607">
        <ele>2093.1</ele>
        <time>2019-09-08T14:12:08Z</time>
      </trkpt>
      <trkpt lat="42.765878" lon="0.136603">
        <ele>2091.9</ele>
        <time>2019-09-08T14:12:18Z</time>
      </trkpt>
      <trkpt lat="42.765791" lon="0.136630">
        <ele>2091.1</ele>
        <time>2019-09-08T14:12:26Z</time>
      </trkpt>
      <trkpt lat="42.765704" lon="0.136690">
        <ele>2090.2</ele>
        <time>2019-09-08T14:12:35Z</time>
      </trkpt>
      <trkpt lat="42.765631" lon="0.136743">
        <ele>2089.3</ele>
        <time>2019-09-08T14:12:47Z</time>
      </trkpt>
      <trkpt lat="42.765648" lon="0.136904">
        <ele>2084.4</ele>
        <time>2019-09-08T14:36:59Z</time>
      </trkpt>
      <trkpt lat="42.765695" lon="0.136810">
        <ele>2086.6</ele>
        <time>2019-09-08T14:38:49Z</time>
      </trkpt>
      <trkpt lat="42.765748" lon="0.136718">
        <ele>2088.2</ele>
        <time>2019-09-08T14:39:51Z</time>
      </trkpt>
      <trkpt lat="42.765818" lon="0.136686">
        <ele>2088.8</ele>
        <time>2019-09-08T14:40:12Z</time>
      </trkpt>
      <trkpt lat="42.765889" lon="0.136631">
        <ele>2090.2</ele>
        <time>2019-09-08T14:41:03Z</time>
      </trkpt>
      <trkpt lat="42.765956" lon="0.136597">
        <ele>2090.7</ele>
        <time>2019-09-08T14:41:37Z</time>
      </trkpt>
      <trkpt lat="42.766042" lon="0.136635">
        <ele>2091.5</ele>
        <time>2019-09-08T14:41:53Z</time>
      </trkpt>
      <trkpt lat="42.766142" lon="0.136616">
        <ele>2092.7</ele>
        <time>2019-09-08T14:42:07Z</time>
      </trkpt>
      <trkpt lat="42.766239" lon="0.136591">
        <ele>2093.9</ele>
        <time>2019-09-08T14:42:23Z</time>
      </trkpt>
      <trkpt lat="42.766339" lon="0.136592">
        <ele>2094.5</ele>
        <time>2019-09-08T14:42:36Z</time>
      </trkpt>
      <trkpt lat="42.766432" lon="0.136573">
        <ele>2094.1</ele>
        <time>2019-09-08T14:42:47Z</time>
      </trkpt>
      <trkpt lat="42.766519" lon="0.136602">
        <ele>2093.6</ele>
        <time>2019-09-08T14:42:59Z</time>
      </trkpt>
      <trkpt lat="42.766625" lon="0.136590">
        <ele>2092.8</ele>
        <time>2019-09-08T14:43:10Z</time>
      </trkpt>
      <trkpt lat="42.766709" lon="0.136576">
        <ele>2092.3</ele>
        <time>2019-09-08T14:43:20Z</time>
      </trkpt>
      <trkpt lat="42.766801" lon="0.136576">
        <ele>2092.6</ele>
        <time>2019-09-08T14:43:31Z</time>
      </trkpt>
      <trkpt lat="42.766901" lon="0.136586">
        <ele>2092.4</ele>
        <time>2019-09-08T14:43:41Z</time>
      </trkpt>
      <trkpt lat="42.766994" lon="0.136591">
        <ele>2092.1</ele>
        <time>2019-09-08T14:43:50Z</time>
      </trkpt>
      <trkpt lat="42.767102" lon="0.136568">
        <ele>2091.8</ele>
        <time>2019-09-08T14:44:03Z</time>
      </trkpt>
      <trkpt lat="42.767195" lon="0.136524">
        <ele>2092.4</ele>
        <time>2019-09-08T14:44:14Z</time>
      </trkpt>
      <trkpt lat="42.767309" lon="0.136478">
        <ele>2092.6</ele>
        <time>2019-09-08T14:44:29Z</time>
      </trkpt>
      <trkpt lat="42.767405" lon="0.136418">
        <ele>2092.8</ele>
        <time>2019-09-08T14:44:39Z</time>
      </trkpt>
      <trkpt lat="42.767428" lon="0.136307">
        <ele>2092.4</ele>
        <time>2019-09-08T14:44:58Z</time>
      </trkpt>
      <trkpt lat="42.767446" lon="0.136176">
        <ele>2091.9</ele>
        <time>2019-09-08T14:45:09Z</time>
      </trkpt>
      <trkpt lat="42.767478" lon="0.136055">
        <ele>2090.7</ele>
        <time>2019-09-08T14:45:19Z</time>
      </trkpt>
      <trkpt lat="42.767528" lon="0.135941">
        <ele>2089.9</ele>
        <time>2019-09-08T14:45:28Z</time>
      </trkpt>
      <trkpt lat="42.767529" lon="0.135824">
        <ele>2088.3</ele>
        <time>2019-09-08T14:45:38Z</time>
      </trkpt>
      <trkpt lat="42.767557" lon="0.135807">
        <ele>2088.0</ele>
        <time>2019-09-08T14:48:35Z</time>
      </trkpt>
      <trkpt lat="42.767664" lon="0.135809">
        <ele>2087.7</ele>
        <time>2019-09-08T14:48:49Z</time>
      </trkpt>
      <trkpt lat="42.767769" lon="0.135808">
        <ele>2088.1</ele>
        <time>2019-09-08T14:49:00Z</time>
      </trkpt>
      <trkpt lat="42.767866" lon="0.135791">
        <ele>2088.6</ele>
        <time>2019-09-08T14:49:15Z</time>
      </trkpt>
      <trkpt lat="42.767965" lon="0.135822">
        <ele>2088.4</ele>
        <time>2019-09-08T14:49:24Z</time>
      </trkpt>
      <trkpt lat="42.768061" lon="0.135835">
        <ele>2088.4</ele>
        <time>2019-09-08T14:49:35Z</time>
      </trkpt>
      <trkpt lat="42.768161" lon="0.135829">
        <ele>2087.8</ele>
        <time>2019-09-08T14:49:49Z</time>
      </trkpt>
      <trkpt lat="42.768250" lon="0.135917">
        <ele>2087.2</ele>
        <time>2019-09-08T14:49:59Z</time>
      </trkpt>
      <trkpt lat="42.768314" lon="0.136017">
        <ele>2086.6</ele>
        <time>2019-09-08T14:50:08Z</time>
      </trkpt>
      <trkpt lat="42.768393" lon="0.136101">
        <ele>2085.1</ele>
        <time>2019-09-08T14:50:18Z</time>
      </trkpt>
      <trkpt lat="42.768472" lon="0.136166">
        <ele>2084.3</ele>
        <time>2019-09-08T14:50:27Z</time>
      </trkpt>
      <trkpt lat="42.768551" lon="0.136243">
        <ele>2083.6</ele>
        <time>2019-09-08T14:50:37Z</time>
      </trkpt>
      <trkpt lat="42.768613" lon="0.136308">
        <ele>2081.6</ele>
        <time>2019-09-08T14:51:08Z</time>
      </trkpt>
      <trkpt lat="42.768655" lon="0.136291">
        <ele>2080.4</ele>
        <time>2019-09-08T14:52:15Z</time>
      </trkpt>
      <trkpt lat="42.768748" lon="0.136314">
        <ele>2078.8</ele>
        <time>2019-09-08T14:52:31Z</time>
      </trkpt>
      <trkpt lat="42.768847" lon="0.136358">
        <ele>2076.9</ele>
        <time>2019-09-08T14:52:42Z</time>
      </trkpt>
      <trkpt lat="42.768948" lon="0.136423">
        <ele>2076.6</ele>
        <time>2019-09-08T14:52:53Z</time>
      </trkpt>
      <trkpt lat="42.769039" lon="0.136466">
        <ele>2076.7</ele>
        <time>2019-09-08T14:53:04Z</time>
      </trkpt>
      <trkpt lat="42.769134" lon="0.136497">
        <ele>2076.7</ele>
        <time>2019-09-08T14:53:13Z</time>
      </trkpt>
      <trkpt lat="42.769225" lon="0.136541">
        <ele>2076.7</ele>
        <time>2019-09-08T14:53:21Z</time>
      </trkpt>
      <trkpt lat="42.769330" lon="0.136606">
        <ele>2076.1</ele>
        <time>2019-09-08T14:53:30Z</time>
      </trkpt>
      <trkpt lat="42.769412" lon="0.136676">
        <ele>2074.9</ele>
        <time>2019-09-08T14:53:39Z</time>
      </trkpt>
      <trkpt lat="42.769505" lon="0.136644">
        <ele>2073.5</ele>
        <time>2019-09-08T14:53:48Z</time>
      </trkpt>
      <trkpt lat="42.769612" lon="0.136658">
        <ele>2071.4</ele>
        <time>2019-09-08T14:53:57Z</time>
      </trkpt>
      <trkpt lat="42.769699" lon="0.136607">
        <ele>2069.5</ele>
        <time>2019-09-08T14:54:06Z</time>
      </trkpt>
      <trkpt lat="42.769795" lon="0.136632">
        <ele>2067.1</ele>
        <time>2019-09-08T14:54:15Z</time>
      </trkpt>
      <trkpt lat="42.769894" lon="0.136600">
        <ele>2064.4</ele>
        <time>2019-09-08T14:54:27Z</time>
      </trkpt>
      <trkpt lat="42.769987" lon="0.136539">
        <ele>2061.4</ele>
        <time>2019-09-08T14:54:38Z</time>
      </trkpt>
      <trkpt lat="42.770078" lon="0.136454">
        <ele>2058.7</ele>
        <time>2019-09-08T14:54:50Z</time>
      </trkpt>
      <trkpt lat="42.770171" lon="0.136383">
        <ele>2054.8</ele>
        <time>2019-09-08T14:55:01Z</time>
      </trkpt>
      <trkpt lat="42.770233" lon="0.136291">
        <ele>2052.5</ele>
        <time>2019-09-08T14:55:10Z</time>
      </trkpt>
      <trkpt lat="42.770299" lon="0.136215">
        <ele>2050.1</ele>
        <time>2019-09-08T14:55:20Z</time>
      </trkpt>
      <trkpt lat="42.770363" lon="0.136112">
        <ele>2047.5</ele>
        <time>2019-09-08T14:55:31Z</time>
      </trkpt>
      <trkpt lat="42.770431" lon="0.136044">
        <ele>2045.0</ele>
        <time>2019-09-08T14:55:41Z</time>
      </trkpt>
      <trkpt lat="42.770519" lon="0.135994">
        <ele>2042.2</ele>
        <time>2019-09-08T14:55:54Z</time>
      </trkpt>
      <trkpt lat="42.770610" lon="0.135973">
        <ele>2039.8</ele>
        <time>2019-09-08T14:56:05Z</time>
      </trkpt>
      <trkpt lat="42.770708" lon="0.135938">
        <ele>2036.9</ele>
        <time>2019-09-08T14:56:16Z</time>
      </trkpt>
      <trkpt lat="42.770793" lon="0.135941">
        <ele>2035.0</ele>
        <time>2019-09-08T14:56:26Z</time>
      </trkpt>
      <trkpt lat="42.770898" lon="0.135966">
        <ele>2031.9</ele>
        <time>2019-09-08T14:56:39Z</time>
      </trkpt>
      <trkpt lat="42.770999" lon="0.135986">
        <ele>2030.4</ele>
        <time>2019-09-08T14:56:49Z</time>
      </trkpt>
      <trkpt lat="42.771081" lon="0.135969">
        <ele>2028.8</ele>
        <time>2019-09-08T14:57:01Z</time>
      </trkpt>
      <trkpt lat="42.771161" lon="0.135947">
        <ele>2026.1</ele>
        <time>2019-09-08T14:57:32Z</time>
      </trkpt>
      <trkpt lat="42.771269" lon="0.135962">
        <ele>2024.5</ele>
        <time>2019-09-08T14:57:44Z</time>
      </trkpt>
      <trkpt lat="42.771364" lon="0.135972">
        <ele>2023.0</ele>
        <time>2019-09-08T14:57:53Z</time>
      </trkpt>
      <trkpt lat="42.771455" lon="0.136008">
        <ele>2021.3</ele>
        <time>2019-09-08T14:58:02Z</time>
      </trkpt>
      <trkpt lat="42.771549" lon="0.136054">
        <ele>2019.8</ele>
        <time>2019-09-08T14:58:13Z</time>
      </trkpt>
      <trkpt lat="42.771644" lon="0.136080">
        <ele>2017.9</ele>
        <time>2019-09-08T14:58:23Z</time>
      </trkpt>
      <trkpt lat="42.771736" lon="0.136089">
        <ele>2016.1</ele>
        <time>2019-09-08T14:58:33Z</time>
      </trkpt>
      <trkpt lat="42.771813" lon="0.136158">
        <ele>2014.3</ele>
        <time>2019-09-08T14:58:43Z</time>
      </trkpt>
      <trkpt lat="42.771915" lon="0.136192">
        <ele>2011.6</ele>
        <time>2019-09-08T14:58:54Z</time>
      </trkpt>
      <trkpt lat="42.772017" lon="0.136200">
        <ele>2009.6</ele>
        <time>2019-09-08T14:59:07Z</time>
      </trkpt>
      <trkpt lat="42.772112" lon="0.136178">
        <ele>2007.2</ele>
        <time>2019-09-08T14:59:16Z</time>
      </trkpt>
      <trkpt lat="42.772213" lon="0.136201">
        <ele>2005.7</ele>
        <time>2019-09-08T14:59:25Z</time>
      </trkpt>
      <trkpt lat="42.772299" lon="0.136248">
        <ele>2003.7</ele>
        <time>2019-09-08T14:59:32Z</time>
      </trkpt>
      <trkpt lat="42.772410" lon="0.136238">
        <ele>2002.1</ele>
        <time>2019-09-08T14:59:42Z</time>
      </trkpt>
      <trkpt lat="42.772513" lon="0.136228">
        <ele>2002.9</ele>
        <time>2019-09-08T14:59:51Z</time>
      </trkpt>
      <trkpt lat="42.772604" lon="0.136284">
        <ele>2001.9</ele>
        <time>2019-09-08T15:00:00Z</time>
      </trkpt>
      <trkpt lat="42.772706" lon="0.136277">
        <ele>1999.9</ele>
        <time>2019-09-08T15:00:08Z</time>
      </trkpt>
      <trkpt lat="42.772803" lon="0.136266">
        <ele>1998.1</ele>
        <time>2019-09-08T15:00:15Z</time>
      </trkpt>
      <trkpt lat="42.772903" lon="0.136226">
        <ele>1995.9</ele>
        <time>2019-09-08T15:00:23Z</time>
      </trkpt>
      <trkpt lat="42.772992" lon="0.136185">
        <ele>1994.6</ele>
        <time>2019-09-08T15:00:30Z</time>
      </trkpt>
      <trkpt lat="42.773073" lon="0.136218">
        <ele>1992.6</ele>
        <time>2019-09-08T15:00:37Z</time>
      </trkpt>
      <trkpt lat="42.773154" lon="0.136240">
        <ele>1990.3</ele>
        <time>2019-09-08T15:00:45Z</time>
      </trkpt>
      <trkpt lat="42.773250" lon="0.136292">
        <ele>1988.0</ele>
        <time>2019-09-08T15:00:55Z</time>
      </trkpt>
      <trkpt lat="42.773358" lon="0.136307">
        <ele>1986.5</ele>
        <time>2019-09-08T15:01:05Z</time>
      </trkpt>
      <trkpt lat="42.773453" lon="0.136378">
        <ele>1984.1</ele>
        <time>2019-09-08T15:01:18Z</time>
      </trkpt>
      <trkpt lat="42.773553" lon="0.136379">
        <ele>1981.7</ele>
        <time>2019-09-08T15:01:26Z</time>
      </trkpt>
      <trkpt lat="42.773645" lon="0.136322">
        <ele>1979.3</ele>
        <time>2019-09-08T15:01:34Z</time>
      </trkpt>
      <trkpt lat="42.773741" lon="0.136301">
        <ele>1977.5</ele>
        <time>2019-09-08T15:01:43Z</time>
      </trkpt>
      <trkpt lat="42.773828" lon="0.136267">
        <ele>1975.1</ele>
        <time>2019-09-08T15:01:51Z</time>
      </trkpt>
      <trkpt lat="42.773910" lon="0.136276">
        <ele>1973.7</ele>
        <time>2019-09-08T15:02:05Z</time>
      </trkpt>
      <trkpt lat="42.774016" lon="0.136272">
        <ele>1973.1</ele>
        <time>2019-09-08T15:02:13Z</time>
      </trkpt>
      <trkpt lat="42.774119" lon="0.136265">
        <ele>1972.0</ele>
        <time>2019-09-08T15:02:21Z</time>
      </trkpt>
      <trkpt lat="42.774211" lon="0.136315">
        <ele>1971.0</ele>
        <time>2019-09-08T15:02:29Z</time>
      </trkpt>
      <trkpt lat="42.774300" lon="0.136342">
        <ele>1969.7</ele>
        <time>2019-09-08T15:02:37Z</time>
      </trkpt>
      <trkpt lat="42.774398" lon="0.136327">
        <ele>1968.9</ele>
        <time>2019-09-08T15:02:44Z</time>
      </trkpt>
      <trkpt lat="42.774485" lon="0.136365">
        <ele>1967.5</ele>
        <time>2019-09-08T15:02:51Z</time>
      </trkpt>
      <trkpt lat="42.774583" lon="0.136427">
        <ele>1966.4</ele>
        <time>2019-09-08T15:03:00Z</time>
      </trkpt>
      <trkpt lat="42.774661" lon="0.136477">
        <ele>1965.8</ele>
        <time>2019-09-08T15:03:08Z</time>
      </trkpt>
      <trkpt lat="42.774774" lon="0.136523">
        <ele>1964.6</ele>
        <time>2019-09-08T15:03:17Z</time>
      </trkpt>
      <trkpt lat="42.774882" lon="0.136537">
        <ele>1963.7</ele>
        <time>2019-09-08T15:03:25Z</time>
      </trkpt>
      <trkpt lat="42.774989" lon="0.136534">
        <ele>1961.5</ele>
        <time>2019-09-08T15:03:33Z</time>
      </trkpt>
      <trkpt lat="42.775080" lon="0.136479">
        <ele>1960.0</ele>
        <time>2019-09-08T15:03:40Z</time>
      </trkpt>
      <trkpt lat="42.775178" lon="0.136494">
        <ele>1958.9</ele>
        <time>2019-09-08T15:03:48Z</time>
      </trkpt>
      <trkpt lat="42.775258" lon="0.136549">
        <ele>1958.7</ele>
        <time>2019-09-08T15:03:55Z</time>
      </trkpt>
      <trkpt lat="42.775357" lon="0.136588">
        <ele>1958.2</ele>
        <time>2019-09-08T15:04:04Z</time>
      </trkpt>
      <trkpt lat="42.775454" lon="0.136623">
        <ele>1958.1</ele>
        <time>2019-09-08T15:04:11Z</time>
      </trkpt>
      <trkpt lat="42.775539" lon="0.136655">
        <ele>1958.2</ele>
        <time>2019-09-08T15:04:19Z</time>
      </trkpt>
      <trkpt lat="42.775616" lon="0.136718">
        <ele>1958.3</ele>
        <time>2019-09-08T15:04:33Z</time>
      </trkpt>
      <trkpt lat="42.775704" lon="0.136794">
        <ele>1956.9</ele>
        <time>2019-09-08T15:04:43Z</time>
      </trkpt>
      <trkpt lat="42.775797" lon="0.136846">
        <ele>1957.0</ele>
        <time>2019-09-08T15:04:51Z</time>
      </trkpt>
      <trkpt lat="42.775889" lon="0.136907">
        <ele>1957.0</ele>
        <time>2019-09-08T15:04:59Z</time>
      </trkpt>
      <trkpt lat="42.775955" lon="0.136980">
        <ele>1957.2</ele>
        <time>2019-09-08T15:05:07Z</time>
      </trkpt>
      <trkpt lat="42.776021" lon="0.137085">
        <ele>1958.1</ele>
        <time>2019-09-08T15:05:17Z</time>
      </trkpt>
      <trkpt lat="42.776104" lon="0.137156">
        <ele>1958.3</ele>
        <time>2019-09-08T15:05:26Z</time>
      </trkpt>
      <trkpt lat="42.776210" lon="0.137144">
        <ele>1958.2</ele>
        <time>2019-09-08T15:05:34Z</time>
      </trkpt>
      <trkpt lat="42.776296" lon="0.137195">
        <ele>1957.1</ele>
        <time>2019-09-08T15:05:41Z</time>
      </trkpt>
      <trkpt lat="42.776377" lon="0.137270">
        <ele>1956.5</ele>
        <time>2019-09-08T15:05:48Z</time>
      </trkpt>
      <trkpt lat="42.776445" lon="0.137388">
        <ele>1956.5</ele>
        <time>2019-09-08T15:05:56Z</time>
      </trkpt>
      <trkpt lat="42.776526" lon="0.137433">
        <ele>1956.2</ele>
        <time>2019-09-08T15:06:03Z</time>
      </trkpt>
      <trkpt lat="42.776613" lon="0.137482">
        <ele>1956.3</ele>
        <time>2019-09-08T15:06:10Z</time>
      </trkpt>
      <trkpt lat="42.776695" lon="0.137569">
        <ele>1956.4</ele>
        <time>2019-09-08T15:06:18Z</time>
      </trkpt>
      <trkpt lat="42.776745" lon="0.137665">
        <ele>1956.3</ele>
        <time>2019-09-08T15:06:26Z</time>
      </trkpt>
      <trkpt lat="42.776807" lon="0.137763">
        <ele>1956.4</ele>
        <time>2019-09-08T15:06:35Z</time>
      </trkpt>
      <trkpt lat="42.776847" lon="0.137861">
        <ele>1955.5</ele>
        <time>2019-09-08T15:06:43Z</time>
      </trkpt>
      <trkpt lat="42.776927" lon="0.137915">
        <ele>1952.7</ele>
        <time>2019-09-08T15:06:52Z</time>
      </trkpt>
      <trkpt lat="42.777017" lon="0.137887">
        <ele>1949.4</ele>
        <time>2019-09-08T15:07:03Z</time>
      </trkpt>
      <trkpt lat="42.777098" lon="0.137886">
        <ele>1946.9</ele>
        <time>2019-09-08T15:07:12Z</time>
      </trkpt>
      <trkpt lat="42.777198" lon="0.137918">
        <ele>1944.5</ele>
        <time>2019-09-08T15:07:20Z</time>
      </trkpt>
      <trkpt lat="42.777278" lon="0.137996">
        <ele>1942.9</ele>
        <time>2019-09-08T15:07:28Z</time>
      </trkpt>
      <trkpt lat="42.777354" lon="0.138099">
        <ele>1941.7</ele>
        <time>2019-09-08T15:07:36Z</time>
      </trkpt>
      <trkpt lat="42.777408" lon="0.138224">
        <ele>1939.6</ele>
        <time>2019-09-08T15:07:44Z</time>
      </trkpt>
      <trkpt lat="42.777421" lon="0.138351">
        <ele>1936.9</ele>
        <time>2019-09-08T15:07:52Z</time>
      </trkpt>
      <trkpt lat="42.777452" lon="0.138461">
        <ele>1935.7</ele>
        <time>2019-09-08T15:08:00Z</time>
      </trkpt>
      <trkpt lat="42.777531" lon="0.138532">
        <ele>1934.3</ele>
        <time>2019-09-08T15:08:09Z</time>
      </trkpt>
      <trkpt lat="42.777607" lon="0.138600">
        <ele>1933.1</ele>
        <time>2019-09-08T15:08:20Z</time>
      </trkpt>
      <trkpt lat="42.777693" lon="0.138654">
        <ele>1934.0</ele>
        <time>2019-09-08T15:08:29Z</time>
      </trkpt>
      <trkpt lat="42.777760" lon="0.138758">
        <ele>1934.7</ele>
        <time>2019-09-08T15:08:38Z</time>
      </trkpt>
      <trkpt lat="42.777823" lon="0.138849">
        <ele>1935.1</ele>
        <time>2019-09-08T15:08:48Z</time>
      </trkpt>
      <trkpt lat="42.777871" lon="0.138966">
        <ele>1935.1</ele>
        <time>2019-09-08T15:08:57Z</time>
      </trkpt>
      <trkpt lat="42.777950" lon="0.139033">
        <ele>1935.1</ele>
        <time>2019-09-08T15:09:05Z</time>
      </trkpt>
      <trkpt lat="42.778020" lon="0.139125">
        <ele>1935.1</ele>
        <time>2019-09-08T15:09:14Z</time>
      </trkpt>
      <trkpt lat="42.778086" lon="0.139243">
        <ele>1935.4</ele>
        <time>2019-09-08T15:09:24Z</time>
      </trkpt>
      <trkpt lat="42.778145" lon="0.139345">
        <ele>1935.6</ele>
        <time>2019-09-08T15:09:33Z</time>
      </trkpt>
      <trkpt lat="42.778229" lon="0.139437">
        <ele>1935.5</ele>
        <time>2019-09-08T15:09:43Z</time>
      </trkpt>
      <trkpt lat="42.778320" lon="0.139504">
        <ele>1936.0</ele>
        <time>2019-09-08T15:09:51Z</time>
      </trkpt>
      <trkpt lat="42.778433" lon="0.139552">
        <ele>1936.3</ele>
        <time>2019-09-08T15:10:01Z</time>
      </trkpt>
      <trkpt lat="42.778514" lon="0.139620">
        <ele>1935.8</ele>
        <time>2019-09-08T15:10:09Z</time>
      </trkpt>
      <trkpt lat="42.778569" lon="0.139731">
        <ele>1936.4</ele>
        <time>2019-09-08T15:10:19Z</time>
      </trkpt>
      <trkpt lat="42.778641" lon="0.139827">
        <ele>1936.4</ele>
        <time>2019-09-08T15:10:28Z</time>
      </trkpt>
      <trkpt lat="42.778739" lon="0.139853">
        <ele>1936.4</ele>
        <time>2019-09-08T15:10:36Z</time>
      </trkpt>
      <trkpt lat="42.778836" lon="0.139877">
        <ele>1936.2</ele>
        <time>2019-09-08T15:10:44Z</time>
      </trkpt>
      <trkpt lat="42.778930" lon="0.139888">
        <ele>1935.8</ele>
        <time>2019-09-08T15:10:54Z</time>
      </trkpt>
      <trkpt lat="42.779028" lon="0.139928">
        <ele>1935.6</ele>
        <time>2019-09-08T15:11:02Z</time>
      </trkpt>
      <trkpt lat="42.779112" lon="0.139975">
        <ele>1935.5</ele>
        <time>2019-09-08T15:11:11Z</time>
      </trkpt>
      <trkpt lat="42.779213" lon="0.139969">
        <ele>1935.3</ele>
        <time>2019-09-08T15:11:22Z</time>
      </trkpt>
      <trkpt lat="42.779319" lon="0.139957">
        <ele>1935.2</ele>
        <time>2019-09-08T15:11:30Z</time>
      </trkpt>
      <trkpt lat="42.779412" lon="0.139978">
        <ele>1934.9</ele>
        <time>2019-09-08T15:11:38Z</time>
      </trkpt>
      <trkpt lat="42.779494" lon="0.140034">
        <ele>1934.9</ele>
        <time>2019-09-08T15:11:47Z</time>
      </trkpt>
      <trkpt lat="42.779568" lon="0.140120">
        <ele>1933.9</ele>
        <time>2019-09-08T15:11:55Z</time>
      </trkpt>
      <trkpt lat="42.779614" lon="0.140244">
        <ele>1933.4</ele>
        <time>2019-09-08T15:12:03Z</time>
      </trkpt>
      <trkpt lat="42.779692" lon="0.140309">
        <ele>1933.0</ele>
        <time>2019-09-08T15:12:13Z</time>
      </trkpt>
      <trkpt lat="42.779761" lon="0.140255">
        <ele>1934.4</ele>
        <time>2019-09-08T15:12:23Z</time>
      </trkpt>
      <trkpt lat="42.779876" lon="0.140209">
        <ele>1935.1</ele>
        <time>2019-09-08T15:12:32Z</time>
      </trkpt>
      <trkpt lat="42.779967" lon="0.140242">
        <ele>1934.9</ele>
        <time>2019-09-08T15:12:41Z</time>
      </trkpt>
      <trkpt lat="42.780047" lon="0.140304">
        <ele>1934.3</ele>
        <time>2019-09-08T15:12:49Z</time>
      </trkpt>
      <trkpt lat="42.780108" lon="0.140311">
        <ele>1934.3</ele>
        <time>2019-09-08T15:14:03Z</time>
      </trkpt>
      <trkpt lat="42.780190" lon="0.140358">
        <ele>1934.0</ele>
        <time>2019-09-08T15:16:26Z</time>
      </trkpt>
      <trkpt lat="42.780274" lon="0.140428">
        <ele>1934.4</ele>
        <time>2019-09-08T15:16:36Z</time>
      </trkpt>
      <trkpt lat="42.780364" lon="0.140479">
        <ele>1934.1</ele>
        <time>2019-09-08T15:16:45Z</time>
      </trkpt>
      <trkpt lat="42.780424" lon="0.140558">
        <ele>1933.0</ele>
        <time>2019-09-08T15:16:54Z</time>
      </trkpt>
      <trkpt lat="42.780514" lon="0.140610">
        <ele>1931.6</ele>
        <time>2019-09-08T15:17:04Z</time>
      </trkpt>
      <trkpt lat="42.780605" lon="0.140675">
        <ele>1929.6</ele>
        <time>2019-09-08T15:17:15Z</time>
      </trkpt>
      <trkpt lat="42.780686" lon="0.140744">
        <ele>1928.2</ele>
        <time>2019-09-08T15:17:24Z</time>
      </trkpt>
      <trkpt lat="42.780768" lon="0.140804">
        <ele>1926.8</ele>
        <time>2019-09-08T15:17:33Z</time>
      </trkpt>
      <trkpt lat="42.780853" lon="0.140868">
        <ele>1926.0</ele>
        <time>2019-09-08T15:17:42Z</time>
      </trkpt>
      <trkpt lat="42.780936" lon="0.140916">
        <ele>1925.4</ele>
        <time>2019-09-08T15:17:51Z</time>
      </trkpt>
      <trkpt lat="42.781031" lon="0.140959">
        <ele>1924.6</ele>
        <time>2019-09-08T15:17:59Z</time>
      </trkpt>
      <trkpt lat="42.781116" lon="0.141010">
        <ele>1923.5</ele>
        <time>2019-09-08T15:18:07Z</time>
      </trkpt>
      <trkpt lat="42.781204" lon="0.141057">
        <ele>1922.6</ele>
        <time>2019-09-08T15:18:15Z</time>
      </trkpt>
      <trkpt lat="42.781284" lon="0.141124">
        <ele>1921.3</ele>
        <time>2019-09-08T15:18:23Z</time>
      </trkpt>
      <trkpt lat="42.781364" lon="0.141177">
        <ele>1920.1</ele>
        <time>2019-09-08T15:18:30Z</time>
      </trkpt>
      <trkpt lat="42.781445" lon="0.141238">
        <ele>1918.9</ele>
        <time>2019-09-08T15:18:38Z</time>
      </trkpt>
      <trkpt lat="42.781515" lon="0.141304">
        <ele>1917.4</ele>
        <time>2019-09-08T15:18:47Z</time>
      </trkpt>
      <trkpt lat="42.781595" lon="0.141361">
        <ele>1916.2</ele>
        <time>2019-09-08T15:18:55Z</time>
      </trkpt>
      <trkpt lat="42.781685" lon="0.141427">
        <ele>1914.4</ele>
        <time>2019-09-08T15:19:04Z</time>
      </trkpt>
      <trkpt lat="42.781775" lon="0.141484">
        <ele>1912.4</ele>
        <time>2019-09-08T15:19:12Z</time>
      </trkpt>
      <trkpt lat="42.781865" lon="0.141541">
        <ele>1911.3</ele>
        <time>2019-09-08T15:19:21Z</time>
      </trkpt>
      <trkpt lat="42.781953" lon="0.141582">
        <ele>1910.1</ele>
        <time>2019-09-08T15:19:29Z</time>
      </trkpt>
      <trkpt lat="42.782033" lon="0.141646">
        <ele>1908.5</ele>
        <time>2019-09-08T15:19:38Z</time>
      </trkpt>
      <trkpt lat="42.782119" lon="0.141708">
        <ele>1907.2</ele>
        <time>2019-09-08T15:19:47Z</time>
      </trkpt>
      <trkpt lat="42.782200" lon="0.141777">
        <ele>1906.2</ele>
        <time>2019-09-08T15:19:55Z</time>
      </trkpt>
      <trkpt lat="42.782276" lon="0.141848">
        <ele>1905.2</ele>
        <time>2019-09-08T15:20:03Z</time>
      </trkpt>
      <trkpt lat="42.782356" lon="0.141928">
        <ele>1904.2</ele>
        <time>2019-09-08T15:20:12Z</time>
      </trkpt>
      <trkpt lat="42.782437" lon="0.141990">
        <ele>1903.1</ele>
        <time>2019-09-08T15:20:21Z</time>
      </trkpt>
      <trkpt lat="42.782514" lon="0.142053">
        <ele>1902.1</ele>
        <time>2019-09-08T15:20:30Z</time>
      </trkpt>
      <trkpt lat="42.782596" lon="0.142099">
        <ele>1901.6</ele>
        <time>2019-09-08T15:20:38Z</time>
      </trkpt>
      <trkpt lat="42.782687" lon="0.142157">
        <ele>1900.9</ele>
        <time>2019-09-08T15:20:47Z</time>
      </trkpt>
      <trkpt lat="42.782769" lon="0.142225">
        <ele>1900.4</ele>
        <time>2019-09-08T15:20:56Z</time>
      </trkpt>
      <trkpt lat="42.782855" lon="0.142281">
        <ele>1899.8</ele>
        <time>2019-09-08T15:21:04Z</time>
      </trkpt>
      <trkpt lat="42.782939" lon="0.142350">
        <ele>1899.1</ele>
        <time>2019-09-08T15:21:12Z</time>
      </trkpt>
      <trkpt lat="42.783006" lon="0.142425">
        <ele>1897.8</ele>
        <time>2019-09-08T15:21:20Z</time>
      </trkpt>
      <trkpt lat="42.783072" lon="0.142510">
        <ele>1896.5</ele>
        <time>2019-09-08T15:21:28Z</time>
      </trkpt>
      <trkpt lat="42.783146" lon="0.142600">
        <ele>1895.0</ele>
        <time>2019-09-08T15:21:37Z</time>
      </trkpt>
      <trkpt lat="42.783231" lon="0.142670">
        <ele>1893.9</ele>
        <time>2019-09-08T15:21:45Z</time>
      </trkpt>
      <trkpt lat="42.783293" lon="0.142770">
        <ele>1892.5</ele>
        <time>2019-09-08T15:21:54Z</time>
      </trkpt>
      <trkpt lat="42.783356" lon="0.142867">
        <ele>1891.5</ele>
        <time>2019-09-08T15:22:02Z</time>
      </trkpt>
      <trkpt lat="42.783398" lon="0.142982">
        <ele>1889.8</ele>
        <time>2019-09-08T15:22:11Z</time>
      </trkpt>
      <trkpt lat="42.783442" lon="0.143095">
        <ele>1888.3</ele>
        <time>2019-09-08T15:22:20Z</time>
      </trkpt>
      <trkpt lat="42.783485" lon="0.143203">
        <ele>1886.6</ele>
        <time>2019-09-08T15:22:28Z</time>
      </trkpt>
      <trkpt lat="42.783525" lon="0.143330">
        <ele>1885.1</ele>
        <time>2019-09-08T15:22:37Z</time>
      </trkpt>
      <trkpt lat="42.783572" lon="0.143432">
        <ele>1883.9</ele>
        <time>2019-09-08T15:22:44Z</time>
      </trkpt>
      <trkpt lat="42.783611" lon="0.143543">
        <ele>1882.9</ele>
        <time>2019-09-08T15:22:53Z</time>
      </trkpt>
      <trkpt lat="42.783648" lon="0.143662">
        <ele>1882.1</ele>
        <time>2019-09-08T15:23:02Z</time>
      </trkpt>
      <trkpt lat="42.783733" lon="0.143723">
        <ele>1881.0</ele>
        <time>2019-09-08T15:23:09Z</time>
      </trkpt>
      <trkpt lat="42.783797" lon="0.143815">
        <ele>1880.4</ele>
        <time>2019-09-08T15:23:17Z</time>
      </trkpt>
      <trkpt lat="42.783845" lon="0.143921">
        <ele>1879.8</ele>
        <time>2019-09-08T15:23:25Z</time>
      </trkpt>
      <trkpt lat="42.783899" lon="0.144005">
        <ele>1879.2</ele>
        <time>2019-09-08T15:23:32Z</time>
      </trkpt>
      <trkpt lat="42.783954" lon="0.144097">
        <ele>1878.6</ele>
        <time>2019-09-08T15:23:40Z</time>
      </trkpt>
      <trkpt lat="42.784025" lon="0.144180">
        <ele>1877.8</ele>
        <time>2019-09-08T15:23:48Z</time>
      </trkpt>
      <trkpt lat="42.784079" lon="0.144273">
        <ele>1876.7</ele>
        <time>2019-09-08T15:23:56Z</time>
      </trkpt>
      <trkpt lat="42.784131" lon="0.144369">
        <ele>1875.4</ele>
        <time>2019-09-08T15:24:05Z</time>
      </trkpt>
      <trkpt lat="42.784191" lon="0.144457">
        <ele>1874.2</ele>
        <time>2019-09-08T15:24:14Z</time>
      </trkpt>
      <trkpt lat="42.784255" lon="0.144569">
        <ele>1871.9</ele>
        <time>2019-09-08T15:24:24Z</time>
      </trkpt>
      <trkpt lat="42.784316" lon="0.144657">
        <ele>1870.0</ele>
        <time>2019-09-08T15:24:34Z</time>
      </trkpt>
      <trkpt lat="42.784387" lon="0.144763">
        <ele>1868.6</ele>
        <time>2019-09-08T15:24:45Z</time>
      </trkpt>
      <trkpt lat="42.784459" lon="0.144854">
        <ele>1866.8</ele>
        <time>2019-09-08T15:24:54Z</time>
      </trkpt>
      <trkpt lat="42.784517" lon="0.144960">
        <ele>1865.3</ele>
        <time>2019-09-08T15:25:03Z</time>
      </trkpt>
      <trkpt lat="42.784586" lon="0.145050">
        <ele>1863.9</ele>
        <time>2019-09-08T15:25:11Z</time>
      </trkpt>
      <trkpt lat="42.784630" lon="0.145141">
        <ele>1862.2</ele>
        <time>2019-09-08T15:25:23Z</time>
      </trkpt>
      <trkpt lat="42.784685" lon="0.145205">
        <ele>1861.1</ele>
        <time>2019-09-08T15:25:56Z</time>
      </trkpt>
      <trkpt lat="42.784745" lon="0.145318">
        <ele>1859.8</ele>
        <time>2019-09-08T15:26:05Z</time>
      </trkpt>
      <trkpt lat="42.784797" lon="0.145428">
        <ele>1858.7</ele>
        <time>2019-09-08T15:26:13Z</time>
      </trkpt>
      <trkpt lat="42.784837" lon="0.145543">
        <ele>1857.6</ele>
        <time>2019-09-08T15:26:21Z</time>
      </trkpt>
      <trkpt lat="42.784883" lon="0.145660">
        <ele>1856.3</ele>
        <time>2019-09-08T15:26:29Z</time>
      </trkpt>
      <trkpt lat="42.784922" lon="0.145779">
        <ele>1854.6</ele>
        <time>2019-09-08T15:26:37Z</time>
      </trkpt>
      <trkpt lat="42.784939" lon="0.145908">
        <ele>1853.5</ele>
        <time>2019-09-08T15:26:45Z</time>
      </trkpt>
      <trkpt lat="42.785007" lon="0.146010">
        <ele>1852.5</ele>
        <time>2019-09-08T15:26:52Z</time>
      </trkpt>
      <trkpt lat="42.785044" lon="0.146144">
        <ele>1851.5</ele>
        <time>2019-09-08T15:27:01Z</time>
      </trkpt>
      <trkpt lat="42.785095" lon="0.146268">
        <ele>1850.8</ele>
        <time>2019-09-08T15:27:09Z</time>
      </trkpt>
      <trkpt lat="42.785133" lon="0.146388">
        <ele>1849.9</ele>
        <time>2019-09-08T15:27:17Z</time>
      </trkpt>
      <trkpt lat="42.785168" lon="0.146518">
        <ele>1849.4</ele>
        <time>2019-09-08T15:27:25Z</time>
      </trkpt>
      <trkpt lat="42.785226" lon="0.146652">
        <ele>1848.9</ele>
        <time>2019-09-08T15:27:33Z</time>
      </trkpt>
      <trkpt lat="42.785240" lon="0.146790">
        <ele>1848.1</ele>
        <time>2019-09-08T15:27:41Z</time>
      </trkpt>
      <trkpt lat="42.785275" lon="0.146900">
        <ele>1847.5</ele>
        <time>2019-09-08T15:27:49Z</time>
      </trkpt>
      <trkpt lat="42.785305" lon="0.147033">
        <ele>1846.8</ele>
        <time>2019-09-08T15:27:57Z</time>
      </trkpt>
      <trkpt lat="42.785311" lon="0.147159">
        <ele>1846.3</ele>
        <time>2019-09-08T15:28:04Z</time>
      </trkpt>
      <trkpt lat="42.785354" lon="0.147272">
        <ele>1845.4</ele>
        <time>2019-09-08T15:28:12Z</time>
      </trkpt>
      <trkpt lat="42.785366" lon="0.147396">
        <ele>1844.8</ele>
        <time>2019-09-08T15:28:20Z</time>
      </trkpt>
      <trkpt lat="42.785398" lon="0.147515">
        <ele>1843.6</ele>
        <time>2019-09-08T15:28:28Z</time>
      </trkpt>
      <trkpt lat="42.785426" lon="0.147648">
        <ele>1842.6</ele>
        <time>2019-09-08T15:28:36Z</time>
      </trkpt>
      <trkpt lat="42.785469" lon="0.147766">
        <ele>1841.9</ele>
        <time>2019-09-08T15:28:44Z</time>
      </trkpt>
      <trkpt lat="42.785492" lon="0.147889">
        <ele>1841.5</ele>
        <time>2019-09-08T15:28:51Z</time>
      </trkpt>
      <trkpt lat="42.785533" lon="0.148006">
        <ele>1840.9</ele>
        <time>2019-09-08T15:28:59Z</time>
      </trkpt>
      <trkpt lat="42.785570" lon="0.148118">
        <ele>1840.2</ele>
        <time>2019-09-08T15:29:07Z</time>
      </trkpt>
      <trkpt lat="42.785604" lon="0.148233">
        <ele>1839.2</ele>
        <time>2019-09-08T15:29:14Z</time>
      </trkpt>
      <trkpt lat="42.785646" lon="0.148359">
        <ele>1838.5</ele>
        <time>2019-09-08T15:29:22Z</time>
      </trkpt>
      <trkpt lat="42.785674" lon="0.148477">
        <ele>1838.0</ele>
        <time>2019-09-08T15:29:30Z</time>
      </trkpt>
      <trkpt lat="42.785706" lon="0.148600">
        <ele>1837.0</ele>
        <time>2019-09-08T15:29:38Z</time>
      </trkpt>
      <trkpt lat="42.785732" lon="0.148728">
        <ele>1836.1</ele>
        <time>2019-09-08T15:29:46Z</time>
      </trkpt>
      <trkpt lat="42.785752" lon="0.148844">
        <ele>1835.4</ele>
        <time>2019-09-08T15:29:54Z</time>
      </trkpt>
      <trkpt lat="42.785773" lon="0.148964">
        <ele>1834.7</ele>
        <time>2019-09-08T15:30:03Z</time>
      </trkpt>
      <trkpt lat="42.785816" lon="0.149097">
        <ele>1834.0</ele>
        <time>2019-09-08T15:30:11Z</time>
      </trkpt>
      <trkpt lat="42.785842" lon="0.149230">
        <ele>1833.6</ele>
        <time>2019-09-08T15:30:19Z</time>
      </trkpt>
      <trkpt lat="42.785874" lon="0.149352">
        <ele>1833.2</ele>
        <time>2019-09-08T15:30:27Z</time>
      </trkpt>
      <trkpt lat="42.785901" lon="0.149477">
        <ele>1832.9</ele>
        <time>2019-09-08T15:30:35Z</time>
      </trkpt>
      <trkpt lat="42.785926" lon="0.149603">
        <ele>1832.2</ele>
        <time>2019-09-08T15:30:43Z</time>
      </trkpt>
      <trkpt lat="42.785953" lon="0.149718">
        <ele>1831.4</ele>
        <time>2019-09-08T15:30:51Z</time>
      </trkpt>
      <trkpt lat="42.785977" lon="0.149832">
        <ele>1830.6</ele>
        <time>2019-09-08T15:30:59Z</time>
      </trkpt>
      <trkpt lat="42.786004" lon="0.149950">
        <ele>1830.1</ele>
        <time>2019-09-08T15:31:07Z</time>
      </trkpt>
      <trkpt lat="42.786056" lon="0.150072">
        <ele>1829.7</ele>
        <time>2019-09-08T15:31:15Z</time>
      </trkpt>
      <trkpt lat="42.786110" lon="0.150184">
        <ele>1829.4</ele>
        <time>2019-09-08T15:31:23Z</time>
      </trkpt>
      <trkpt lat="42.786183" lon="0.150289">
        <ele>1829.1</ele>
        <time>2019-09-08T15:31:31Z</time>
      </trkpt>
      <trkpt lat="42.786242" lon="0.150391">
        <ele>1828.9</ele>
        <time>2019-09-08T15:31:39Z</time>
      </trkpt>
      <trkpt lat="42.786274" lon="0.150506">
        <ele>1828.8</ele>
        <time>2019-09-08T15:31:47Z</time>
      </trkpt>
      <trkpt lat="42.786300" lon="0.150640">
        <ele>1828.6</ele>
        <time>2019-09-08T15:31:55Z</time>
      </trkpt>
      <trkpt lat="42.786315" lon="0.150777">
        <ele>1828.6</ele>
        <time>2019-09-08T15:32:04Z</time>
      </trkpt>
      <trkpt lat="42.786346" lon="0.150907">
        <ele>1828.3</ele>
        <time>2019-09-08T15:32:12Z</time>
      </trkpt>
      <trkpt lat="42.786374" lon="0.151033">
        <ele>1827.9</ele>
        <time>2019-09-08T15:32:20Z</time>
      </trkpt>
      <trkpt lat="42.786412" lon="0.151166">
        <ele>1828.1</ele>
        <time>2019-09-08T15:32:28Z</time>
      </trkpt>
      <trkpt lat="42.786442" lon="0.151280">
        <ele>1828.2</ele>
        <time>2019-09-08T15:32:36Z</time>
      </trkpt>
      <trkpt lat="42.786446" lon="0.151424">
        <ele>1827.9</ele>
        <time>2019-09-08T15:32:45Z</time>
      </trkpt>
      <trkpt lat="42.786455" lon="0.151544">
        <ele>1828.3</ele>
        <time>2019-09-08T15:32:53Z</time>
      </trkpt>
      <trkpt lat="42.786452" lon="0.151675">
        <ele>1828.9</ele>
        <time>2019-09-08T15:33:01Z</time>
      </trkpt>
      <trkpt lat="42.786451" lon="0.151802">
        <ele>1830.0</ele>
        <time>2019-09-08T15:33:10Z</time>
      </trkpt>
      <trkpt lat="42.786445" lon="0.151936">
        <ele>1830.9</ele>
        <time>2019-09-08T15:33:18Z</time>
      </trkpt>
      <trkpt lat="42.786437" lon="0.152064">
        <ele>1831.7</ele>
        <time>2019-09-08T15:33:26Z</time>
      </trkpt>
      <trkpt lat="42.786430" lon="0.152178">
        <ele>1832.3</ele>
        <time>2019-09-08T15:33:33Z</time>
      </trkpt>
      <trkpt lat="42.786413" lon="0.152295">
        <ele>1832.8</ele>
        <time>2019-09-08T15:33:41Z</time>
      </trkpt>
      <trkpt lat="42.786401" lon="0.152415">
        <ele>1833.2</ele>
        <time>2019-09-08T15:33:48Z</time>
      </trkpt>
      <trkpt lat="42.786398" lon="0.152535">
        <ele>1833.6</ele>
        <time>2019-09-08T15:33:55Z</time>
      </trkpt>
      <trkpt lat="42.786386" lon="0.152661">
        <ele>1833.9</ele>
        <time>2019-09-08T15:34:03Z</time>
      </trkpt>
      <trkpt lat="42.786358" lon="0.152773">
        <ele>1834.5</ele>
        <time>2019-09-08T15:34:11Z</time>
      </trkpt>
      <trkpt lat="42.786303" lon="0.152894">
        <ele>1835.4</ele>
        <time>2019-09-08T15:34:20Z</time>
      </trkpt>
      <trkpt lat="42.786272" lon="0.153021">
        <ele>1836.6</ele>
        <time>2019-09-08T15:34:29Z</time>
      </trkpt>
      <trkpt lat="42.786292" lon="0.153135">
        <ele>1837.7</ele>
        <time>2019-09-08T15:34:38Z</time>
      </trkpt>
      <trkpt lat="42.786344" lon="0.153213">
        <ele>1840.7</ele>
        <time>2019-09-08T15:35:13Z</time>
      </trkpt>
      <trkpt lat="42.786370" lon="0.153325">
        <ele>1843.3</ele>
        <time>2019-09-08T15:35:25Z</time>
      </trkpt>
      <trkpt lat="42.786308" lon="0.153427">
        <ele>1846.0</ele>
        <time>2019-09-08T15:35:37Z</time>
      </trkpt>
      <trkpt lat="42.786347" lon="0.153506">
        <ele>1848.4</ele>
        <time>2019-09-08T15:35:49Z</time>
      </trkpt>
      <trkpt lat="42.786371" lon="0.153602">
        <ele>1851.3</ele>
        <time>2019-09-08T15:36:02Z</time>
      </trkpt>
      <trkpt lat="42.786388" lon="0.153689">
        <ele>1854.7</ele>
        <time>2019-09-08T15:36:15Z</time>
      </trkpt>
      <trkpt lat="42.786391" lon="0.153794">
        <ele>1857.7</ele>
        <time>2019-09-08T15:36:29Z</time>
      </trkpt>
      <trkpt lat="42.786391" lon="0.153805">
        <ele>1858.6</ele>
        <time>2019-09-08T15:39:17Z</time>
      </trkpt>
      <trkpt lat="42.786412" lon="0.153886">
        <ele>1858.5</ele>
        <time>2019-09-08T15:39:58Z</time>
      </trkpt>
      <trkpt lat="42.786408" lon="0.154030">
        <ele>1858.4</ele>
        <time>2019-09-08T15:40:09Z</time>
      </trkpt>
      <trkpt lat="42.786430" lon="0.154153">
        <ele>1858.1</ele>
        <time>2019-09-08T15:40:19Z</time>
      </trkpt>
      <trkpt lat="42.786443" lon="0.154304">
        <ele>1857.9</ele>
        <time>2019-09-08T15:40:28Z</time>
      </trkpt>
      <trkpt lat="42.786428" lon="0.154447">
        <ele>1858.0</ele>
        <time>2019-09-08T15:40:36Z</time>
      </trkpt>
      <trkpt lat="42.786422" lon="0.154579">
        <ele>1858.1</ele>
        <time>2019-09-08T15:40:44Z</time>
      </trkpt>
      <trkpt lat="42.786421" lon="0.154706">
        <ele>1858.4</ele>
        <time>2019-09-08T15:40:52Z</time>
      </trkpt>
      <trkpt lat="42.786397" lon="0.154823">
        <ele>1858.4</ele>
        <time>2019-09-08T15:40:59Z</time>
      </trkpt>
      <trkpt lat="42.786386" lon="0.154940">
        <ele>1858.5</ele>
        <time>2019-09-08T15:41:07Z</time>
      </trkpt>
      <trkpt lat="42.786373" lon="0.155062">
        <ele>1858.5</ele>
        <time>2019-09-08T15:41:15Z</time>
      </trkpt>
      <trkpt lat="42.786366" lon="0.155107">
        <ele>1861.1</ele>
        <time>2019-09-08T15:41:19Z</time>
      </trkpt>
    </trkseg>
  </trk>
</gpx>

